<?xml version='1.0' encoding='UTF-8'?><gpx version="1.1" creator="JPX - https://github.com/jenetics/jpx" xmlns="http://www.topografix.com/GPX/1/1"><trk><trkseg><trkpt lat="46.6017763" lon="12.4793669"><ele>1219.0</ele><time>2026-04-26T04:35:26.116Z</time></trkpt><trkpt lat="46.601851" lon="12.4793068"><ele>1219.0</ele><time>2026-04-26T04:35:29.068Z</time></trkpt><trkpt lat="46.6021273" lon="12.4794063"><ele>1219.0</ele><time>2026-04-26T04:35:33.116Z</time></trkpt><trkpt lat="46.6022292" lon="12.4794712"><ele>1217.75</ele><time>2026-04-26T04:35:35.116Z</time></trkpt><trkpt lat="46.6023237" lon="12.4795042"><ele>1216.5</ele><time>2026-04-26T04:35:37.116Z</time></trkpt><trkpt lat="46.6024258" lon="12.4795546"><ele>1215.25</ele><time>2026-04-26T04:35:39.116Z</time></trkpt><trkpt lat="46.6025304" lon="12.479648"><ele>1214.0</ele><time>2026-04-26T04:35:41.116Z</time></trkpt><trkpt lat="46.6026491" lon="12.4797281"><ele>1213.9999999999998</ele><time>2026-04-26T04:35:43.116Z</time></trkpt><trkpt lat="46.6027112" lon="12.4797669"><ele>1214.0</ele><time>2026-04-26T04:35:44.116Z</time></trkpt><trkpt lat="46.6027717" lon="12.4798063"><ele>1214.0</ele><time>2026-04-26T04:35:45.117Z</time></trkpt><trkpt lat="46.602836" lon="12.4798456"><ele>1214.0</ele><time>2026-04-26T04:35:46.116Z</time></trkpt><trkpt lat="46.6029013" lon="12.4798833"><ele>1214.0</ele><time>2026-04-26T04:35:47.117Z</time></trkpt><trkpt lat="46.6029682" lon="12.4799193"><ele>1213.9999999999998</ele><time>2026-04-26T04:35:48.116Z</time></trkpt><trkpt lat="46.6030343" lon="12.479959"><ele>1214.0</ele><time>2026-04-26T04:35:49.116Z</time></trkpt><trkpt lat="46.6031022" lon="12.480001"><ele>1212.7142857142856</ele><time>2026-04-26T04:35:50.116Z</time></trkpt><trkpt lat="46.6031717" lon="12.4800442"><ele>1211.4285714285713</ele><time>2026-04-26T04:35:51.116Z</time></trkpt><trkpt lat="46.6032412" lon="12.4800869"><ele>1210.142857142857</ele><time>2026-04-26T04:35:52.116Z</time></trkpt><trkpt lat="46.6033094" lon="12.480132"><ele>1208.8571428571427</ele><time>2026-04-26T04:35:53.116Z</time></trkpt><trkpt lat="46.6033793" lon="12.4801729"><ele>1207.5714285714284</ele><time>2026-04-26T04:35:54.116Z</time></trkpt><trkpt lat="46.6034462" lon="12.4802137"><ele>1206.2857142857142</ele><time>2026-04-26T04:35:55.116Z</time></trkpt><trkpt lat="46.6035147" lon="12.4802513"><ele>1205.0</ele><time>2026-04-26T04:35:56.116Z</time></trkpt><trkpt lat="46.6035854" lon="12.4802841"><ele>1205.0</ele><time>2026-04-26T04:35:57.116Z</time></trkpt><trkpt lat="46.6036562" lon="12.4803099"><ele>1205.0</ele><time>2026-04-26T04:35:58.116Z</time></trkpt><trkpt lat="46.6037291" lon="12.4803292"><ele>1205.0</ele><time>2026-04-26T04:35:59.116Z</time></trkpt><trkpt lat="46.6038004" lon="12.4803392"><ele>1205.0</ele><time>2026-04-26T04:36:00.116Z</time></trkpt><trkpt lat="46.6038694" lon="12.4803402"><ele>1205.0</ele><time>2026-04-26T04:36:01.116Z</time></trkpt><trkpt lat="46.6039389" lon="12.4803307"><ele>1205.0</ele><time>2026-04-26T04:36:02.116Z</time></trkpt><trkpt lat="46.6040087" lon="12.4803153"><ele>1205.0</ele><time>2026-04-26T04:36:03.116Z</time></trkpt><trkpt lat="46.6040773" lon="12.4802988"><ele>1205.0</ele><time>2026-04-26T04:36:04.116Z</time></trkpt><trkpt lat="46.6041462" lon="12.4802827"><ele>1205.0</ele><time>2026-04-26T04:36:05.116Z</time></trkpt><trkpt lat="46.6042143" lon="12.480264"><ele>1205.0</ele><time>2026-04-26T04:36:06.116Z</time></trkpt><trkpt lat="46.6042814" lon="12.4802456"><ele>1205.0</ele><time>2026-04-26T04:36:07.116Z</time></trkpt><trkpt lat="46.6043479" lon="12.4802281"><ele>1205.0</ele><time>2026-04-26T04:36:08.116Z</time></trkpt><trkpt lat="46.6044143" lon="12.4802091"><ele>1205.0</ele><time>2026-04-26T04:36:09.116Z</time></trkpt><trkpt lat="46.6044809" lon="12.4801921"><ele>1205.0</ele><time>2026-04-26T04:36:10.116Z</time></trkpt><trkpt lat="46.6045457" lon="12.4801696"><ele>1204.7142857142858</ele><time>2026-04-26T04:36:11.116Z</time></trkpt><trkpt lat="46.604609" lon="12.4801363"><ele>1204.4285714285713</ele><time>2026-04-26T04:36:12.116Z</time></trkpt><trkpt lat="46.6046761" lon="12.4801128"><ele>1204.142857142857</ele><time>2026-04-26T04:36:13.117Z</time></trkpt><trkpt lat="46.6047434" lon="12.4800807"><ele>1203.857142857143</ele><time>2026-04-26T04:36:14.116Z</time></trkpt><trkpt lat="46.6048092" lon="12.4800617"><ele>1203.5714285714287</ele><time>2026-04-26T04:36:15.116Z</time></trkpt><trkpt lat="46.6048764" lon="12.4800475"><ele>1203.2857142857142</ele><time>2026-04-26T04:36:16.116Z</time></trkpt><trkpt lat="46.604944" lon="12.4800371"><ele>1203.0</ele><time>2026-04-26T04:36:17.117Z</time></trkpt><trkpt lat="46.6050136" lon="12.4800161"><ele>1203.0</ele><time>2026-04-26T04:36:18.116Z</time></trkpt><trkpt lat="46.6050809" lon="12.4799989"><ele>1203.0</ele><time>2026-04-26T04:36:19.117Z</time></trkpt><trkpt lat="46.6051487" lon="12.4799792"><ele>1203.0</ele><time>2026-04-26T04:36:20.116Z</time></trkpt><trkpt lat="46.6052167" lon="12.479961"><ele>1203.0</ele><time>2026-04-26T04:36:21.116Z</time></trkpt><trkpt lat="46.6052844" lon="12.4799406"><ele>1203.0</ele><time>2026-04-26T04:36:22.116Z</time></trkpt><trkpt lat="46.6053538" lon="12.4799233"><ele>1203.0</ele><time>2026-04-26T04:36:23.116Z</time></trkpt><trkpt lat="46.6054199" lon="12.4799051"><ele>1203.0</ele><time>2026-04-26T04:36:24.116Z</time></trkpt><trkpt lat="46.6054867" lon="12.479889"><ele>1202.857142857143</ele><time>2026-04-26T04:36:25.116Z</time></trkpt><trkpt lat="46.6055528" lon="12.4798683"><ele>1202.7142857142858</ele><time>2026-04-26T04:36:26.116Z</time></trkpt><trkpt lat="46.6056179" lon="12.4798515"><ele>1202.5714285714284</ele><time>2026-04-26T04:36:27.116Z</time></trkpt><trkpt lat="46.6056829" lon="12.4798332"><ele>1202.4285714285716</ele><time>2026-04-26T04:36:28.116Z</time></trkpt><trkpt lat="46.6057493" lon="12.4798144"><ele>1202.2857142857144</ele><time>2026-04-26T04:36:29.116Z</time></trkpt><trkpt lat="46.6058165" lon="12.4798042"><ele>1202.142857142857</ele><time>2026-04-26T04:36:30.116Z</time></trkpt><trkpt lat="46.6058863" lon="12.4798015"><ele>1202.0</ele><time>2026-04-26T04:36:31.116Z</time></trkpt><trkpt lat="46.6059575" lon="12.4798109"><ele>1202.0</ele><time>2026-04-26T04:36:32.116Z</time></trkpt><trkpt lat="46.6060282" lon="12.479839"><ele>1202.0</ele><time>2026-04-26T04:36:33.116Z</time></trkpt><trkpt lat="46.6060971" lon="12.4798764"><ele>1202.0</ele><time>2026-04-26T04:36:34.116Z</time></trkpt><trkpt lat="46.6061562" lon="12.4799304"><ele>1202.0</ele><time>2026-04-26T04:36:35.116Z</time></trkpt><trkpt lat="46.6062103" lon="12.4799994"><ele>1202.0</ele><time>2026-04-26T04:36:36.116Z</time></trkpt><trkpt lat="46.6062573" lon="12.4800724"><ele>1202.0</ele><time>2026-04-26T04:36:37.116Z</time></trkpt><trkpt lat="46.6063018" lon="12.4801478"><ele>1202.0</ele><time>2026-04-26T04:36:38.116Z</time></trkpt><trkpt lat="46.6063455" lon="12.4802214"><ele>1201.6666666666667</ele><time>2026-04-26T04:36:39.117Z</time></trkpt><trkpt lat="46.6063868" lon="12.4802955"><ele>1201.3333333333335</ele><time>2026-04-26T04:36:40.116Z</time></trkpt><trkpt lat="46.6064277" lon="12.4803664"><ele>1201.0</ele><time>2026-04-26T04:36:41.116Z</time></trkpt><trkpt lat="46.6064695" lon="12.4804411"><ele>1200.6666666666667</ele><time>2026-04-26T04:36:42.116Z</time></trkpt><trkpt lat="46.6065516" lon="12.48058"><ele>1200.3333333333333</ele><time>2026-04-26T04:36:44.116Z</time></trkpt><trkpt lat="46.606596" lon="12.4806456"><ele>1200.0</ele><time>2026-04-26T04:36:45.116Z</time></trkpt><trkpt lat="46.6067024" lon="12.4807127"><ele>1200.0</ele><time>2026-04-26T04:36:47.116Z</time></trkpt><trkpt lat="46.6068122" lon="12.4806763"><ele>1200.0</ele><time>2026-04-26T04:36:49.116Z</time></trkpt><trkpt lat="46.6069208" lon="12.480596"><ele>1200.0</ele><time>2026-04-26T04:36:51.116Z</time></trkpt><trkpt lat="46.6070284" lon="12.4805049"><ele>1200.0</ele><time>2026-04-26T04:36:53.116Z</time></trkpt><trkpt lat="46.6070849" lon="12.4804606"><ele>1200.0</ele><time>2026-04-26T04:36:54.116Z</time></trkpt><trkpt lat="46.6071933" lon="12.4803825"><ele>1199.75</ele><time>2026-04-26T04:36:56.116Z</time></trkpt><trkpt lat="46.6073048" lon="12.4803205"><ele>1199.5</ele><time>2026-04-26T04:36:58.116Z</time></trkpt><trkpt lat="46.6074127" lon="12.4802436"><ele>1199.25</ele><time>2026-04-26T04:37:00.116Z</time></trkpt><trkpt lat="46.6075225" lon="12.4801803"><ele>1199.0</ele><time>2026-04-26T04:37:02.116Z</time></trkpt><trkpt lat="46.6076326" lon="12.480121"><ele>1199.0</ele><time>2026-04-26T04:37:04.116Z</time></trkpt><trkpt lat="46.6077417" lon="12.4800649"><ele>1199.0</ele><time>2026-04-26T04:37:06.116Z</time></trkpt><trkpt lat="46.6079" lon="12.4800284"><ele>1199.0</ele><time>2026-04-26T04:37:09.116Z</time></trkpt><trkpt lat="46.6079929" lon="12.4800941"><ele>1199.0</ele><time>2026-04-26T04:37:11.116Z</time></trkpt><trkpt lat="46.6080624" lon="12.4801672"><ele>1199.857142857143</ele><time>2026-04-26T04:37:13.116Z</time></trkpt><trkpt lat="46.6081138" lon="12.4802405"><ele>1200.7142857142856</ele><time>2026-04-26T04:37:15.116Z</time></trkpt><trkpt lat="46.6081756" lon="12.4803267"><ele>1201.5714285714284</ele><time>2026-04-26T04:37:18.116Z</time></trkpt><trkpt lat="46.6082313" lon="12.4803914"><ele>1202.4285714285716</ele><time>2026-04-26T04:37:21.116Z</time></trkpt><trkpt lat="46.6082799" lon="12.4804638"><ele>1203.2857142857142</ele><time>2026-04-26T04:37:24.116Z</time></trkpt><trkpt lat="46.6083212" lon="12.4805367"><ele>1204.142857142857</ele><time>2026-04-26T04:37:27.116Z</time></trkpt><trkpt lat="46.6083681" lon="12.4806323"><ele>1205.0</ele><time>2026-04-26T04:37:31.116Z</time></trkpt><trkpt lat="46.6084205" lon="12.4807161"><ele>1206.1666666666667</ele><time>2026-04-26T04:37:35.117Z</time></trkpt><trkpt lat="46.6084716" lon="12.4808056"><ele>1207.3333333333335</ele><time>2026-04-26T04:37:39.116Z</time></trkpt><trkpt lat="46.6085169" lon="12.4808949"><ele>1208.5</ele><time>2026-04-26T04:37:43.116Z</time></trkpt><trkpt lat="46.608556" lon="12.4809888"><ele>1209.6666666666667</ele><time>2026-04-26T04:37:47.116Z</time></trkpt><trkpt lat="46.608604" lon="12.4810727"><ele>1210.8333333333333</ele><time>2026-04-26T04:37:51.115Z</time></trkpt><trkpt lat="46.6086758" lon="12.4811125"><ele>1212.0</ele><time>2026-04-26T04:37:55.116Z</time></trkpt><trkpt lat="46.6087579" lon="12.4810751"><ele>1212.3333333333333</ele><time>2026-04-26T04:37:59.116Z</time></trkpt><trkpt lat="46.6088481" lon="12.4810257"><ele>1212.6666666666667</ele><time>2026-04-26T04:38:02.116Z</time></trkpt><trkpt lat="46.6089156" lon="12.4809917"><ele>1213.0</ele><time>2026-04-26T04:38:04.116Z</time></trkpt><trkpt lat="46.6089845" lon="12.4809564"><ele>1213.3333333333335</ele><time>2026-04-26T04:38:06.116Z</time></trkpt><trkpt lat="46.609064" lon="12.4809393"><ele>1213.6666666666667</ele><time>2026-04-26T04:38:08.116Z</time></trkpt><trkpt lat="46.609138" lon="12.480914"><ele>1214.0</ele><time>2026-04-26T04:38:10.116Z</time></trkpt><trkpt lat="46.6092129" lon="12.4808829"><ele>1214.0</ele><time>2026-04-26T04:38:12.116Z</time></trkpt><trkpt lat="46.6092885" lon="12.4808605"><ele>1214.0</ele><time>2026-04-26T04:38:14.116Z</time></trkpt><trkpt lat="46.6093605" lon="12.4808279"><ele>1214.0</ele><time>2026-04-26T04:38:16.116Z</time></trkpt><trkpt lat="46.609439" lon="12.4808136"><ele>1214.0</ele><time>2026-04-26T04:38:18.116Z</time></trkpt><trkpt lat="46.6095186" lon="12.4807918"><ele>1214.0</ele><time>2026-04-26T04:38:20.116Z</time></trkpt><trkpt lat="46.6095966" lon="12.4807604"><ele>1214.0</ele><time>2026-04-26T04:38:22.116Z</time></trkpt><trkpt lat="46.609676" lon="12.4807303"><ele>1215.0</ele><time>2026-04-26T04:38:24.116Z</time></trkpt><trkpt lat="46.60976" lon="12.480709"><ele>1216.0</ele><time>2026-04-26T04:38:26.116Z</time></trkpt><trkpt lat="46.6098455" lon="12.4806924"><ele>1217.0</ele><time>2026-04-26T04:38:28.117Z</time></trkpt><trkpt lat="46.6099321" lon="12.4806752"><ele>1218.0</ele><time>2026-04-26T04:38:30.116Z</time></trkpt><trkpt lat="46.6100213" lon="12.4806507"><ele>1219.0</ele><time>2026-04-26T04:38:32.116Z</time></trkpt><trkpt lat="46.6101101" lon="12.4806249"><ele>1220.0</ele><time>2026-04-26T04:38:34.117Z</time></trkpt><trkpt lat="46.6101974" lon="12.4805986"><ele>1220.0</ele><time>2026-04-26T04:38:36.116Z</time></trkpt><trkpt lat="46.6102839" lon="12.4805731"><ele>1220.0</ele><time>2026-04-26T04:38:38.116Z</time></trkpt><trkpt lat="46.6103705" lon="12.4805513"><ele>1220.0</ele><time>2026-04-26T04:38:40.116Z</time></trkpt><trkpt lat="46.6104519" lon="12.4805094"><ele>1220.0</ele><time>2026-04-26T04:38:42.116Z</time></trkpt><trkpt lat="46.6105374" lon="12.4804812"><ele>1220.0</ele><time>2026-04-26T04:38:44.116Z</time></trkpt><trkpt lat="46.6106253" lon="12.4804615"><ele>1220.0</ele><time>2026-04-26T04:38:46.116Z</time></trkpt><trkpt lat="46.6107148" lon="12.4804521"><ele>1221.4</ele><time>2026-04-26T04:38:48.116Z</time></trkpt><trkpt lat="46.6108049" lon="12.480436"><ele>1222.8</ele><time>2026-04-26T04:38:50.116Z</time></trkpt><trkpt lat="46.6108954" lon="12.4804047"><ele>1224.2</ele><time>2026-04-26T04:38:52.116Z</time></trkpt><trkpt lat="46.6109873" lon="12.4803689"><ele>1225.6</ele><time>2026-04-26T04:38:54.116Z</time></trkpt><trkpt lat="46.6110757" lon="12.4803252"><ele>1227.0</ele><time>2026-04-26T04:38:56.116Z</time></trkpt><trkpt lat="46.611164" lon="12.4802731"><ele>1227.0</ele><time>2026-04-26T04:38:58.116Z</time></trkpt><trkpt lat="46.6112526" lon="12.4802295"><ele>1227.0</ele><time>2026-04-26T04:39:00.117Z</time></trkpt><trkpt lat="46.611346" lon="12.4801826"><ele>1227.0</ele><time>2026-04-26T04:39:02.117Z</time></trkpt><trkpt lat="46.6114392" lon="12.4801354"><ele>1227.0</ele><time>2026-04-26T04:39:04.116Z</time></trkpt><trkpt lat="46.6115313" lon="12.4800836"><ele>1227.0</ele><time>2026-04-26T04:39:06.116Z</time></trkpt><trkpt lat="46.6116226" lon="12.4800367"><ele>1227.0</ele><time>2026-04-26T04:39:08.116Z</time></trkpt><trkpt lat="46.6117136" lon="12.4799889"><ele>1227.0</ele><time>2026-04-26T04:39:10.117Z</time></trkpt><trkpt lat="46.611804" lon="12.4799439"><ele>1227.0</ele><time>2026-04-26T04:39:12.116Z</time></trkpt><trkpt lat="46.6118934" lon="12.4798836"><ele>1227.0</ele><time>2026-04-26T04:39:14.116Z</time></trkpt><trkpt lat="46.6119788" lon="12.4798185"><ele>1227.0</ele><time>2026-04-26T04:39:16.116Z</time></trkpt><trkpt lat="46.6120629" lon="12.4797482"><ele>1225.2</ele><time>2026-04-26T04:39:18.116Z</time></trkpt><trkpt lat="46.612145" lon="12.4796673"><ele>1223.4</ele><time>2026-04-26T04:39:20.116Z</time></trkpt><trkpt lat="46.6122292" lon="12.4795875"><ele>1221.6</ele><time>2026-04-26T04:39:22.116Z</time></trkpt><trkpt lat="46.6123139" lon="12.4795022"><ele>1219.8</ele><time>2026-04-26T04:39:24.116Z</time></trkpt><trkpt lat="46.612397" lon="12.4794189"><ele>1218.0</ele><time>2026-04-26T04:39:26.116Z</time></trkpt><trkpt lat="46.6124854" lon="12.4793437"><ele>1218.0</ele><time>2026-04-26T04:39:28.116Z</time></trkpt><trkpt lat="46.6125733" lon="12.4792733"><ele>1218.0</ele><time>2026-04-26T04:39:30.117Z</time></trkpt><trkpt lat="46.6126623" lon="12.479213"><ele>1218.0</ele><time>2026-04-26T04:39:32.116Z</time></trkpt><trkpt lat="46.6127558" lon="12.4791572"><ele>1218.0</ele><time>2026-04-26T04:39:34.116Z</time></trkpt><trkpt lat="46.6128495" lon="12.4791087"><ele>1218.0</ele><time>2026-04-26T04:39:36.116Z</time></trkpt><trkpt lat="46.6129437" lon="12.4790607"><ele>1222.2</ele><time>2026-04-26T04:39:38.116Z</time></trkpt><trkpt lat="46.6130358" lon="12.479012"><ele>1226.4</ele><time>2026-04-26T04:39:40.116Z</time></trkpt><trkpt lat="46.6131285" lon="12.4789593"><ele>1230.6000000000001</ele><time>2026-04-26T04:39:42.116Z</time></trkpt><trkpt lat="46.613221" lon="12.4789059"><ele>1234.8</ele><time>2026-04-26T04:39:44.116Z</time></trkpt><trkpt lat="46.6133144" lon="12.4788608"><ele>1239.0</ele><time>2026-04-26T04:39:46.116Z</time></trkpt><trkpt lat="46.6134048" lon="12.4788085"><ele>1237.0</ele><time>2026-04-26T04:39:48.116Z</time></trkpt><trkpt lat="46.6135006" lon="12.4787578"><ele>1235.0</ele><time>2026-04-26T04:39:50.116Z</time></trkpt><trkpt lat="46.6135957" lon="12.4787057"><ele>1233.0</ele><time>2026-04-26T04:39:52.116Z</time></trkpt><trkpt lat="46.6136904" lon="12.4786585"><ele>1231.0</ele><time>2026-04-26T04:39:54.116Z</time></trkpt><trkpt lat="46.6137848" lon="12.4786115"><ele>1229.0</ele><time>2026-04-26T04:39:56.116Z</time></trkpt><trkpt lat="46.613873" lon="12.4785597"><ele>1229.0</ele><time>2026-04-26T04:39:58.116Z</time></trkpt><trkpt lat="46.6139626" lon="12.4785055"><ele>1229.0</ele><time>2026-04-26T04:40:00.116Z</time></trkpt><trkpt lat="46.6140502" lon="12.478446"><ele>1229.0</ele><time>2026-04-26T04:40:02.116Z</time></trkpt><trkpt lat="46.6141347" lon="12.4783696"><ele>1229.0</ele><time>2026-04-26T04:40:04.117Z</time></trkpt><trkpt lat="46.6142123" lon="12.4782801"><ele>1229.0</ele><time>2026-04-26T04:40:06.116Z</time></trkpt><trkpt lat="46.6142795" lon="12.4781813"><ele>1229.0</ele><time>2026-04-26T04:40:08.116Z</time></trkpt><trkpt lat="46.6143418" lon="12.4780592"><ele>1229.0</ele><time>2026-04-26T04:40:10.116Z</time></trkpt><trkpt lat="46.6143959" lon="12.4779337"><ele>1229.0</ele><time>2026-04-26T04:40:12.116Z</time></trkpt><trkpt lat="46.614444" lon="12.4778"><ele>1229.0</ele><time>2026-04-26T04:40:14.116Z</time></trkpt><trkpt lat="46.6144988" lon="12.4776735"><ele>1229.0</ele><time>2026-04-26T04:40:16.116Z</time></trkpt><trkpt lat="46.6145471" lon="12.4775439"><ele>1228.4</ele><time>2026-04-26T04:40:18.116Z</time></trkpt><trkpt lat="46.6146004" lon="12.4774222"><ele>1227.8000000000002</ele><time>2026-04-26T04:40:20.116Z</time></trkpt><trkpt lat="46.6146527" lon="12.4772933"><ele>1227.1999999999998</ele><time>2026-04-26T04:40:22.116Z</time></trkpt><trkpt lat="46.6147062" lon="12.4771723"><ele>1226.6</ele><time>2026-04-26T04:40:24.116Z</time></trkpt><trkpt lat="46.614758" lon="12.4770484"><ele>1226.0</ele><time>2026-04-26T04:40:26.117Z</time></trkpt><trkpt lat="46.61481" lon="12.4769248"><ele>1226.0</ele><time>2026-04-26T04:40:28.116Z</time></trkpt><trkpt lat="46.6148615" lon="12.4768007"><ele>1226.0</ele><time>2026-04-26T04:40:30.117Z</time></trkpt><trkpt lat="46.6149135" lon="12.476682"><ele>1226.0</ele><time>2026-04-26T04:40:32.116Z</time></trkpt><trkpt lat="46.6149672" lon="12.4765591"><ele>1226.0</ele><time>2026-04-26T04:40:34.117Z</time></trkpt><trkpt lat="46.6150189" lon="12.4764367"><ele>1226.0</ele><time>2026-04-26T04:40:36.117Z</time></trkpt><trkpt lat="46.6150672" lon="12.4763098"><ele>1225.8</ele><time>2026-04-26T04:40:38.117Z</time></trkpt><trkpt lat="46.615121" lon="12.4761861"><ele>1225.6</ele><time>2026-04-26T04:40:40.117Z</time></trkpt><trkpt lat="46.6151748" lon="12.476067"><ele>1225.4</ele><time>2026-04-26T04:40:42.117Z</time></trkpt><trkpt lat="46.6152259" lon="12.4759479"><ele>1225.2</ele><time>2026-04-26T04:40:44.117Z</time></trkpt><trkpt lat="46.6152793" lon="12.4758311"><ele>1225.0</ele><time>2026-04-26T04:40:46.117Z</time></trkpt><trkpt lat="46.615346" lon="12.4757345"><ele>1225.0</ele><time>2026-04-26T04:40:48.117Z</time></trkpt><trkpt lat="46.615425" lon="12.4756543"><ele>1225.0</ele><time>2026-04-26T04:40:50.117Z</time></trkpt><trkpt lat="46.6155155" lon="12.4756123"><ele>1225.0</ele><time>2026-04-26T04:40:52.117Z</time></trkpt><trkpt lat="46.615601" lon="12.4756014"><ele>1225.0</ele><time>2026-04-26T04:40:54.117Z</time></trkpt><trkpt lat="46.615682" lon="12.4755998"><ele>1225.0</ele><time>2026-04-26T04:40:56.117Z</time></trkpt><trkpt lat="46.6157628" lon="12.4755995"><ele>1225.0</ele><time>2026-04-26T04:40:58.118Z</time></trkpt><trkpt lat="46.6158416" lon="12.4756003"><ele>1225.0</ele><time>2026-04-26T04:41:00.117Z</time></trkpt><trkpt lat="46.6159218" lon="12.4756045"><ele>1225.0</ele><time>2026-04-26T04:41:02.117Z</time></trkpt><trkpt lat="46.616005" lon="12.4756124"><ele>1225.0</ele><time>2026-04-26T04:41:04.117Z</time></trkpt><trkpt lat="46.6160869" lon="12.4756212"><ele>1225.0</ele><time>2026-04-26T04:41:06.117Z</time></trkpt><trkpt lat="46.6161693" lon="12.4756291"><ele>1225.0</ele><time>2026-04-26T04:41:08.117Z</time></trkpt><trkpt lat="46.6162541" lon="12.4756384"><ele>1225.0</ele><time>2026-04-26T04:41:10.117Z</time></trkpt><trkpt lat="46.6163396" lon="12.4756425"><ele>1225.3333333333333</ele><time>2026-04-26T04:41:12.117Z</time></trkpt><trkpt lat="46.6164269" lon="12.4756459"><ele>1225.6666666666665</ele><time>2026-04-26T04:41:14.117Z</time></trkpt><trkpt lat="46.6165138" lon="12.4756445"><ele>1226.0</ele><time>2026-04-26T04:41:16.117Z</time></trkpt><trkpt lat="46.6165988" lon="12.475643"><ele>1226.3333333333333</ele><time>2026-04-26T04:41:18.117Z</time></trkpt><trkpt lat="46.616684" lon="12.4756405"><ele>1226.6666666666667</ele><time>2026-04-26T04:41:20.117Z</time></trkpt><trkpt lat="46.6167672" lon="12.4756319"><ele>1227.0</ele><time>2026-04-26T04:41:22.117Z</time></trkpt><trkpt lat="46.6168485" lon="12.475608"><ele>1227.0</ele><time>2026-04-26T04:41:24.117Z</time></trkpt><trkpt lat="46.6169273" lon="12.4755653"><ele>1227.0</ele><time>2026-04-26T04:41:26.117Z</time></trkpt><trkpt lat="46.6170468" lon="12.4754963"><ele>1227.0</ele><time>2026-04-26T04:41:29.117Z</time></trkpt><trkpt lat="46.6171256" lon="12.4754471"><ele>1227.0</ele><time>2026-04-26T04:41:31.117Z</time></trkpt><trkpt lat="46.617203" lon="12.4753996"><ele>1227.0</ele><time>2026-04-26T04:41:33.117Z</time></trkpt><trkpt lat="46.6172802" lon="12.475353"><ele>1227.5</ele><time>2026-04-26T04:41:35.117Z</time></trkpt><trkpt lat="46.6173568" lon="12.4753063"><ele>1228.0</ele><time>2026-04-26T04:41:37.117Z</time></trkpt><trkpt lat="46.6174333" lon="12.4752601"><ele>1228.5</ele><time>2026-04-26T04:41:39.117Z</time></trkpt><trkpt lat="46.6175092" lon="12.4752139"><ele>1229.0</ele><time>2026-04-26T04:41:41.117Z</time></trkpt><trkpt lat="46.6175836" lon="12.4751641"><ele>1229.5</ele><time>2026-04-26T04:41:43.117Z</time></trkpt><trkpt lat="46.6176602" lon="12.4751163"><ele>1230.0</ele><time>2026-04-26T04:41:45.117Z</time></trkpt><trkpt lat="46.6177374" lon="12.4750646"><ele>1230.0</ele><time>2026-04-26T04:41:47.117Z</time></trkpt><trkpt lat="46.6178153" lon="12.4750151"><ele>1230.0</ele><time>2026-04-26T04:41:49.117Z</time></trkpt><trkpt lat="46.6178945" lon="12.4749694"><ele>1230.0</ele><time>2026-04-26T04:41:51.117Z</time></trkpt><trkpt lat="46.617973" lon="12.4749196"><ele>1230.0</ele><time>2026-04-26T04:41:53.117Z</time></trkpt><trkpt lat="46.6180514" lon="12.4748701"><ele>1230.0</ele><time>2026-04-26T04:41:55.117Z</time></trkpt><trkpt lat="46.6181283" lon="12.4748232"><ele>1230.0</ele><time>2026-04-26T04:41:57.117Z</time></trkpt><trkpt lat="46.6182042" lon="12.47477"><ele>1230.6666666666667</ele><time>2026-04-26T04:41:59.117Z</time></trkpt><trkpt lat="46.6182774" lon="12.4747211"><ele>1231.3333333333333</ele><time>2026-04-26T04:42:01.117Z</time></trkpt><trkpt lat="46.618345" lon="12.4746706"><ele>1232.0</ele><time>2026-04-26T04:42:03.117Z</time></trkpt><trkpt lat="46.6184155" lon="12.4746219"><ele>1232.6666666666665</ele><time>2026-04-26T04:42:05.117Z</time></trkpt><trkpt lat="46.6184901" lon="12.4745739"><ele>1233.3333333333333</ele><time>2026-04-26T04:42:07.117Z</time></trkpt><trkpt lat="46.6185586" lon="12.4745255"><ele>1234.0</ele><time>2026-04-26T04:42:09.117Z</time></trkpt><trkpt lat="46.6186263" lon="12.4744787"><ele>1235.3333333333333</ele><time>2026-04-26T04:42:11.117Z</time></trkpt><trkpt lat="46.618697" lon="12.4744334"><ele>1236.6666666666665</ele><time>2026-04-26T04:42:13.117Z</time></trkpt><trkpt lat="46.6187653" lon="12.474384"><ele>1238.0</ele><time>2026-04-26T04:42:15.117Z</time></trkpt><trkpt lat="46.618832" lon="12.4743337"><ele>1239.3333333333333</ele><time>2026-04-26T04:42:17.118Z</time></trkpt><trkpt lat="46.6189043" lon="12.4743008"><ele>1240.6666666666667</ele><time>2026-04-26T04:42:19.117Z</time></trkpt><trkpt lat="46.6189798" lon="12.4742741"><ele>1242.0</ele><time>2026-04-26T04:42:21.117Z</time></trkpt><trkpt lat="46.6190543" lon="12.4742456"><ele>1242.0</ele><time>2026-04-26T04:42:23.117Z</time></trkpt><trkpt lat="46.619127" lon="12.4742182"><ele>1242.0</ele><time>2026-04-26T04:42:25.117Z</time></trkpt><trkpt lat="46.6192028" lon="12.4741998"><ele>1242.0</ele><time>2026-04-26T04:42:27.117Z</time></trkpt><trkpt lat="46.6192792" lon="12.474182"><ele>1242.0</ele><time>2026-04-26T04:42:29.118Z</time></trkpt><trkpt lat="46.6193555" lon="12.4741625"><ele>1242.0</ele><time>2026-04-26T04:42:31.117Z</time></trkpt><trkpt lat="46.6194303" lon="12.474144"><ele>1242.0</ele><time>2026-04-26T04:42:33.117Z</time></trkpt><trkpt lat="46.6195032" lon="12.474122"><ele>1245.2857142857142</ele><time>2026-04-26T04:42:35.117Z</time></trkpt><trkpt lat="46.6195756" lon="12.4740971"><ele>1248.5714285714284</ele><time>2026-04-26T04:42:37.117Z</time></trkpt><trkpt lat="46.6196471" lon="12.474075"><ele>1251.8571428571427</ele><time>2026-04-26T04:42:39.117Z</time></trkpt><trkpt lat="46.6197181" lon="12.4740498"><ele>1255.142857142857</ele><time>2026-04-26T04:42:41.117Z</time></trkpt><trkpt lat="46.6197879" lon="12.4740203"><ele>1258.4285714285716</ele><time>2026-04-26T04:42:43.117Z</time></trkpt><trkpt lat="46.6198584" lon="12.4739838"><ele>1261.7142857142856</ele><time>2026-04-26T04:42:45.117Z</time></trkpt><trkpt lat="46.6199295" lon="12.4739505"><ele>1265.0</ele><time>2026-04-26T04:42:47.117Z</time></trkpt><trkpt lat="46.6199978" lon="12.4739142"><ele>1265.0</ele><time>2026-04-26T04:42:49.117Z</time></trkpt><trkpt lat="46.6200683" lon="12.473879"><ele>1265.0</ele><time>2026-04-26T04:42:51.117Z</time></trkpt><trkpt lat="46.6201384" lon="12.4738426"><ele>1265.0</ele><time>2026-04-26T04:42:53.117Z</time></trkpt><trkpt lat="46.6202094" lon="12.4738027"><ele>1265.0</ele><time>2026-04-26T04:42:55.117Z</time></trkpt><trkpt lat="46.6202807" lon="12.4737651"><ele>1265.0</ele><time>2026-04-26T04:42:57.117Z</time></trkpt><trkpt lat="46.6203538" lon="12.4737322"><ele>1265.0</ele><time>2026-04-26T04:42:59.117Z</time></trkpt><trkpt lat="46.6204242" lon="12.473704"><ele>1264.3333333333335</ele><time>2026-04-26T04:43:01.117Z</time></trkpt><trkpt lat="46.6204929" lon="12.4736635"><ele>1263.6666666666667</ele><time>2026-04-26T04:43:03.117Z</time></trkpt><trkpt lat="46.6205643" lon="12.4736204"><ele>1263.0</ele><time>2026-04-26T04:43:05.117Z</time></trkpt><trkpt lat="46.620631" lon="12.4735678"><ele>1262.3333333333333</ele><time>2026-04-26T04:43:07.117Z</time></trkpt><trkpt lat="46.620695" lon="12.4735113"><ele>1261.6666666666665</ele><time>2026-04-26T04:43:09.117Z</time></trkpt><trkpt lat="46.6207598" lon="12.4734553"><ele>1261.0</ele><time>2026-04-26T04:43:11.117Z</time></trkpt><trkpt lat="46.620824" lon="12.4734004"><ele>1261.0</ele><time>2026-04-26T04:43:13.117Z</time></trkpt><trkpt lat="46.6208855" lon="12.4733412"><ele>1261.0</ele><time>2026-04-26T04:43:15.117Z</time></trkpt><trkpt lat="46.6209464" lon="12.4732806"><ele>1261.0</ele><time>2026-04-26T04:43:17.117Z</time></trkpt><trkpt lat="46.6210049" lon="12.4732187"><ele>1261.0</ele><time>2026-04-26T04:43:19.118Z</time></trkpt><trkpt lat="46.6210666" lon="12.4731632"><ele>1261.0</ele><time>2026-04-26T04:43:21.117Z</time></trkpt><trkpt lat="46.6211287" lon="12.4731101"><ele>1261.0</ele><time>2026-04-26T04:43:23.117Z</time></trkpt><trkpt lat="46.621194" lon="12.4730605"><ele>1261.0</ele><time>2026-04-26T04:43:25.117Z</time></trkpt><trkpt lat="46.6212627" lon="12.4730203"><ele>1261.0</ele><time>2026-04-26T04:43:27.118Z</time></trkpt><trkpt lat="46.6213682" lon="12.4729729"><ele>1261.0</ele><time>2026-04-26T04:43:30.117Z</time></trkpt><trkpt lat="46.6214405" lon="12.472949"><ele>1261.0</ele><time>2026-04-26T04:43:32.117Z</time></trkpt><trkpt lat="46.6215141" lon="12.4729243"><ele>1261.0</ele><time>2026-04-26T04:43:34.117Z</time></trkpt><trkpt lat="46.6215886" lon="12.4729031"><ele>1261.0</ele><time>2026-04-26T04:43:36.117Z</time></trkpt><trkpt lat="46.6216583" lon="12.472879"><ele>1261.0</ele><time>2026-04-26T04:43:38.117Z</time></trkpt><trkpt lat="46.6217268" lon="12.4728512"><ele>1261.0</ele><time>2026-04-26T04:43:40.117Z</time></trkpt><trkpt lat="46.6218232" lon="12.4727963"><ele>1261.0</ele><time>2026-04-26T04:43:43.117Z</time></trkpt><trkpt lat="46.6218809" lon="12.4727377"><ele>1261.0</ele><time>2026-04-26T04:43:45.117Z</time></trkpt><trkpt lat="46.6219324" lon="12.4726652"><ele>1261.0</ele><time>2026-04-26T04:43:47.117Z</time></trkpt><trkpt lat="46.6219775" lon="12.4725806"><ele>1261.0</ele><time>2026-04-26T04:43:49.117Z</time></trkpt><trkpt lat="46.6220136" lon="12.4724815"><ele>1261.0</ele><time>2026-04-26T04:43:51.117Z</time></trkpt><trkpt lat="46.6220445" lon="12.4723817"><ele>1262.8333333333333</ele><time>2026-04-26T04:43:53.117Z</time></trkpt><trkpt lat="46.6220695" lon="12.472278"><ele>1264.6666666666665</ele><time>2026-04-26T04:43:55.117Z</time></trkpt><trkpt lat="46.6220926" lon="12.4721687"><ele>1266.5</ele><time>2026-04-26T04:43:57.117Z</time></trkpt><trkpt lat="46.6221057" lon="12.4720553"><ele>1268.3333333333333</ele><time>2026-04-26T04:43:59.117Z</time></trkpt><trkpt lat="46.6221161" lon="12.4719441"><ele>1270.1666666666667</ele><time>2026-04-26T04:44:01.117Z</time></trkpt><trkpt lat="46.6221285" lon="12.4718298"><ele>1272.0</ele><time>2026-04-26T04:44:03.117Z</time></trkpt><trkpt lat="46.622147" lon="12.4717172"><ele>1272.0</ele><time>2026-04-26T04:44:05.117Z</time></trkpt><trkpt lat="46.622174" lon="12.4716121"><ele>1272.0</ele><time>2026-04-26T04:44:07.117Z</time></trkpt><trkpt lat="46.6222043" lon="12.4715105"><ele>1272.0</ele><time>2026-04-26T04:44:09.117Z</time></trkpt><trkpt lat="46.6222378" lon="12.4714127"><ele>1272.0</ele><time>2026-04-26T04:44:11.117Z</time></trkpt><trkpt lat="46.6222778" lon="12.4713217"><ele>1272.0</ele><time>2026-04-26T04:44:13.117Z</time></trkpt><trkpt lat="46.6223151" lon="12.4712267"><ele>1272.0</ele><time>2026-04-26T04:44:15.117Z</time></trkpt><trkpt lat="46.622351" lon="12.4711305"><ele>1269.5</ele><time>2026-04-26T04:44:17.117Z</time></trkpt><trkpt lat="46.6223908" lon="12.4710349"><ele>1267.0</ele><time>2026-04-26T04:44:19.117Z</time></trkpt><trkpt lat="46.6224307" lon="12.4709409"><ele>1264.5</ele><time>2026-04-26T04:44:21.117Z</time></trkpt><trkpt lat="46.6224776" lon="12.4708536"><ele>1262.0</ele><time>2026-04-26T04:44:23.117Z</time></trkpt><trkpt lat="46.6225364" lon="12.470781"><ele>1259.5</ele><time>2026-04-26T04:44:25.117Z</time></trkpt><trkpt lat="46.6226051" lon="12.4707287"><ele>1257.0</ele><time>2026-04-26T04:44:27.117Z</time></trkpt><trkpt lat="46.6226768" lon="12.4706894"><ele>1257.0</ele><time>2026-04-26T04:44:29.117Z</time></trkpt><trkpt lat="46.6227502" lon="12.4706712"><ele>1257.0</ele><time>2026-04-26T04:44:31.117Z</time></trkpt><trkpt lat="46.6228235" lon="12.470654"><ele>1257.0</ele><time>2026-04-26T04:44:33.117Z</time></trkpt><trkpt lat="46.6229017" lon="12.4706531"><ele>1257.0</ele><time>2026-04-26T04:44:35.117Z</time></trkpt><trkpt lat="46.6229783" lon="12.4706631"><ele>1257.0</ele><time>2026-04-26T04:44:37.117Z</time></trkpt><trkpt lat="46.6230536" lon="12.4706759"><ele>1257.0</ele><time>2026-04-26T04:44:39.117Z</time></trkpt><trkpt lat="46.6231288" lon="12.4706841"><ele>1258.1666666666667</ele><time>2026-04-26T04:44:41.117Z</time></trkpt><trkpt lat="46.623242" lon="12.4706901"><ele>1259.3333333333333</ele><time>2026-04-26T04:44:44.118Z</time></trkpt><trkpt lat="46.6233173" lon="12.4706932"><ele>1260.5</ele><time>2026-04-26T04:44:46.117Z</time></trkpt><trkpt lat="46.6233928" lon="12.4706862"><ele>1261.6666666666665</ele><time>2026-04-26T04:44:48.117Z</time></trkpt><trkpt lat="46.6234679" lon="12.4706655"><ele>1262.8333333333333</ele><time>2026-04-26T04:44:50.117Z</time></trkpt><trkpt lat="46.6235396" lon="12.4706328"><ele>1264.0</ele><time>2026-04-26T04:44:52.117Z</time></trkpt><trkpt lat="46.6236096" lon="12.4705905"><ele>1263.5</ele><time>2026-04-26T04:44:54.117Z</time></trkpt><trkpt lat="46.6236789" lon="12.4705416"><ele>1263.0</ele><time>2026-04-26T04:44:56.117Z</time></trkpt><trkpt lat="46.6237531" lon="12.4704927"><ele>1262.5</ele><time>2026-04-26T04:44:58.117Z</time></trkpt><trkpt lat="46.6238258" lon="12.4704417"><ele>1262.0</ele><time>2026-04-26T04:45:00.117Z</time></trkpt><trkpt lat="46.6238986" lon="12.4703892"><ele>1261.5</ele><time>2026-04-26T04:45:02.117Z</time></trkpt><trkpt lat="46.6239719" lon="12.4703418"><ele>1261.0</ele><time>2026-04-26T04:45:04.118Z</time></trkpt><trkpt lat="46.6240438" lon="12.4702923"><ele>1261.0</ele><time>2026-04-26T04:45:06.117Z</time></trkpt><trkpt lat="46.6241113" lon="12.4702333"><ele>1261.0</ele><time>2026-04-26T04:45:08.117Z</time></trkpt><trkpt lat="46.6241751" lon="12.4701628"><ele>1261.0</ele><time>2026-04-26T04:45:10.117Z</time></trkpt><trkpt lat="46.6242411" lon="12.4700913"><ele>1261.0</ele><time>2026-04-26T04:45:12.117Z</time></trkpt><trkpt lat="46.6243041" lon="12.4700165"><ele>1261.0</ele><time>2026-04-26T04:45:14.117Z</time></trkpt><trkpt lat="46.6243677" lon="12.4699409"><ele>1261.0</ele><time>2026-04-26T04:45:16.117Z</time></trkpt><trkpt lat="46.6244308" lon="12.4698645"><ele>1261.5</ele><time>2026-04-26T04:45:18.117Z</time></trkpt><trkpt lat="46.6244919" lon="12.4697868"><ele>1262.0</ele><time>2026-04-26T04:45:20.117Z</time></trkpt><trkpt lat="46.6245542" lon="12.4697115"><ele>1262.5</ele><time>2026-04-26T04:45:22.117Z</time></trkpt><trkpt lat="46.6246173" lon="12.4696375"><ele>1263.0</ele><time>2026-04-26T04:45:24.117Z</time></trkpt><trkpt lat="46.6246809" lon="12.4695614"><ele>1263.5</ele><time>2026-04-26T04:45:26.117Z</time></trkpt><trkpt lat="46.6247458" lon="12.4694858"><ele>1264.0</ele><time>2026-04-26T04:45:28.117Z</time></trkpt><trkpt lat="46.6248095" lon="12.469411"><ele>1264.0</ele><time>2026-04-26T04:45:30.117Z</time></trkpt><trkpt lat="46.6248712" lon="12.4693398"><ele>1264.0</ele><time>2026-04-26T04:45:32.118Z</time></trkpt><trkpt lat="46.6249356" lon="12.4692615"><ele>1264.0</ele><time>2026-04-26T04:45:34.117Z</time></trkpt><trkpt lat="46.6250008" lon="12.4691842"><ele>1264.0</ele><time>2026-04-26T04:45:36.117Z</time></trkpt><trkpt lat="46.6250685" lon="12.4691088"><ele>1264.0</ele><time>2026-04-26T04:45:38.117Z</time></trkpt><trkpt lat="46.6251374" lon="12.4690423"><ele>1264.0</ele><time>2026-04-26T04:45:40.117Z</time></trkpt><trkpt lat="46.6252097" lon="12.4689795"><ele>1264.0</ele><time>2026-04-26T04:45:42.117Z</time></trkpt><trkpt lat="46.6252879" lon="12.4689179"><ele>1264.0</ele><time>2026-04-26T04:45:44.117Z</time></trkpt><trkpt lat="46.6253626" lon="12.4688577"><ele>1264.0</ele><time>2026-04-26T04:45:46.117Z</time></trkpt><trkpt lat="46.6254384" lon="12.4688064"><ele>1264.0</ele><time>2026-04-26T04:45:48.117Z</time></trkpt><trkpt lat="46.6255152" lon="12.4687573"><ele>1264.0</ele><time>2026-04-26T04:45:50.117Z</time></trkpt><trkpt lat="46.6255915" lon="12.4687126"><ele>1264.0</ele><time>2026-04-26T04:45:52.117Z</time></trkpt><trkpt lat="46.6256676" lon="12.4686786"><ele>1264.5</ele><time>2026-04-26T04:45:54.117Z</time></trkpt><trkpt lat="46.6257475" lon="12.4686323"><ele>1265.0</ele><time>2026-04-26T04:45:56.117Z</time></trkpt><trkpt lat="46.6258284" lon="12.4685895"><ele>1265.5</ele><time>2026-04-26T04:45:58.117Z</time></trkpt><trkpt lat="46.6259076" lon="12.4685483"><ele>1266.0</ele><time>2026-04-26T04:46:00.117Z</time></trkpt><trkpt lat="46.6259861" lon="12.4684952"><ele>1266.5</ele><time>2026-04-26T04:46:02.117Z</time></trkpt><trkpt lat="46.6260665" lon="12.4684545"><ele>1267.0</ele><time>2026-04-26T04:46:04.117Z</time></trkpt><trkpt lat="46.6261415" lon="12.4684053"><ele>1270.0</ele><time>2026-04-26T04:46:06.117Z</time></trkpt><trkpt lat="46.6262151" lon="12.4683471"><ele>1273.0</ele><time>2026-04-26T04:46:08.117Z</time></trkpt><trkpt lat="46.626289" lon="12.4682908"><ele>1276.0</ele><time>2026-04-26T04:46:10.117Z</time></trkpt><trkpt lat="46.6263643" lon="12.4682383"><ele>1279.0</ele><time>2026-04-26T04:46:12.117Z</time></trkpt><trkpt lat="46.6264421" lon="12.4681905"><ele>1282.0</ele><time>2026-04-26T04:46:14.117Z</time></trkpt><trkpt lat="46.6265194" lon="12.4681445"><ele>1285.0</ele><time>2026-04-26T04:46:16.117Z</time></trkpt><trkpt lat="46.6266014" lon="12.4681037"><ele>1285.0</ele><time>2026-04-26T04:46:18.117Z</time></trkpt><trkpt lat="46.6266851" lon="12.4680649"><ele>1285.0</ele><time>2026-04-26T04:46:20.117Z</time></trkpt><trkpt lat="46.6267676" lon="12.468033"><ele>1285.0</ele><time>2026-04-26T04:46:22.117Z</time></trkpt><trkpt lat="46.6268459" lon="12.4680055"><ele>1285.0</ele><time>2026-04-26T04:46:24.117Z</time></trkpt><trkpt lat="46.6269186" lon="12.4679836"><ele>1285.0</ele><time>2026-04-26T04:46:26.117Z</time></trkpt><trkpt lat="46.6269889" lon="12.4679663"><ele>1285.0</ele><time>2026-04-26T04:46:28.117Z</time></trkpt><trkpt lat="46.6270549" lon="12.4679516"><ele>1283.8333333333333</ele><time>2026-04-26T04:46:30.117Z</time></trkpt><trkpt lat="46.6271215" lon="12.4679495"><ele>1282.6666666666665</ele><time>2026-04-26T04:46:32.117Z</time></trkpt><trkpt lat="46.6271866" lon="12.4679447"><ele>1281.5</ele><time>2026-04-26T04:46:34.117Z</time></trkpt><trkpt lat="46.6272761" lon="12.4679414"><ele>1280.3333333333333</ele><time>2026-04-26T04:46:37.117Z</time></trkpt><trkpt lat="46.6273643" lon="12.4679572"><ele>1279.1666666666667</ele><time>2026-04-26T04:46:40.117Z</time></trkpt><trkpt lat="46.6274517" lon="12.4680083"><ele>1278.0</ele><time>2026-04-26T04:46:43.117Z</time></trkpt><trkpt lat="46.6275289" lon="12.4680727"><ele>1280.5</ele><time>2026-04-26T04:46:46.117Z</time></trkpt><trkpt lat="46.6275999" lon="12.4681407"><ele>1283.0</ele><time>2026-04-26T04:46:49.117Z</time></trkpt><trkpt lat="46.6276786" lon="12.4681983"><ele>1285.5</ele><time>2026-04-26T04:46:52.117Z</time></trkpt><trkpt lat="46.6277654" lon="12.4682237"><ele>1288.0</ele><time>2026-04-26T04:46:55.117Z</time></trkpt><trkpt lat="46.627854" lon="12.4682132"><ele>1290.5</ele><time>2026-04-26T04:46:58.117Z</time></trkpt><trkpt lat="46.6279425" lon="12.4681778"><ele>1293.0</ele><time>2026-04-26T04:47:01.117Z</time></trkpt><trkpt lat="46.6280278" lon="12.4681224"><ele>1293.0</ele><time>2026-04-26T04:47:04.117Z</time></trkpt><trkpt lat="46.6281081" lon="12.4680627"><ele>1293.0</ele><time>2026-04-26T04:47:07.117Z</time></trkpt><trkpt lat="46.6281805" lon="12.4679912"><ele>1293.0</ele><time>2026-04-26T04:47:10.117Z</time></trkpt><trkpt lat="46.6282493" lon="12.4679112"><ele>1293.0</ele><time>2026-04-26T04:47:13.117Z</time></trkpt><trkpt lat="46.6283164" lon="12.4678197"><ele>1293.0</ele><time>2026-04-26T04:47:16.118Z</time></trkpt><trkpt lat="46.6283864" lon="12.4677275"><ele>1293.0</ele><time>2026-04-26T04:47:19.117Z</time></trkpt><trkpt lat="46.6284567" lon="12.4676381"><ele>1293.0</ele><time>2026-04-26T04:47:22.117Z</time></trkpt><trkpt lat="46.628531" lon="12.4675623"><ele>1293.0</ele><time>2026-04-26T04:47:25.117Z</time></trkpt><trkpt lat="46.628611" lon="12.4675089"><ele>1293.0</ele><time>2026-04-26T04:47:28.118Z</time></trkpt><trkpt lat="46.6286942" lon="12.4674687"><ele>1293.0</ele><time>2026-04-26T04:47:31.118Z</time></trkpt><trkpt lat="46.6287788" lon="12.4674386"><ele>1293.0</ele><time>2026-04-26T04:47:34.118Z</time></trkpt><trkpt lat="46.62886" lon="12.4673907"><ele>1295.6000000000001</ele><time>2026-04-26T04:47:37.118Z</time></trkpt><trkpt lat="46.6289285" lon="12.4673064"><ele>1298.2</ele><time>2026-04-26T04:47:40.118Z</time></trkpt><trkpt lat="46.6289882" lon="12.4672083"><ele>1300.8</ele><time>2026-04-26T04:47:43.118Z</time></trkpt><trkpt lat="46.6290356" lon="12.4670949"><ele>1303.4</ele><time>2026-04-26T04:47:46.118Z</time></trkpt><trkpt lat="46.6290695" lon="12.466973"><ele>1306.0</ele><time>2026-04-26T04:47:49.118Z</time></trkpt><trkpt lat="46.6290939" lon="12.4668457"><ele>1306.0</ele><time>2026-04-26T04:47:52.118Z</time></trkpt><trkpt lat="46.6291155" lon="12.4667173"><ele>1306.0</ele><time>2026-04-26T04:47:55.118Z</time></trkpt><trkpt lat="46.6291415" lon="12.4665979"><ele>1306.0</ele><time>2026-04-26T04:47:58.118Z</time></trkpt><trkpt lat="46.6291607" lon="12.4664732"><ele>1306.0</ele><time>2026-04-26T04:48:01.118Z</time></trkpt><trkpt lat="46.6291886" lon="12.4663429"><ele>1306.0</ele><time>2026-04-26T04:48:04.118Z</time></trkpt><trkpt lat="46.629213" lon="12.4662136"><ele>1306.0</ele><time>2026-04-26T04:48:07.118Z</time></trkpt><trkpt lat="46.6292338" lon="12.4660931"><ele>1306.0</ele><time>2026-04-26T04:48:10.118Z</time></trkpt><trkpt lat="46.6292531" lon="12.4659715"><ele>1306.0</ele><time>2026-04-26T04:48:13.118Z</time></trkpt><trkpt lat="46.629272" lon="12.4658431"><ele>1306.0</ele><time>2026-04-26T04:48:16.118Z</time></trkpt><trkpt lat="46.6292797" lon="12.4657511"><ele>1306.0</ele><time>2026-04-26T04:48:18.119Z</time></trkpt><trkpt lat="46.6292866" lon="12.4656146"><ele>1306.0</ele><time>2026-04-26T04:48:21.118Z</time></trkpt><trkpt lat="46.6292921" lon="12.4654771"><ele>1307.1666666666665</ele><time>2026-04-26T04:48:24.118Z</time></trkpt><trkpt lat="46.6293041" lon="12.465387"><ele>1308.3333333333333</ele><time>2026-04-26T04:48:26.118Z</time></trkpt><trkpt lat="46.6293284" lon="12.4652559"><ele>1309.5</ele><time>2026-04-26T04:48:29.118Z</time></trkpt><trkpt lat="46.6293687" lon="12.465141"><ele>1310.6666666666667</ele><time>2026-04-26T04:48:32.118Z</time></trkpt><trkpt lat="46.6294209" lon="12.4650498"><ele>1311.8333333333335</ele><time>2026-04-26T04:48:35.118Z</time></trkpt><trkpt lat="46.6294821" lon="12.4649701"><ele>1313.0</ele><time>2026-04-26T04:48:38.118Z</time></trkpt><trkpt lat="46.6295387" lon="12.464892"><ele>1313.0</ele><time>2026-04-26T04:48:41.118Z</time></trkpt><trkpt lat="46.6295973" lon="12.4648129"><ele>1313.0</ele><time>2026-04-26T04:48:44.118Z</time></trkpt><trkpt lat="46.6296585" lon="12.4647263"><ele>1313.0</ele><time>2026-04-26T04:48:47.118Z</time></trkpt><trkpt lat="46.6297206" lon="12.4646427"><ele>1313.0</ele><time>2026-04-26T04:48:50.118Z</time></trkpt><trkpt lat="46.6297838" lon="12.464566"><ele>1313.0</ele><time>2026-04-26T04:48:53.118Z</time></trkpt><trkpt lat="46.6298569" lon="12.4645112"><ele>1313.0</ele><time>2026-04-26T04:48:56.118Z</time></trkpt><trkpt lat="46.6299439" lon="12.464493"><ele>1313.0</ele><time>2026-04-26T04:48:59.118Z</time></trkpt><trkpt lat="46.6300333" lon="12.4645277"><ele>1313.0</ele><time>2026-04-26T04:49:02.118Z</time></trkpt><trkpt lat="46.6301131" lon="12.4645914"><ele>1313.0</ele><time>2026-04-26T04:49:05.118Z</time></trkpt><trkpt lat="46.6301795" lon="12.46468"><ele>1313.0</ele><time>2026-04-26T04:49:08.118Z</time></trkpt><trkpt lat="46.630242" lon="12.4647687"><ele>1313.0</ele><time>2026-04-26T04:49:11.118Z</time></trkpt><trkpt lat="46.6303088" lon="12.4648538"><ele>1314.5</ele><time>2026-04-26T04:49:14.118Z</time></trkpt><trkpt lat="46.6303842" lon="12.46493"><ele>1316.0</ele><time>2026-04-26T04:49:17.118Z</time></trkpt><trkpt lat="46.6304689" lon="12.464973"><ele>1317.5</ele><time>2026-04-26T04:49:20.118Z</time></trkpt><trkpt lat="46.6305509" lon="12.4649825"><ele>1319.0</ele><time>2026-04-26T04:49:24.118Z</time></trkpt><trkpt lat="46.6306224" lon="12.4649483"><ele>1320.5</ele><time>2026-04-26T04:49:27.118Z</time></trkpt><trkpt lat="46.6306917" lon="12.464882"><ele>1322.0</ele><time>2026-04-26T04:49:30.118Z</time></trkpt><trkpt lat="46.6307613" lon="12.4648092"><ele>1322.0</ele><time>2026-04-26T04:49:33.118Z</time></trkpt><trkpt lat="46.630826" lon="12.4647353"><ele>1322.0</ele><time>2026-04-26T04:49:36.118Z</time></trkpt><trkpt lat="46.6308862" lon="12.4646511"><ele>1322.0</ele><time>2026-04-26T04:49:39.118Z</time></trkpt><trkpt lat="46.6309356" lon="12.4645432"><ele>1322.0</ele><time>2026-04-26T04:49:42.118Z</time></trkpt><trkpt lat="46.6309855" lon="12.4644323"><ele>1322.0</ele><time>2026-04-26T04:49:45.118Z</time></trkpt><trkpt lat="46.6310304" lon="12.4643191"><ele>1322.0</ele><time>2026-04-26T04:49:48.118Z</time></trkpt><trkpt lat="46.6310792" lon="12.464212"><ele>1321.8333333333335</ele><time>2026-04-26T04:49:51.119Z</time></trkpt><trkpt lat="46.6311278" lon="12.464107"><ele>1321.6666666666667</ele><time>2026-04-26T04:49:54.118Z</time></trkpt><trkpt lat="46.6311725" lon="12.4639983"><ele>1321.5</ele><time>2026-04-26T04:49:57.118Z</time></trkpt><trkpt lat="46.6312213" lon="12.4638935"><ele>1321.3333333333333</ele><time>2026-04-26T04:50:00.118Z</time></trkpt><trkpt lat="46.6312654" lon="12.4637875"><ele>1321.1666666666665</ele><time>2026-04-26T04:50:03.118Z</time></trkpt><trkpt lat="46.6313097" lon="12.4636814"><ele>1321.0</ele><time>2026-04-26T04:50:06.118Z</time></trkpt><trkpt lat="46.6313833" lon="12.4635493"><ele>1321.3333333333333</ele><time>2026-04-26T04:50:10.118Z</time></trkpt><trkpt lat="46.6314584" lon="12.4634868"><ele>1321.6666666666665</ele><time>2026-04-26T04:50:13.118Z</time></trkpt><trkpt lat="46.631545" lon="12.4634675"><ele>1322.0</ele><time>2026-04-26T04:50:16.118Z</time></trkpt><trkpt lat="46.631627" lon="12.4634971"><ele>1322.3333333333333</ele><time>2026-04-26T04:50:19.118Z</time></trkpt><trkpt lat="46.6316921" lon="12.4635764"><ele>1322.6666666666667</ele><time>2026-04-26T04:50:22.118Z</time></trkpt><trkpt lat="46.6317564" lon="12.4636513"><ele>1323.0</ele><time>2026-04-26T04:50:25.118Z</time></trkpt><trkpt lat="46.6318332" lon="12.4637012"><ele>1323.0</ele><time>2026-04-26T04:50:28.118Z</time></trkpt><trkpt lat="46.6319151" lon="12.46371"><ele>1323.0</ele><time>2026-04-26T04:50:31.119Z</time></trkpt><trkpt lat="46.6319996" lon="12.4636846"><ele>1323.0</ele><time>2026-04-26T04:50:34.119Z</time></trkpt><trkpt lat="46.6320793" lon="12.4636227"><ele>1323.0</ele><time>2026-04-26T04:50:37.118Z</time></trkpt><trkpt lat="46.632149" lon="12.4635524"><ele>1323.0</ele><time>2026-04-26T04:50:40.118Z</time></trkpt><trkpt lat="46.6322194" lon="12.4634843"><ele>1323.0</ele><time>2026-04-26T04:50:43.118Z</time></trkpt><trkpt lat="46.6322866" lon="12.4634173"><ele>1325.5</ele><time>2026-04-26T04:50:46.119Z</time></trkpt><trkpt lat="46.6323502" lon="12.4633489"><ele>1328.0</ele><time>2026-04-26T04:50:49.118Z</time></trkpt><trkpt lat="46.6324134" lon="12.463279"><ele>1330.5</ele><time>2026-04-26T04:50:52.119Z</time></trkpt><trkpt lat="46.6324788" lon="12.4632177"><ele>1333.0</ele><time>2026-04-26T04:50:55.118Z</time></trkpt><trkpt lat="46.6325634" lon="12.4632202"><ele>1335.5</ele><time>2026-04-26T04:50:58.119Z</time></trkpt><trkpt lat="46.6326116" lon="12.4633326"><ele>1338.0</ele><time>2026-04-26T04:51:01.118Z</time></trkpt><trkpt lat="46.6325672" lon="12.4634122"><ele>1338.0</ele><time>2026-04-26T04:51:03.118Z</time></trkpt><trkpt lat="46.6325161" lon="12.4634755"><ele>1338.0</ele><time>2026-04-26T04:51:05.118Z</time></trkpt><trkpt lat="46.6324521" lon="12.4635698"><ele>1338.0</ele><time>2026-04-26T04:51:08.118Z</time></trkpt><trkpt lat="46.6323897" lon="12.4636626"><ele>1338.0</ele><time>2026-04-26T04:51:11.118Z</time></trkpt><trkpt lat="46.632333" lon="12.4637559"><ele>1338.0</ele><time>2026-04-26T04:51:14.118Z</time></trkpt><trkpt lat="46.6322785" lon="12.4638515"><ele>1338.0</ele><time>2026-04-26T04:51:17.119Z</time></trkpt><trkpt lat="46.6322325" lon="12.4639537"><ele>1339.5</ele><time>2026-04-26T04:51:20.118Z</time></trkpt><trkpt lat="46.6322" lon="12.4640632"><ele>1341.0</ele><time>2026-04-26T04:51:23.118Z</time></trkpt><trkpt lat="46.6321763" lon="12.4641694"><ele>1342.5</ele><time>2026-04-26T04:51:26.118Z</time></trkpt><trkpt lat="46.6321594" lon="12.4642796"><ele>1344.0</ele><time>2026-04-26T04:51:29.119Z</time></trkpt><trkpt lat="46.6321897" lon="12.4643958"><ele>1345.5</ele><time>2026-04-26T04:51:32.119Z</time></trkpt><trkpt lat="46.632239" lon="12.4645004"><ele>1347.0</ele><time>2026-04-26T04:51:35.118Z</time></trkpt><trkpt lat="46.6323139" lon="12.4645766"><ele>1347.0</ele><time>2026-04-26T04:51:38.118Z</time></trkpt><trkpt lat="46.6323886" lon="12.4646075"><ele>1347.0</ele><time>2026-04-26T04:51:41.118Z</time></trkpt><trkpt lat="46.6324681" lon="12.4645796"><ele>1347.0</ele><time>2026-04-26T04:51:44.118Z</time></trkpt><trkpt lat="46.6325443" lon="12.4645414"><ele>1347.0</ele><time>2026-04-26T04:51:47.118Z</time></trkpt><trkpt lat="46.6326126" lon="12.4644788"><ele>1347.0</ele><time>2026-04-26T04:51:50.118Z</time></trkpt><trkpt lat="46.6326786" lon="12.4644182"><ele>1347.0</ele><time>2026-04-26T04:51:53.118Z</time></trkpt><trkpt lat="46.6327485" lon="12.4643599"><ele>1351.1666666666667</ele><time>2026-04-26T04:51:56.118Z</time></trkpt><trkpt lat="46.6328235" lon="12.4643003"><ele>1355.3333333333333</ele><time>2026-04-26T04:51:59.118Z</time></trkpt><trkpt lat="46.6328957" lon="12.4642338"><ele>1359.5</ele><time>2026-04-26T04:52:02.118Z</time></trkpt><trkpt lat="46.6329693" lon="12.4641706"><ele>1363.6666666666665</ele><time>2026-04-26T04:52:05.118Z</time></trkpt><trkpt lat="46.6330384" lon="12.4640965"><ele>1367.8333333333333</ele><time>2026-04-26T04:52:08.118Z</time></trkpt><trkpt lat="46.633105" lon="12.4640124"><ele>1372.0</ele><time>2026-04-26T04:52:11.118Z</time></trkpt><trkpt lat="46.6331744" lon="12.4639351"><ele>1372.0</ele><time>2026-04-26T04:52:14.118Z</time></trkpt><trkpt lat="46.6332411" lon="12.463857"><ele>1372.0</ele><time>2026-04-26T04:52:17.118Z</time></trkpt><trkpt lat="46.6333077" lon="12.4637822"><ele>1372.0</ele><time>2026-04-26T04:52:20.118Z</time></trkpt><trkpt lat="46.6333746" lon="12.4637119"><ele>1372.0</ele><time>2026-04-26T04:52:23.118Z</time></trkpt><trkpt lat="46.6334438" lon="12.463643"><ele>1372.0</ele><time>2026-04-26T04:52:26.118Z</time></trkpt><trkpt lat="46.6335161" lon="12.4635825"><ele>1372.0</ele><time>2026-04-26T04:52:29.118Z</time></trkpt><trkpt lat="46.6335918" lon="12.4635215"><ele>1372.6</ele><time>2026-04-26T04:52:32.118Z</time></trkpt><trkpt lat="46.6336752" lon="12.4634709"><ele>1373.1999999999998</ele><time>2026-04-26T04:52:35.118Z</time></trkpt><trkpt lat="46.6337591" lon="12.4634226"><ele>1373.8</ele><time>2026-04-26T04:52:38.118Z</time></trkpt><trkpt lat="46.6338429" lon="12.4633671"><ele>1374.4</ele><time>2026-04-26T04:52:41.118Z</time></trkpt><trkpt lat="46.6339267" lon="12.4633143"><ele>1375.0</ele><time>2026-04-26T04:52:44.118Z</time></trkpt><trkpt lat="46.6340083" lon="12.4632611"><ele>1375.0</ele><time>2026-04-26T04:52:47.118Z</time></trkpt><trkpt lat="46.6340875" lon="12.4632065"><ele>1375.0</ele><time>2026-04-26T04:52:50.118Z</time></trkpt><trkpt lat="46.6341704" lon="12.4631517"><ele>1375.0</ele><time>2026-04-26T04:52:53.118Z</time></trkpt><trkpt lat="46.634248" lon="12.46309"><ele>1375.0</ele><time>2026-04-26T04:52:56.118Z</time></trkpt><trkpt lat="46.6343217" lon="12.4630229"><ele>1375.0</ele><time>2026-04-26T04:52:59.118Z</time></trkpt><trkpt lat="46.6343906" lon="12.4629467"><ele>1375.0</ele><time>2026-04-26T04:53:02.118Z</time></trkpt><trkpt lat="46.6344586" lon="12.4628636"><ele>1375.8333333333333</ele><time>2026-04-26T04:53:05.118Z</time></trkpt><trkpt lat="46.6345196" lon="12.4627803"><ele>1376.6666666666665</ele><time>2026-04-26T04:53:08.118Z</time></trkpt><trkpt lat="46.6345808" lon="12.4626897"><ele>1377.5</ele><time>2026-04-26T04:53:11.118Z</time></trkpt><trkpt lat="46.6346448" lon="12.4626044"><ele>1378.3333333333333</ele><time>2026-04-26T04:53:14.118Z</time></trkpt><trkpt lat="46.6347062" lon="12.462519"><ele>1379.1666666666667</ele><time>2026-04-26T04:53:17.118Z</time></trkpt><trkpt lat="46.6347695" lon="12.4624399"><ele>1380.0</ele><time>2026-04-26T04:53:20.118Z</time></trkpt><trkpt lat="46.6348346" lon="12.4623687"><ele>1380.0</ele><time>2026-04-26T04:53:23.118Z</time></trkpt><trkpt lat="46.6349015" lon="12.4622981"><ele>1380.0</ele><time>2026-04-26T04:53:26.118Z</time></trkpt><trkpt lat="46.6349652" lon="12.4622236"><ele>1380.0</ele><time>2026-04-26T04:53:29.119Z</time></trkpt><trkpt lat="46.6350298" lon="12.46216"><ele>1380.0</ele><time>2026-04-26T04:53:32.119Z</time></trkpt><trkpt lat="46.6350986" lon="12.4621037"><ele>1380.0</ele><time>2026-04-26T04:53:35.119Z</time></trkpt><trkpt lat="46.6351685" lon="12.4620523"><ele>1380.0</ele><time>2026-04-26T04:53:38.119Z</time></trkpt><trkpt lat="46.6352329" lon="12.4619854"><ele>1381.3333333333333</ele><time>2026-04-26T04:53:41.119Z</time></trkpt><trkpt lat="46.6353006" lon="12.461921"><ele>1382.6666666666667</ele><time>2026-04-26T04:53:44.119Z</time></trkpt><trkpt lat="46.6353666" lon="12.4618476"><ele>1384.0</ele><time>2026-04-26T04:53:47.119Z</time></trkpt><trkpt lat="46.6354292" lon="12.4617716"><ele>1385.3333333333335</ele><time>2026-04-26T04:53:50.119Z</time></trkpt><trkpt lat="46.6354923" lon="12.4616939"><ele>1386.6666666666667</ele><time>2026-04-26T04:53:53.119Z</time></trkpt><trkpt lat="46.6355545" lon="12.4616127"><ele>1388.0</ele><time>2026-04-26T04:53:56.119Z</time></trkpt><trkpt lat="46.6356172" lon="12.461529"><ele>1388.0</ele><time>2026-04-26T04:53:59.12Z</time></trkpt><trkpt lat="46.6356809" lon="12.4614481"><ele>1388.0</ele><time>2026-04-26T04:54:02.119Z</time></trkpt><trkpt lat="46.6357454" lon="12.4613632"><ele>1388.0</ele><time>2026-04-26T04:54:05.119Z</time></trkpt><trkpt lat="46.6358081" lon="12.4612824"><ele>1388.0</ele><time>2026-04-26T04:54:08.119Z</time></trkpt><trkpt lat="46.6358905" lon="12.461178"><ele>1388.0</ele><time>2026-04-26T04:54:12.12Z</time></trkpt><trkpt lat="46.6359542" lon="12.461101"><ele>1388.0</ele><time>2026-04-26T04:54:15.119Z</time></trkpt><trkpt lat="46.6360181" lon="12.461023"><ele>1389.5</ele><time>2026-04-26T04:54:18.119Z</time></trkpt><trkpt lat="46.6360805" lon="12.4609435"><ele>1391.0</ele><time>2026-04-26T04:54:21.119Z</time></trkpt><trkpt lat="46.6361396" lon="12.4608639"><ele>1392.5</ele><time>2026-04-26T04:54:24.119Z</time></trkpt><trkpt lat="46.6362014" lon="12.4607845"><ele>1394.0</ele><time>2026-04-26T04:54:27.119Z</time></trkpt><trkpt lat="46.6362617" lon="12.4607047"><ele>1395.5</ele><time>2026-04-26T04:54:30.119Z</time></trkpt><trkpt lat="46.6363203" lon="12.4606241"><ele>1397.0</ele><time>2026-04-26T04:54:33.119Z</time></trkpt><trkpt lat="46.6363853" lon="12.460566"><ele>1397.0</ele><time>2026-04-26T04:54:36.119Z</time></trkpt><trkpt lat="46.6364494" lon="12.4605057"><ele>1397.0</ele><time>2026-04-26T04:54:39.119Z</time></trkpt><trkpt lat="46.6365181" lon="12.4604558"><ele>1397.0</ele><time>2026-04-26T04:54:42.12Z</time></trkpt><trkpt lat="46.6365887" lon="12.4604133"><ele>1397.0</ele><time>2026-04-26T04:54:45.119Z</time></trkpt><trkpt lat="46.6366616" lon="12.4603805"><ele>1397.0</ele><time>2026-04-26T04:54:48.119Z</time></trkpt><trkpt lat="46.6367367" lon="12.4603596"><ele>1397.0</ele><time>2026-04-26T04:54:51.118Z</time></trkpt><trkpt lat="46.6368102" lon="12.4603354"><ele>1395.3333333333335</ele><time>2026-04-26T04:54:54.119Z</time></trkpt><trkpt lat="46.6368853" lon="12.4603081"><ele>1393.6666666666667</ele><time>2026-04-26T04:54:57.119Z</time></trkpt><trkpt lat="46.6369646" lon="12.4602847"><ele>1392.0</ele><time>2026-04-26T04:55:00.119Z</time></trkpt><trkpt lat="46.6370424" lon="12.4602468"><ele>1390.3333333333333</ele><time>2026-04-26T04:55:03.119Z</time></trkpt><trkpt lat="46.6371171" lon="12.4602024"><ele>1388.6666666666665</ele><time>2026-04-26T04:55:06.119Z</time></trkpt><trkpt lat="46.6371898" lon="12.4601398"><ele>1387.0</ele><time>2026-04-26T04:55:09.119Z</time></trkpt><trkpt lat="46.6372832" lon="12.4600558"><ele>1387.0</ele><time>2026-04-26T04:55:13.119Z</time></trkpt><trkpt lat="46.6373512" lon="12.4599861"><ele>1387.0</ele><time>2026-04-26T04:55:16.119Z</time></trkpt><trkpt lat="46.6374267" lon="12.4599201"><ele>1387.0</ele><time>2026-04-26T04:55:19.119Z</time></trkpt><trkpt lat="46.637501" lon="12.4598559"><ele>1387.0</ele><time>2026-04-26T04:55:22.119Z</time></trkpt><trkpt lat="46.6375957" lon="12.4597674"><ele>1387.0</ele><time>2026-04-26T04:55:26.119Z</time></trkpt><trkpt lat="46.6376707" lon="12.459706"><ele>1387.0</ele><time>2026-04-26T04:55:29.119Z</time></trkpt><trkpt lat="46.6377427" lon="12.4596395"><ele>1387.0</ele><time>2026-04-26T04:55:32.119Z</time></trkpt><trkpt lat="46.6378408" lon="12.4595567"><ele>1387.0</ele><time>2026-04-26T04:55:36.119Z</time></trkpt><trkpt lat="46.6379196" lon="12.4594901"><ele>1387.0</ele><time>2026-04-26T04:55:39.12Z</time></trkpt><trkpt lat="46.6379959" lon="12.4594247"><ele>1387.0</ele><time>2026-04-26T04:55:42.119Z</time></trkpt><trkpt lat="46.6380695" lon="12.4593546"><ele>1387.5</ele><time>2026-04-26T04:55:45.119Z</time></trkpt><trkpt lat="46.6381386" lon="12.4592764"><ele>1388.0</ele><time>2026-04-26T04:55:48.119Z</time></trkpt><trkpt lat="46.6382057" lon="12.4591963"><ele>1388.5</ele><time>2026-04-26T04:55:51.119Z</time></trkpt><trkpt lat="46.6382741" lon="12.4591274"><ele>1389.0</ele><time>2026-04-26T04:55:54.119Z</time></trkpt><trkpt lat="46.6383393" lon="12.4590524"><ele>1389.5</ele><time>2026-04-26T04:55:57.119Z</time></trkpt><trkpt lat="46.6384003" lon="12.4589704"><ele>1390.0</ele><time>2026-04-26T04:56:00.12Z</time></trkpt><trkpt lat="46.6384669" lon="12.4588988"><ele>1390.0</ele><time>2026-04-26T04:56:03.119Z</time></trkpt><trkpt lat="46.6385267" lon="12.4588215"><ele>1390.0</ele><time>2026-04-26T04:56:06.119Z</time></trkpt><trkpt lat="46.638588" lon="12.4587477"><ele>1390.0</ele><time>2026-04-26T04:56:09.119Z</time></trkpt><trkpt lat="46.6386533" lon="12.4586757"><ele>1390.0</ele><time>2026-04-26T04:56:12.119Z</time></trkpt><trkpt lat="46.6387217" lon="12.4586099"><ele>1390.0</ele><time>2026-04-26T04:56:15.119Z</time></trkpt><trkpt lat="46.6387917" lon="12.4585424"><ele>1390.0</ele><time>2026-04-26T04:56:18.119Z</time></trkpt><trkpt lat="46.6388627" lon="12.4584864"><ele>1391.5</ele><time>2026-04-26T04:56:21.119Z</time></trkpt><trkpt lat="46.6389372" lon="12.4584256"><ele>1393.0</ele><time>2026-04-26T04:56:24.119Z</time></trkpt><trkpt lat="46.6390115" lon="12.4583616"><ele>1394.5</ele><time>2026-04-26T04:56:27.119Z</time></trkpt><trkpt lat="46.639085" lon="12.4582899"><ele>1396.0</ele><time>2026-04-26T04:56:30.119Z</time></trkpt><trkpt lat="46.6391525" lon="12.4582072"><ele>1397.5</ele><time>2026-04-26T04:56:33.119Z</time></trkpt><trkpt lat="46.6392207" lon="12.4581353"><ele>1399.0</ele><time>2026-04-26T04:56:36.119Z</time></trkpt><trkpt lat="46.6392883" lon="12.4580642"><ele>1399.0</ele><time>2026-04-26T04:56:39.119Z</time></trkpt><trkpt lat="46.6393563" lon="12.4579863"><ele>1399.0</ele><time>2026-04-26T04:56:42.119Z</time></trkpt><trkpt lat="46.6394247" lon="12.4579101"><ele>1399.0</ele><time>2026-04-26T04:56:45.119Z</time></trkpt><trkpt lat="46.6394979" lon="12.457839"><ele>1399.0</ele><time>2026-04-26T04:56:48.119Z</time></trkpt><trkpt lat="46.639569" lon="12.4577799"><ele>1399.0</ele><time>2026-04-26T04:56:51.119Z</time></trkpt><trkpt lat="46.6396379" lon="12.4577203"><ele>1399.0</ele><time>2026-04-26T04:56:54.119Z</time></trkpt><trkpt lat="46.6397037" lon="12.4576545"><ele>1400.5</ele><time>2026-04-26T04:56:57.119Z</time></trkpt><trkpt lat="46.6397727" lon="12.4575916"><ele>1402.0</ele><time>2026-04-26T04:57:00.119Z</time></trkpt><trkpt lat="46.6398357" lon="12.4575369"><ele>1403.5</ele><time>2026-04-26T04:57:03.119Z</time></trkpt><trkpt lat="46.6398948" lon="12.457466"><ele>1405.0</ele><time>2026-04-26T04:57:06.119Z</time></trkpt><trkpt lat="46.6399612" lon="12.4574128"><ele>1406.5</ele><time>2026-04-26T04:57:09.119Z</time></trkpt><trkpt lat="46.6400284" lon="12.457362"><ele>1408.0</ele><time>2026-04-26T04:57:12.119Z</time></trkpt><trkpt lat="46.6400924" lon="12.4572988"><ele>1408.0</ele><time>2026-04-26T04:57:15.119Z</time></trkpt><trkpt lat="46.6401617" lon="12.4572481"><ele>1408.0</ele><time>2026-04-26T04:57:18.119Z</time></trkpt><trkpt lat="46.6402262" lon="12.4571896"><ele>1408.0</ele><time>2026-04-26T04:57:21.119Z</time></trkpt><trkpt lat="46.6402922" lon="12.4571353"><ele>1408.0</ele><time>2026-04-26T04:57:24.119Z</time></trkpt><trkpt lat="46.6403595" lon="12.4570824"><ele>1408.0</ele><time>2026-04-26T04:57:27.119Z</time></trkpt><trkpt lat="46.6404265" lon="12.4570408"><ele>1408.0</ele><time>2026-04-26T04:57:30.119Z</time></trkpt><trkpt lat="46.6404945" lon="12.4570077"><ele>1406.8333333333333</ele><time>2026-04-26T04:57:33.119Z</time></trkpt><trkpt lat="46.6405869" lon="12.4569559"><ele>1405.6666666666665</ele><time>2026-04-26T04:57:37.119Z</time></trkpt><trkpt lat="46.6406554" lon="12.4569147"><ele>1404.5</ele><time>2026-04-26T04:57:40.12Z</time></trkpt><trkpt lat="46.640722" lon="12.4568678"><ele>1403.3333333333333</ele><time>2026-04-26T04:57:43.12Z</time></trkpt><trkpt lat="46.6407865" lon="12.4568208"><ele>1402.1666666666667</ele><time>2026-04-26T04:57:46.119Z</time></trkpt><trkpt lat="46.6408528" lon="12.4567736"><ele>1401.0</ele><time>2026-04-26T04:57:49.119Z</time></trkpt><trkpt lat="46.6409207" lon="12.4567285"><ele>1401.0</ele><time>2026-04-26T04:57:52.12Z</time></trkpt><trkpt lat="46.6409898" lon="12.456682"><ele>1401.0</ele><time>2026-04-26T04:57:55.119Z</time></trkpt><trkpt lat="46.6410581" lon="12.4566336"><ele>1401.0</ele><time>2026-04-26T04:57:58.119Z</time></trkpt><trkpt lat="46.6411272" lon="12.4565938"><ele>1401.0</ele><time>2026-04-26T04:58:01.119Z</time></trkpt><trkpt lat="46.6411958" lon="12.4565616"><ele>1401.0</ele><time>2026-04-26T04:58:04.119Z</time></trkpt><trkpt lat="46.6412652" lon="12.4565057"><ele>1401.0</ele><time>2026-04-26T04:58:07.119Z</time></trkpt><trkpt lat="46.6413322" lon="12.4564419"><ele>1401.8333333333333</ele><time>2026-04-26T04:58:10.119Z</time></trkpt><trkpt lat="46.641418" lon="12.4563554"><ele>1402.6666666666667</ele><time>2026-04-26T04:58:14.119Z</time></trkpt><trkpt lat="46.6414785" lon="12.4562904"><ele>1403.5</ele><time>2026-04-26T04:58:17.119Z</time></trkpt><trkpt lat="46.6415432" lon="12.4562326"><ele>1404.3333333333335</ele><time>2026-04-26T04:58:20.119Z</time></trkpt><trkpt lat="46.6416062" lon="12.4561819"><ele>1405.1666666666667</ele><time>2026-04-26T04:58:23.119Z</time></trkpt><trkpt lat="46.6416766" lon="12.4561397"><ele>1406.0</ele><time>2026-04-26T04:58:26.119Z</time></trkpt><trkpt lat="46.6417463" lon="12.4560843"><ele>1406.0</ele><time>2026-04-26T04:58:29.119Z</time></trkpt><trkpt lat="46.641813" lon="12.4560296"><ele>1406.0</ele><time>2026-04-26T04:58:32.119Z</time></trkpt><trkpt lat="46.6418861" lon="12.4559983"><ele>1406.0</ele><time>2026-04-26T04:58:35.119Z</time></trkpt><trkpt lat="46.6419582" lon="12.4559654"><ele>1406.0</ele><time>2026-04-26T04:58:38.119Z</time></trkpt><trkpt lat="46.6420284" lon="12.4559223"><ele>1406.0</ele><time>2026-04-26T04:58:41.119Z</time></trkpt><trkpt lat="46.6420987" lon="12.4558708"><ele>1406.0</ele><time>2026-04-26T04:58:44.12Z</time></trkpt><trkpt lat="46.6421609" lon="12.4558038"><ele>1408.0</ele><time>2026-04-26T04:58:47.119Z</time></trkpt><trkpt lat="46.6422371" lon="12.4556956"><ele>1410.0</ele><time>2026-04-26T04:58:51.119Z</time></trkpt><trkpt lat="46.6422886" lon="12.4556143"><ele>1412.0</ele><time>2026-04-26T04:58:54.119Z</time></trkpt><trkpt lat="46.6423391" lon="12.4555324"><ele>1414.0</ele><time>2026-04-26T04:58:57.119Z</time></trkpt><trkpt lat="46.6423969" lon="12.4554512"><ele>1416.0</ele><time>2026-04-26T04:59:00.12Z</time></trkpt><trkpt lat="46.6424578" lon="12.4553802"><ele>1418.0</ele><time>2026-04-26T04:59:03.12Z</time></trkpt><trkpt lat="46.6425187" lon="12.4553075"><ele>1418.0</ele><time>2026-04-26T04:59:06.12Z</time></trkpt><trkpt lat="46.6425778" lon="12.4552314"><ele>1418.0</ele><time>2026-04-26T04:59:09.12Z</time></trkpt><trkpt lat="46.6426361" lon="12.4551594"><ele>1418.0</ele><time>2026-04-26T04:59:12.12Z</time></trkpt><trkpt lat="46.6426921" lon="12.4550836"><ele>1418.0</ele><time>2026-04-26T04:59:15.12Z</time></trkpt><trkpt lat="46.6427484" lon="12.4550109"><ele>1418.0</ele><time>2026-04-26T04:59:18.12Z</time></trkpt><trkpt lat="46.6428102" lon="12.4549426"><ele>1418.0</ele><time>2026-04-26T04:59:21.121Z</time></trkpt><trkpt lat="46.6428688" lon="12.45487"><ele>1419.5</ele><time>2026-04-26T04:59:24.12Z</time></trkpt><trkpt lat="46.6429288" lon="12.4547998"><ele>1421.0</ele><time>2026-04-26T04:59:27.12Z</time></trkpt><trkpt lat="46.6429963" lon="12.4547366"><ele>1422.5</ele><time>2026-04-26T04:59:30.12Z</time></trkpt><trkpt lat="46.643063" lon="12.4546767"><ele>1424.0</ele><time>2026-04-26T04:59:33.121Z</time></trkpt><trkpt lat="46.6431314" lon="12.4546206"><ele>1425.5</ele><time>2026-04-26T04:59:36.12Z</time></trkpt><trkpt lat="46.6431971" lon="12.4545567"><ele>1427.0</ele><time>2026-04-26T04:59:39.12Z</time></trkpt><trkpt lat="46.6432658" lon="12.4545062"><ele>1427.0</ele><time>2026-04-26T04:59:42.12Z</time></trkpt><trkpt lat="46.6433343" lon="12.454463"><ele>1427.0</ele><time>2026-04-26T04:59:45.121Z</time></trkpt><trkpt lat="46.6434012" lon="12.4544139"><ele>1427.0</ele><time>2026-04-26T04:59:48.12Z</time></trkpt><trkpt lat="46.6434649" lon="12.4543566"><ele>1427.0</ele><time>2026-04-26T04:59:51.12Z</time></trkpt><trkpt lat="46.6435232" lon="12.454289"><ele>1427.0</ele><time>2026-04-26T04:59:54.12Z</time></trkpt><trkpt lat="46.6435782" lon="12.4542156"><ele>1427.0</ele><time>2026-04-26T04:59:57.12Z</time></trkpt><trkpt lat="46.6436247" lon="12.4541276"><ele>1429.3333333333335</ele><time>2026-04-26T05:00:00.12Z</time></trkpt><trkpt lat="46.6436702" lon="12.4540321"><ele>1431.6666666666667</ele><time>2026-04-26T05:00:03.12Z</time></trkpt><trkpt lat="46.6437216" lon="12.453941"><ele>1434.0</ele><time>2026-04-26T05:00:06.12Z</time></trkpt><trkpt lat="46.6437732" lon="12.45386"><ele>1436.3333333333333</ele><time>2026-04-26T05:00:09.121Z</time></trkpt><trkpt lat="46.6438299" lon="12.4537875"><ele>1438.6666666666665</ele><time>2026-04-26T05:00:12.12Z</time></trkpt><trkpt lat="46.6438892" lon="12.4537206"><ele>1441.0</ele><time>2026-04-26T05:00:15.12Z</time></trkpt><trkpt lat="46.6439689" lon="12.4536289"><ele>1441.0</ele><time>2026-04-26T05:00:19.12Z</time></trkpt><trkpt lat="46.6440318" lon="12.453559"><ele>1441.0</ele><time>2026-04-26T05:00:22.121Z</time></trkpt><trkpt lat="46.644095" lon="12.4534895"><ele>1441.0</ele><time>2026-04-26T05:00:25.12Z</time></trkpt><trkpt lat="46.6441546" lon="12.453417"><ele>1441.0</ele><time>2026-04-26T05:00:28.12Z</time></trkpt><trkpt lat="46.6442056" lon="12.4533367"><ele>1441.0</ele><time>2026-04-26T05:00:31.12Z</time></trkpt><trkpt lat="46.6442418" lon="12.4532433"><ele>1441.0</ele><time>2026-04-26T05:00:34.12Z</time></trkpt><trkpt lat="46.6442668" lon="12.4531426"><ele>1441.0</ele><time>2026-04-26T05:00:37.12Z</time></trkpt><trkpt lat="46.6442952" lon="12.4530345"><ele>1441.0</ele><time>2026-04-26T05:00:40.12Z</time></trkpt><trkpt lat="46.6443165" lon="12.4529248"><ele>1441.0</ele><time>2026-04-26T05:00:43.12Z</time></trkpt><trkpt lat="46.6443407" lon="12.4528219"><ele>1441.0</ele><time>2026-04-26T05:00:46.12Z</time></trkpt><trkpt lat="46.6443705" lon="12.4527207"><ele>1441.0</ele><time>2026-04-26T05:00:49.12Z</time></trkpt><trkpt lat="46.6444031" lon="12.4526198"><ele>1441.0</ele><time>2026-04-26T05:00:52.12Z</time></trkpt><trkpt lat="46.644445" lon="12.4525257"><ele>1441.6666666666665</ele><time>2026-04-26T05:00:55.12Z</time></trkpt><trkpt lat="46.6444883" lon="12.4524285"><ele>1442.3333333333333</ele><time>2026-04-26T05:00:58.12Z</time></trkpt><trkpt lat="46.6445326" lon="12.4523346"><ele>1443.0</ele><time>2026-04-26T05:01:01.12Z</time></trkpt><trkpt lat="46.6445764" lon="12.4522441"><ele>1443.6666666666667</ele><time>2026-04-26T05:01:04.12Z</time></trkpt><trkpt lat="46.6446246" lon="12.4521621"><ele>1444.3333333333335</ele><time>2026-04-26T05:01:07.12Z</time></trkpt><trkpt lat="46.6446767" lon="12.4520844"><ele>1445.0</ele><time>2026-04-26T05:01:10.12Z</time></trkpt><trkpt lat="46.6447297" lon="12.4520153"><ele>1445.0</ele><time>2026-04-26T05:01:13.12Z</time></trkpt><trkpt lat="46.6447862" lon="12.4519393"><ele>1445.0</ele><time>2026-04-26T05:01:16.12Z</time></trkpt><trkpt lat="46.6448524" lon="12.4518666"><ele>1445.0</ele><time>2026-04-26T05:01:19.12Z</time></trkpt><trkpt lat="46.6449285" lon="12.4517999"><ele>1445.0</ele><time>2026-04-26T05:01:22.12Z</time></trkpt><trkpt lat="46.644985" lon="12.4517549"><ele>1445.0</ele><time>2026-04-26T05:01:24.12Z</time></trkpt><trkpt lat="46.6450636" lon="12.451685"><ele>1445.0</ele><time>2026-04-26T05:01:27.12Z</time></trkpt><trkpt lat="46.6451144" lon="12.4516285"><ele>1445.0</ele><time>2026-04-26T05:01:29.12Z</time></trkpt><trkpt lat="46.6451652" lon="12.4515698"><ele>1445.0</ele><time>2026-04-26T05:01:31.12Z</time></trkpt><trkpt lat="46.6452129" lon="12.4515049"><ele>1445.0</ele><time>2026-04-26T05:01:33.12Z</time></trkpt><trkpt lat="46.6452613" lon="12.4514457"><ele>1445.0</ele><time>2026-04-26T05:01:35.12Z</time></trkpt><trkpt lat="46.6453302" lon="12.4513576"><ele>1445.0</ele><time>2026-04-26T05:01:38.12Z</time></trkpt><trkpt lat="46.6453992" lon="12.4512722"><ele>1445.0</ele><time>2026-04-26T05:01:41.121Z</time></trkpt><trkpt lat="46.645471" lon="12.4511897"><ele>1445.5</ele><time>2026-04-26T05:01:44.12Z</time></trkpt><trkpt lat="46.6455437" lon="12.4511182"><ele>1446.0</ele><time>2026-04-26T05:01:47.12Z</time></trkpt><trkpt lat="46.6456146" lon="12.4510621"><ele>1446.5</ele><time>2026-04-26T05:01:50.12Z</time></trkpt><trkpt lat="46.6456867" lon="12.4510107"><ele>1447.0</ele><time>2026-04-26T05:01:53.12Z</time></trkpt><trkpt lat="46.6457621" lon="12.4509677"><ele>1447.5</ele><time>2026-04-26T05:01:56.12Z</time></trkpt><trkpt lat="46.645836" lon="12.4509176"><ele>1448.0</ele><time>2026-04-26T05:01:59.12Z</time></trkpt><trkpt lat="46.6459084" lon="12.4508635"><ele>1448.0</ele><time>2026-04-26T05:02:02.12Z</time></trkpt><trkpt lat="46.6459778" lon="12.4508032"><ele>1448.0</ele><time>2026-04-26T05:02:05.12Z</time></trkpt><trkpt lat="46.6460442" lon="12.4507394"><ele>1448.0</ele><time>2026-04-26T05:02:08.12Z</time></trkpt><trkpt lat="46.6461129" lon="12.4506761"><ele>1448.0</ele><time>2026-04-26T05:02:11.12Z</time></trkpt><trkpt lat="46.6461858" lon="12.4506096"><ele>1448.0</ele><time>2026-04-26T05:02:14.12Z</time></trkpt><trkpt lat="46.6462594" lon="12.4505506"><ele>1448.0</ele><time>2026-04-26T05:02:17.12Z</time></trkpt><trkpt lat="46.6463285" lon="12.4504862"><ele>1449.1666666666667</ele><time>2026-04-26T05:02:20.12Z</time></trkpt><trkpt lat="46.6463984" lon="12.4504177"><ele>1450.3333333333335</ele><time>2026-04-26T05:02:23.12Z</time></trkpt><trkpt lat="46.6464689" lon="12.450353"><ele>1451.5</ele><time>2026-04-26T05:02:26.121Z</time></trkpt><trkpt lat="46.6465345" lon="12.4502824"><ele>1452.6666666666667</ele><time>2026-04-26T05:02:29.12Z</time></trkpt><trkpt lat="46.6466016" lon="12.4502076"><ele>1453.8333333333333</ele><time>2026-04-26T05:02:32.12Z</time></trkpt><trkpt lat="46.6466647" lon="12.4501322"><ele>1455.0</ele><time>2026-04-26T05:02:35.12Z</time></trkpt><trkpt lat="46.6467283" lon="12.4500609"><ele>1455.0</ele><time>2026-04-26T05:02:38.12Z</time></trkpt><trkpt lat="46.6467924" lon="12.4499826"><ele>1455.0</ele><time>2026-04-26T05:02:41.12Z</time></trkpt><trkpt lat="46.6468584" lon="12.4499104"><ele>1455.0</ele><time>2026-04-26T05:02:44.12Z</time></trkpt><trkpt lat="46.6469222" lon="12.449834"><ele>1455.0</ele><time>2026-04-26T05:02:47.121Z</time></trkpt><trkpt lat="46.6469879" lon="12.4497578"><ele>1455.0</ele><time>2026-04-26T05:02:50.12Z</time></trkpt><trkpt lat="46.6470568" lon="12.449685"><ele>1455.0</ele><time>2026-04-26T05:02:53.12Z</time></trkpt><trkpt lat="46.647126" lon="12.4496112"><ele>1457.0</ele><time>2026-04-26T05:02:56.12Z</time></trkpt><trkpt lat="46.6471938" lon="12.4495342"><ele>1459.0</ele><time>2026-04-26T05:02:59.12Z</time></trkpt><trkpt lat="46.6472659" lon="12.4494631"><ele>1461.0</ele><time>2026-04-26T05:03:02.12Z</time></trkpt><trkpt lat="46.647337" lon="12.449396"><ele>1463.0</ele><time>2026-04-26T05:03:05.12Z</time></trkpt><trkpt lat="46.6474048" lon="12.4493253"><ele>1465.0</ele><time>2026-04-26T05:03:08.12Z</time></trkpt><trkpt lat="46.6474726" lon="12.4492513"><ele>1467.0</ele><time>2026-04-26T05:03:11.12Z</time></trkpt><trkpt lat="46.6475394" lon="12.4491784"><ele>1467.0</ele><time>2026-04-26T05:03:14.12Z</time></trkpt><trkpt lat="46.6476054" lon="12.4491003"><ele>1467.0</ele><time>2026-04-26T05:03:17.12Z</time></trkpt><trkpt lat="46.6476636" lon="12.4490152"><ele>1467.0</ele><time>2026-04-26T05:03:20.12Z</time></trkpt><trkpt lat="46.6477201" lon="12.4489248"><ele>1467.0</ele><time>2026-04-26T05:03:23.12Z</time></trkpt><trkpt lat="46.6477758" lon="12.4488331"><ele>1467.0</ele><time>2026-04-26T05:03:26.12Z</time></trkpt><trkpt lat="46.6478215" lon="12.4487288"><ele>1467.0</ele><time>2026-04-26T05:03:29.12Z</time></trkpt><trkpt lat="46.6478583" lon="12.4486188"><ele>1467.1666666666667</ele><time>2026-04-26T05:03:32.12Z</time></trkpt><trkpt lat="46.6478934" lon="12.4485087"><ele>1467.3333333333333</ele><time>2026-04-26T05:03:35.12Z</time></trkpt><trkpt lat="46.6479214" lon="12.4483917"><ele>1467.5</ele><time>2026-04-26T05:03:38.12Z</time></trkpt><trkpt lat="46.6479461" lon="12.4482664"><ele>1467.6666666666665</ele><time>2026-04-26T05:03:41.12Z</time></trkpt><trkpt lat="46.6479738" lon="12.4481357"><ele>1467.8333333333333</ele><time>2026-04-26T05:03:44.12Z</time></trkpt><trkpt lat="46.647998" lon="12.4480476"><ele>1468.0</ele><time>2026-04-26T05:03:46.12Z</time></trkpt><trkpt lat="46.6480266" lon="12.4479647"><ele>1468.0</ele><time>2026-04-26T05:03:48.12Z</time></trkpt><trkpt lat="46.6481001" lon="12.4478921"><ele>1468.0</ele><time>2026-04-26T05:03:51.12Z</time></trkpt><trkpt lat="46.6481913" lon="12.4479023"><ele>1468.0</ele><time>2026-04-26T05:03:54.12Z</time></trkpt><trkpt lat="46.6482448" lon="12.4479552"><ele>1468.0</ele><time>2026-04-26T05:03:56.12Z</time></trkpt><trkpt lat="46.6482721" lon="12.4480451"><ele>1468.0</ele><time>2026-04-26T05:03:58.12Z</time></trkpt><trkpt lat="46.6482618" lon="12.4481487"><ele>1468.0</ele><time>2026-04-26T05:04:00.12Z</time></trkpt><trkpt lat="46.6482292" lon="12.448241"><ele>1468.0</ele><time>2026-04-26T05:04:02.12Z</time></trkpt><trkpt lat="46.6481898" lon="12.4483178"><ele>1468.0</ele><time>2026-04-26T05:04:04.12Z</time></trkpt><trkpt lat="46.648145" lon="12.4483903"><ele>1468.0</ele><time>2026-04-26T05:04:06.12Z</time></trkpt><trkpt lat="46.6480841" lon="12.4484911"><ele>1468.0</ele><time>2026-04-26T05:04:09.12Z</time></trkpt><trkpt lat="46.6480232" lon="12.4485924"><ele>1468.0</ele><time>2026-04-26T05:04:12.121Z</time></trkpt><trkpt lat="46.6479903" lon="12.4486719"><ele>1468.0</ele><time>2026-04-26T05:04:14.121Z</time></trkpt><trkpt lat="46.6479516" lon="12.4487505"><ele>1468.0</ele><time>2026-04-26T05:04:16.121Z</time></trkpt><trkpt lat="46.6479231" lon="12.4488372"><ele>1467.857142857143</ele><time>2026-04-26T05:04:18.121Z</time></trkpt><trkpt lat="46.647898" lon="12.4489256"><ele>1467.7142857142858</ele><time>2026-04-26T05:04:20.121Z</time></trkpt><trkpt lat="46.6478749" lon="12.4490151"><ele>1467.5714285714287</ele><time>2026-04-26T05:04:22.121Z</time></trkpt><trkpt lat="46.6478511" lon="12.4491037"><ele>1467.4285714285716</ele><time>2026-04-26T05:04:24.121Z</time></trkpt><trkpt lat="46.6478273" lon="12.4491933"><ele>1467.2857142857142</ele><time>2026-04-26T05:04:26.121Z</time></trkpt><trkpt lat="46.6478007" lon="12.4492821"><ele>1467.1428571428573</ele><time>2026-04-26T05:04:28.121Z</time></trkpt><trkpt lat="46.6477727" lon="12.4493689"><ele>1467.0</ele><time>2026-04-26T05:04:30.121Z</time></trkpt><trkpt lat="46.6477375" lon="12.4494487"><ele>1467.0000000000002</ele><time>2026-04-26T05:04:32.121Z</time></trkpt><trkpt lat="46.6476991" lon="12.4495296"><ele>1467.0</ele><time>2026-04-26T05:04:34.122Z</time></trkpt><trkpt lat="46.6476559" lon="12.4496055"><ele>1467.0</ele><time>2026-04-26T05:04:36.121Z</time></trkpt><trkpt lat="46.6476083" lon="12.4496734"><ele>1467.0</ele><time>2026-04-26T05:04:38.121Z</time></trkpt><trkpt lat="46.6475585" lon="12.4497391"><ele>1467.0</ele><time>2026-04-26T05:04:40.121Z</time></trkpt><trkpt lat="46.6475083" lon="12.4498054"><ele>1467.0000000000002</ele><time>2026-04-26T05:04:42.121Z</time></trkpt><trkpt lat="46.6474573" lon="12.4498693"><ele>1467.0</ele><time>2026-04-26T05:04:44.121Z</time></trkpt><trkpt lat="46.6474073" lon="12.4499341"><ele>1469.1428571428573</ele><time>2026-04-26T05:04:46.121Z</time></trkpt><trkpt lat="46.6473568" lon="12.4500028"><ele>1471.2857142857142</ele><time>2026-04-26T05:04:48.121Z</time></trkpt><trkpt lat="46.6473081" lon="12.4500767"><ele>1473.4285714285716</ele><time>2026-04-26T05:04:50.121Z</time></trkpt><trkpt lat="46.6472584" lon="12.4501467"><ele>1475.5714285714287</ele><time>2026-04-26T05:04:52.121Z</time></trkpt><trkpt lat="46.6472093" lon="12.4502162"><ele>1477.7142857142858</ele><time>2026-04-26T05:04:54.121Z</time></trkpt><trkpt lat="46.6471578" lon="12.450282"><ele>1479.857142857143</ele><time>2026-04-26T05:04:56.121Z</time></trkpt><trkpt lat="46.6471061" lon="12.4503438"><ele>1482.0</ele><time>2026-04-26T05:04:58.121Z</time></trkpt><trkpt lat="46.6470485" lon="12.4504108"><ele>1481.3333333333333</ele><time>2026-04-26T05:05:01.121Z</time></trkpt><trkpt lat="46.6469906" lon="12.4504733"><ele>1480.6666666666667</ele><time>2026-04-26T05:05:03.121Z</time></trkpt><trkpt lat="46.646931" lon="12.4505347"><ele>1480.0</ele><time>2026-04-26T05:05:05.121Z</time></trkpt><trkpt lat="46.6468723" lon="12.450599"><ele>1479.3333333333335</ele><time>2026-04-26T05:05:07.121Z</time></trkpt><trkpt lat="46.6468152" lon="12.4506657"><ele>1478.6666666666667</ele><time>2026-04-26T05:05:09.121Z</time></trkpt><trkpt lat="46.6467396" lon="12.4507468"><ele>1478.0</ele><time>2026-04-26T05:05:12.121Z</time></trkpt><trkpt lat="46.6466844" lon="12.450823"><ele>1478.0</ele><time>2026-04-26T05:05:14.121Z</time></trkpt><trkpt lat="46.6466295" lon="12.4508956"><ele>1478.0</ele><time>2026-04-26T05:05:16.121Z</time></trkpt><trkpt lat="46.6465745" lon="12.4509686"><ele>1478.0</ele><time>2026-04-26T05:05:18.121Z</time></trkpt><trkpt lat="46.6465145" lon="12.4510275"><ele>1478.0</ele><time>2026-04-26T05:05:20.121Z</time></trkpt><trkpt lat="46.6464531" lon="12.4510821"><ele>1478.0</ele><time>2026-04-26T05:05:22.121Z</time></trkpt><trkpt lat="46.646393" lon="12.4511366"><ele>1478.0</ele><time>2026-04-26T05:05:24.121Z</time></trkpt><trkpt lat="46.6463316" lon="12.4511898"><ele>1478.0</ele><time>2026-04-26T05:05:26.121Z</time></trkpt><trkpt lat="46.6462664" lon="12.4512413"><ele>1476.7142857142858</ele><time>2026-04-26T05:05:28.121Z</time></trkpt><trkpt lat="46.6462092" lon="12.4513004"><ele>1475.4285714285716</ele><time>2026-04-26T05:05:30.121Z</time></trkpt><trkpt lat="46.6461561" lon="12.4513628"><ele>1474.142857142857</ele><time>2026-04-26T05:05:32.121Z</time></trkpt><trkpt lat="46.6461047" lon="12.4514321"><ele>1472.857142857143</ele><time>2026-04-26T05:05:34.121Z</time></trkpt><trkpt lat="46.6460543" lon="12.451501"><ele>1471.5714285714284</ele><time>2026-04-26T05:05:36.121Z</time></trkpt><trkpt lat="46.6460043" lon="12.4515684"><ele>1470.2857142857142</ele><time>2026-04-26T05:05:38.121Z</time></trkpt><trkpt lat="46.6459553" lon="12.4516339"><ele>1469.0</ele><time>2026-04-26T05:05:40.121Z</time></trkpt><trkpt lat="46.6459046" lon="12.4516977"><ele>1469.0</ele><time>2026-04-26T05:05:42.121Z</time></trkpt><trkpt lat="46.6458558" lon="12.4517621"><ele>1469.0</ele><time>2026-04-26T05:05:44.121Z</time></trkpt><trkpt lat="46.6458178" lon="12.4518362"><ele>1469.0</ele><time>2026-04-26T05:05:46.121Z</time></trkpt><trkpt lat="46.6457957" lon="12.4519243"><ele>1469.0</ele><time>2026-04-26T05:05:48.121Z</time></trkpt><trkpt lat="46.6457985" lon="12.4520163"><ele>1469.0</ele><time>2026-04-26T05:05:50.121Z</time></trkpt><trkpt lat="46.6458363" lon="12.4520933"><ele>1469.0</ele><time>2026-04-26T05:05:52.121Z</time></trkpt><trkpt lat="46.6458916" lon="12.4521426"><ele>1469.0</ele><time>2026-04-26T05:05:54.121Z</time></trkpt><trkpt lat="46.6459839" lon="12.4521472"><ele>1469.0</ele><time>2026-04-26T05:05:57.121Z</time></trkpt><trkpt lat="46.6460421" lon="12.4520996"><ele>1469.0</ele><time>2026-04-26T05:05:59.121Z</time></trkpt><trkpt lat="46.6460896" lon="12.4520191"><ele>1469.0</ele><time>2026-04-26T05:06:01.121Z</time></trkpt><trkpt lat="46.6461179" lon="12.4519204"><ele>1469.0</ele><time>2026-04-26T05:06:03.121Z</time></trkpt><trkpt lat="46.6461422" lon="12.4518206"><ele>1469.0</ele><time>2026-04-26T05:06:05.121Z</time></trkpt><trkpt lat="46.6461635" lon="12.4517201"><ele>1469.0</ele><time>2026-04-26T05:06:07.121Z</time></trkpt><trkpt lat="46.6461854" lon="12.4516271"><ele>1469.0</ele><time>2026-04-26T05:06:09.121Z</time></trkpt><trkpt lat="46.646221" lon="12.4515462"><ele>1470.5</ele><time>2026-04-26T05:06:11.121Z</time></trkpt><trkpt lat="46.6462628" lon="12.4514741"><ele>1472.0</ele><time>2026-04-26T05:06:13.121Z</time></trkpt><trkpt lat="46.6463088" lon="12.4514091"><ele>1473.5</ele><time>2026-04-26T05:06:15.121Z</time></trkpt><trkpt lat="46.6463536" lon="12.4513428"><ele>1475.0</ele><time>2026-04-26T05:06:17.121Z</time></trkpt><trkpt lat="46.6464199" lon="12.4512578"><ele>1476.5</ele><time>2026-04-26T05:06:20.121Z</time></trkpt><trkpt lat="46.6464954" lon="12.4512006"><ele>1478.0</ele><time>2026-04-26T05:06:23.121Z</time></trkpt><trkpt lat="46.6465703" lon="12.4511444"><ele>1478.0</ele><time>2026-04-26T05:06:26.121Z</time></trkpt><trkpt lat="46.6466448" lon="12.4510903"><ele>1478.0</ele><time>2026-04-26T05:06:29.121Z</time></trkpt><trkpt lat="46.6467213" lon="12.4510353"><ele>1478.0</ele><time>2026-04-26T05:06:32.121Z</time></trkpt><trkpt lat="46.646795" lon="12.450979"><ele>1478.0</ele><time>2026-04-26T05:06:35.121Z</time></trkpt><trkpt lat="46.6468696" lon="12.4509219"><ele>1478.0</ele><time>2026-04-26T05:06:38.121Z</time></trkpt><trkpt lat="46.6469471" lon="12.4508651"><ele>1478.0</ele><time>2026-04-26T05:06:41.121Z</time></trkpt><trkpt lat="46.6470247" lon="12.4508117"><ele>1478.6666666666667</ele><time>2026-04-26T05:06:44.121Z</time></trkpt><trkpt lat="46.6471026" lon="12.4507548"><ele>1479.3333333333335</ele><time>2026-04-26T05:06:47.122Z</time></trkpt><trkpt lat="46.6471804" lon="12.4506996"><ele>1480.0</ele><time>2026-04-26T05:06:50.121Z</time></trkpt><trkpt lat="46.6472538" lon="12.4506466"><ele>1480.6666666666667</ele><time>2026-04-26T05:06:53.121Z</time></trkpt><trkpt lat="46.6473248" lon="12.4505814"><ele>1481.3333333333333</ele><time>2026-04-26T05:06:56.121Z</time></trkpt><trkpt lat="46.6473962" lon="12.4505149"><ele>1482.0</ele><time>2026-04-26T05:06:59.122Z</time></trkpt><trkpt lat="46.6474643" lon="12.4504408"><ele>1482.0</ele><time>2026-04-26T05:07:02.121Z</time></trkpt><trkpt lat="46.6475364" lon="12.4503766"><ele>1482.0</ele><time>2026-04-26T05:07:05.121Z</time></trkpt><trkpt lat="46.6476111" lon="12.4503174"><ele>1482.0</ele><time>2026-04-26T05:07:08.121Z</time></trkpt><trkpt lat="46.6476874" lon="12.4502654"><ele>1482.0</ele><time>2026-04-26T05:07:11.121Z</time></trkpt><trkpt lat="46.6477648" lon="12.4502175"><ele>1482.0</ele><time>2026-04-26T05:07:14.121Z</time></trkpt><trkpt lat="46.6478389" lon="12.4501716"><ele>1482.0</ele><time>2026-04-26T05:07:17.121Z</time></trkpt><trkpt lat="46.6479104" lon="12.4501199"><ele>1484.0</ele><time>2026-04-26T05:07:20.122Z</time></trkpt><trkpt lat="46.6479798" lon="12.4500518"><ele>1486.0</ele><time>2026-04-26T05:07:23.121Z</time></trkpt><trkpt lat="46.6480426" lon="12.4499624"><ele>1488.0</ele><time>2026-04-26T05:07:26.121Z</time></trkpt><trkpt lat="46.648103" lon="12.4498749"><ele>1490.0</ele><time>2026-04-26T05:07:29.121Z</time></trkpt><trkpt lat="46.6481611" lon="12.4497839"><ele>1492.0</ele><time>2026-04-26T05:07:32.121Z</time></trkpt><trkpt lat="46.648217" lon="12.4496918"><ele>1494.0</ele><time>2026-04-26T05:07:35.121Z</time></trkpt><trkpt lat="46.6482749" lon="12.4496045"><ele>1494.0</ele><time>2026-04-26T05:07:38.121Z</time></trkpt><trkpt lat="46.6483303" lon="12.4495158"><ele>1494.0</ele><time>2026-04-26T05:07:41.121Z</time></trkpt><trkpt lat="46.6483886" lon="12.4494338"><ele>1494.0</ele><time>2026-04-26T05:07:44.121Z</time></trkpt><trkpt lat="46.6484499" lon="12.449353"><ele>1494.0</ele><time>2026-04-26T05:07:47.121Z</time></trkpt><trkpt lat="46.6485112" lon="12.4492672"><ele>1494.0</ele><time>2026-04-26T05:07:50.121Z</time></trkpt><trkpt lat="46.6485725" lon="12.4491809"><ele>1494.0</ele><time>2026-04-26T05:07:53.121Z</time></trkpt><trkpt lat="46.6486388" lon="12.4491009"><ele>1495.1666666666667</ele><time>2026-04-26T05:07:56.121Z</time></trkpt><trkpt lat="46.648702" lon="12.4490138"><ele>1496.3333333333333</ele><time>2026-04-26T05:07:59.121Z</time></trkpt><trkpt lat="46.648769" lon="12.4489365"><ele>1497.5</ele><time>2026-04-26T05:08:02.121Z</time></trkpt><trkpt lat="46.6488362" lon="12.448866"><ele>1498.6666666666665</ele><time>2026-04-26T05:08:05.121Z</time></trkpt><trkpt lat="46.6489109" lon="12.4488125"><ele>1499.8333333333333</ele><time>2026-04-26T05:08:08.121Z</time></trkpt><trkpt lat="46.64899" lon="12.4487718"><ele>1501.0</ele><time>2026-04-26T05:08:11.121Z</time></trkpt><trkpt lat="46.6490683" lon="12.4487348"><ele>1501.0</ele><time>2026-04-26T05:08:14.121Z</time></trkpt><trkpt lat="46.6491466" lon="12.4486929"><ele>1501.0</ele><time>2026-04-26T05:08:17.121Z</time></trkpt><trkpt lat="46.6492245" lon="12.4486442"><ele>1501.0</ele><time>2026-04-26T05:08:20.121Z</time></trkpt><trkpt lat="46.6493171" lon="12.4485489"><ele>1501.0</ele><time>2026-04-26T05:08:24.121Z</time></trkpt><trkpt lat="46.6493846" lon="12.4484714"><ele>1501.0</ele><time>2026-04-26T05:08:27.121Z</time></trkpt><trkpt lat="46.6494517" lon="12.4483912"><ele>1504.3333333333333</ele><time>2026-04-26T05:08:30.121Z</time></trkpt><trkpt lat="46.649517" lon="12.4483127"><ele>1507.6666666666665</ele><time>2026-04-26T05:08:33.121Z</time></trkpt><trkpt lat="46.6495788" lon="12.4482316"><ele>1511.0</ele><time>2026-04-26T05:08:36.121Z</time></trkpt><trkpt lat="46.6496314" lon="12.4481357"><ele>1514.3333333333333</ele><time>2026-04-26T05:08:39.121Z</time></trkpt><trkpt lat="46.64967" lon="12.448029"><ele>1517.6666666666667</ele><time>2026-04-26T05:08:42.121Z</time></trkpt><trkpt lat="46.6497055" lon="12.447921"><ele>1521.0</ele><time>2026-04-26T05:08:45.121Z</time></trkpt><trkpt lat="46.6497422" lon="12.4478027"><ele>1521.0</ele><time>2026-04-26T05:08:48.121Z</time></trkpt><trkpt lat="46.6497827" lon="12.447692"><ele>1521.0</ele><time>2026-04-26T05:08:51.122Z</time></trkpt><trkpt lat="46.6498207" lon="12.4475851"><ele>1521.0</ele><time>2026-04-26T05:08:54.121Z</time></trkpt><trkpt lat="46.6498618" lon="12.4474805"><ele>1521.0</ele><time>2026-04-26T05:08:57.121Z</time></trkpt><trkpt lat="46.6499007" lon="12.4473722"><ele>1521.0</ele><time>2026-04-26T05:09:00.121Z</time></trkpt><trkpt lat="46.649933" lon="12.4472575"><ele>1521.0</ele><time>2026-04-26T05:09:03.121Z</time></trkpt><trkpt lat="46.6499705" lon="12.4471498"><ele>1520.8333333333333</ele><time>2026-04-26T05:09:06.121Z</time></trkpt><trkpt lat="46.6499996" lon="12.4470368"><ele>1520.6666666666667</ele><time>2026-04-26T05:09:09.122Z</time></trkpt><trkpt lat="46.6500389" lon="12.44693"><ele>1520.5</ele><time>2026-04-26T05:09:12.122Z</time></trkpt><trkpt lat="46.6500901" lon="12.4468355"><ele>1520.3333333333335</ele><time>2026-04-26T05:09:15.122Z</time></trkpt><trkpt lat="46.6501564" lon="12.4467539"><ele>1520.1666666666667</ele><time>2026-04-26T05:09:18.122Z</time></trkpt><trkpt lat="46.6502233" lon="12.4466748"><ele>1520.0</ele><time>2026-04-26T05:09:21.123Z</time></trkpt><trkpt lat="46.6502922" lon="12.4466065"><ele>1520.0</ele><time>2026-04-26T05:09:24.123Z</time></trkpt><trkpt lat="46.6503688" lon="12.4465525"><ele>1520.0</ele><time>2026-04-26T05:09:27.122Z</time></trkpt><trkpt lat="46.6504398" lon="12.4464918"><ele>1520.0</ele><time>2026-04-26T05:09:30.122Z</time></trkpt><trkpt lat="46.6505037" lon="12.4464349"><ele>1520.0</ele><time>2026-04-26T05:09:33.122Z</time></trkpt><trkpt lat="46.650571" lon="12.4463849"><ele>1520.0</ele><time>2026-04-26T05:09:36.122Z</time></trkpt><trkpt lat="46.6506418" lon="12.446346"><ele>1520.0</ele><time>2026-04-26T05:09:39.122Z</time></trkpt><trkpt lat="46.650714" lon="12.4463349"><ele>1520.0</ele><time>2026-04-26T05:09:42.122Z</time></trkpt><trkpt lat="46.6507838" lon="12.4463743"><ele>1520.0</ele><time>2026-04-26T05:09:45.122Z</time></trkpt><trkpt lat="46.650841" lon="12.4464669"><ele>1520.0</ele><time>2026-04-26T05:09:48.123Z</time></trkpt><trkpt lat="46.650865" lon="12.4465974"><ele>1520.0</ele><time>2026-04-26T05:09:51.122Z</time></trkpt><trkpt lat="46.6508554" lon="12.4467292"><ele>1520.0</ele><time>2026-04-26T05:09:54.123Z</time></trkpt><trkpt lat="46.6508362" lon="12.4468544"><ele>1520.0</ele><time>2026-04-26T05:09:57.122Z</time></trkpt><trkpt lat="46.6508166" lon="12.4469823"><ele>1520.0</ele><time>2026-04-26T05:10:00.123Z</time></trkpt><trkpt lat="46.6508182" lon="12.4471012"><ele>1520.0</ele><time>2026-04-26T05:10:03.122Z</time></trkpt><trkpt lat="46.6508196" lon="12.4472336"><ele>1520.0</ele><time>2026-04-26T05:10:06.122Z</time></trkpt><trkpt lat="46.6508371" lon="12.4473262"><ele>1520.0</ele><time>2026-04-26T05:10:08.122Z</time></trkpt><trkpt lat="46.6508697" lon="12.4474107"><ele>1520.0</ele><time>2026-04-26T05:10:10.122Z</time></trkpt><trkpt lat="46.6509254" lon="12.4475146"><ele>1520.0</ele><time>2026-04-26T05:10:13.122Z</time></trkpt><trkpt lat="46.6509866" lon="12.4475963"><ele>1520.5</ele><time>2026-04-26T05:10:16.122Z</time></trkpt><trkpt lat="46.651056" lon="12.4476593"><ele>1521.0</ele><time>2026-04-26T05:10:19.122Z</time></trkpt><trkpt lat="46.6511371" lon="12.447683"><ele>1521.5</ele><time>2026-04-26T05:10:22.122Z</time></trkpt><trkpt lat="46.6512174" lon="12.4476855"><ele>1522.0</ele><time>2026-04-26T05:10:25.122Z</time></trkpt><trkpt lat="46.6513027" lon="12.447678"><ele>1522.5</ele><time>2026-04-26T05:10:28.122Z</time></trkpt><trkpt lat="46.6513822" lon="12.4476494"><ele>1523.0</ele><time>2026-04-26T05:10:31.123Z</time></trkpt><trkpt lat="46.6514637" lon="12.447618"><ele>1523.8333333333335</ele><time>2026-04-26T05:10:34.122Z</time></trkpt><trkpt lat="46.6515442" lon="12.4475808"><ele>1524.6666666666667</ele><time>2026-04-26T05:10:37.122Z</time></trkpt><trkpt lat="46.6516141" lon="12.4475499"><ele>1525.5</ele><time>2026-04-26T05:10:40.122Z</time></trkpt><trkpt lat="46.6516906" lon="12.4475184"><ele>1526.3333333333333</ele><time>2026-04-26T05:10:43.122Z</time></trkpt><trkpt lat="46.6517708" lon="12.447483"><ele>1527.1666666666665</ele><time>2026-04-26T05:10:46.122Z</time></trkpt><trkpt lat="46.6518545" lon="12.4474452"><ele>1528.0</ele><time>2026-04-26T05:10:49.122Z</time></trkpt><trkpt lat="46.6519344" lon="12.447397"><ele>1530.0</ele><time>2026-04-26T05:10:52.122Z</time></trkpt><trkpt lat="46.6520085" lon="12.4473488"><ele>1532.0</ele><time>2026-04-26T05:10:55.122Z</time></trkpt><trkpt lat="46.6520786" lon="12.447292"><ele>1534.0</ele><time>2026-04-26T05:10:58.122Z</time></trkpt><trkpt lat="46.6521478" lon="12.4472232"><ele>1536.0</ele><time>2026-04-26T05:11:01.122Z</time></trkpt><trkpt lat="46.6522189" lon="12.4471489"><ele>1538.0000000000002</ele><time>2026-04-26T05:11:04.122Z</time></trkpt><trkpt lat="46.6522889" lon="12.4470747"><ele>1540.0</ele><time>2026-04-26T05:11:07.122Z</time></trkpt><trkpt lat="46.6523574" lon="12.4470063"><ele>1540.0000000000002</ele><time>2026-04-26T05:11:10.122Z</time></trkpt><trkpt lat="46.6524233" lon="12.4469388"><ele>1540.0</ele><time>2026-04-26T05:11:13.122Z</time></trkpt><trkpt lat="46.6524885" lon="12.4468711"><ele>1540.0</ele><time>2026-04-26T05:11:16.122Z</time></trkpt><trkpt lat="46.6525554" lon="12.4468036"><ele>1540.0</ele><time>2026-04-26T05:11:19.122Z</time></trkpt><trkpt lat="46.65261" lon="12.4467098"><ele>1540.0000000000002</ele><time>2026-04-26T05:11:22.122Z</time></trkpt><trkpt lat="46.6526553" lon="12.4466094"><ele>1540.0</ele><time>2026-04-26T05:11:25.122Z</time></trkpt><trkpt lat="46.6527039" lon="12.4465135"><ele>1540.0000000000002</ele><time>2026-04-26T05:11:28.122Z</time></trkpt><trkpt lat="46.6527479" lon="12.44641"><ele>1540.0</ele><time>2026-04-26T05:11:31.122Z</time></trkpt><trkpt lat="46.6527976" lon="12.4463119"><ele>1540.0</ele><time>2026-04-26T05:11:34.122Z</time></trkpt><trkpt lat="46.652853" lon="12.4462195"><ele>1540.0</ele><time>2026-04-26T05:11:37.122Z</time></trkpt><trkpt lat="46.6529134" lon="12.4461315"><ele>1540.0000000000002</ele><time>2026-04-26T05:11:40.122Z</time></trkpt><trkpt lat="46.6529707" lon="12.4460406"><ele>1540.0</ele><time>2026-04-26T05:11:43.122Z</time></trkpt><trkpt lat="46.6530263" lon="12.4459496"><ele>1541.5714285714287</ele><time>2026-04-26T05:11:46.122Z</time></trkpt><trkpt lat="46.6530824" lon="12.4458756"><ele>1543.142857142857</ele><time>2026-04-26T05:11:49.122Z</time></trkpt><trkpt lat="46.6531348" lon="12.4457989"><ele>1544.7142857142858</ele><time>2026-04-26T05:11:52.122Z</time></trkpt><trkpt lat="46.653189" lon="12.4457036"><ele>1546.2857142857142</ele><time>2026-04-26T05:11:56.122Z</time></trkpt><trkpt lat="46.6532214" lon="12.4456227"><ele>1547.857142857143</ele><time>2026-04-26T05:11:59.122Z</time></trkpt><trkpt lat="46.6532555" lon="12.4455156"><ele>1549.4285714285716</ele><time>2026-04-26T05:12:02.122Z</time></trkpt><trkpt lat="46.6532918" lon="12.4454307"><ele>1551.0</ele><time>2026-04-26T05:12:04.122Z</time></trkpt><trkpt lat="46.6533123" lon="12.4453266"><ele>1551.0000000000002</ele><time>2026-04-26T05:12:07.123Z</time></trkpt><trkpt lat="46.6533256" lon="12.445216"><ele>1551.0</ele><time>2026-04-26T05:12:10.122Z</time></trkpt><trkpt lat="46.6533467" lon="12.4451083"><ele>1551.0</ele><time>2026-04-26T05:12:13.122Z</time></trkpt><trkpt lat="46.6533729" lon="12.4450074"><ele>1551.0</ele><time>2026-04-26T05:12:16.122Z</time></trkpt><trkpt lat="46.6534016" lon="12.4449104"><ele>1551.0</ele><time>2026-04-26T05:12:19.122Z</time></trkpt><trkpt lat="46.6534367" lon="12.4448172"><ele>1551.0000000000002</ele><time>2026-04-26T05:12:22.122Z</time></trkpt><trkpt lat="46.6534697" lon="12.4447219"><ele>1551.0</ele><time>2026-04-26T05:12:25.122Z</time></trkpt><trkpt lat="46.6535057" lon="12.4446277"><ele>1550.5</ele><time>2026-04-26T05:12:28.122Z</time></trkpt><trkpt lat="46.6535421" lon="12.4445286"><ele>1550.0</ele><time>2026-04-26T05:12:31.122Z</time></trkpt><trkpt lat="46.6535767" lon="12.4444299"><ele>1549.5</ele><time>2026-04-26T05:12:34.122Z</time></trkpt><trkpt lat="46.653588" lon="12.444315"><ele>1549.0</ele><time>2026-04-26T05:12:37.122Z</time></trkpt><trkpt lat="46.653582" lon="12.4441952"><ele>1548.5</ele><time>2026-04-26T05:12:40.122Z</time></trkpt><trkpt lat="46.6535638" lon="12.4440834"><ele>1548.0</ele><time>2026-04-26T05:12:43.122Z</time></trkpt><trkpt lat="46.6535306" lon="12.4439807"><ele>1548.0</ele><time>2026-04-26T05:12:46.122Z</time></trkpt><trkpt lat="46.653504" lon="12.4438721"><ele>1548.0</ele><time>2026-04-26T05:12:49.122Z</time></trkpt><trkpt lat="46.6534897" lon="12.443762"><ele>1548.0</ele><time>2026-04-26T05:12:52.122Z</time></trkpt><trkpt lat="46.653479" lon="12.4436488"><ele>1548.0</ele><time>2026-04-26T05:12:55.122Z</time></trkpt><trkpt lat="46.6534625" lon="12.4435332"><ele>1548.0</ele><time>2026-04-26T05:12:58.122Z</time></trkpt><trkpt lat="46.6534372" lon="12.4434212"><ele>1548.0</ele><time>2026-04-26T05:13:01.122Z</time></trkpt><trkpt lat="46.6534018" lon="12.443314"><ele>1549.0</ele><time>2026-04-26T05:13:04.122Z</time></trkpt><trkpt lat="46.6533596" lon="12.4432112"><ele>1550.0</ele><time>2026-04-26T05:13:07.122Z</time></trkpt><trkpt lat="46.6533287" lon="12.4431031"><ele>1551.0</ele><time>2026-04-26T05:13:10.122Z</time></trkpt><trkpt lat="46.6533068" lon="12.4429906"><ele>1552.0</ele><time>2026-04-26T05:13:13.122Z</time></trkpt><trkpt lat="46.6532935" lon="12.4428806"><ele>1553.0</ele><time>2026-04-26T05:13:16.122Z</time></trkpt><trkpt lat="46.6532848" lon="12.4427685"><ele>1554.0</ele><time>2026-04-26T05:13:19.122Z</time></trkpt><trkpt lat="46.6532803" lon="12.4426555"><ele>1553.3333333333333</ele><time>2026-04-26T05:13:22.122Z</time></trkpt><trkpt lat="46.6532716" lon="12.4425414"><ele>1552.6666666666665</ele><time>2026-04-26T05:13:25.122Z</time></trkpt><trkpt lat="46.6532619" lon="12.4424281"><ele>1552.0</ele><time>2026-04-26T05:13:28.123Z</time></trkpt><trkpt lat="46.6532552" lon="12.4423138"><ele>1551.3333333333333</ele><time>2026-04-26T05:13:31.122Z</time></trkpt><trkpt lat="46.6532611" lon="12.4421979"><ele>1550.6666666666665</ele><time>2026-04-26T05:13:34.122Z</time></trkpt><trkpt lat="46.6532959" lon="12.4420473"><ele>1550.0</ele><time>2026-04-26T05:13:38.122Z</time></trkpt><trkpt lat="46.6533457" lon="12.4419546"><ele>1549.9999999999998</ele><time>2026-04-26T05:13:41.122Z</time></trkpt><trkpt lat="46.6533926" lon="12.4418655"><ele>1550.0</ele><time>2026-04-26T05:13:44.123Z</time></trkpt><trkpt lat="46.6534485" lon="12.4417885"><ele>1550.0</ele><time>2026-04-26T05:13:47.122Z</time></trkpt><trkpt lat="46.6535059" lon="12.441716"><ele>1550.0</ele><time>2026-04-26T05:13:50.122Z</time></trkpt><trkpt lat="46.6535622" lon="12.4416401"><ele>1549.9999999999998</ele><time>2026-04-26T05:13:53.122Z</time></trkpt><trkpt lat="46.6536208" lon="12.4415645"><ele>1550.0</ele><time>2026-04-26T05:13:56.122Z</time></trkpt><trkpt lat="46.6536774" lon="12.4414852"><ele>1556.4999999999998</ele><time>2026-04-26T05:13:59.122Z</time></trkpt><trkpt lat="46.6537305" lon="12.4414033"><ele>1563.0</ele><time>2026-04-26T05:14:02.122Z</time></trkpt><trkpt lat="46.6537811" lon="12.4413159"><ele>1569.5</ele><time>2026-04-26T05:14:05.123Z</time></trkpt><trkpt lat="46.6538297" lon="12.4412223"><ele>1576.0</ele><time>2026-04-26T05:14:08.123Z</time></trkpt><trkpt lat="46.6538774" lon="12.4411316"><ele>1582.4999999999998</ele><time>2026-04-26T05:14:11.123Z</time></trkpt><trkpt lat="46.6539058" lon="12.4410225"><ele>1589.0</ele><time>2026-04-26T05:14:14.123Z</time></trkpt><trkpt lat="46.6539225" lon="12.4409081"><ele>1588.9999999999998</ele><time>2026-04-26T05:14:17.123Z</time></trkpt><trkpt lat="46.6539013" lon="12.4407916"><ele>1589.0</ele><time>2026-04-26T05:14:20.123Z</time></trkpt><trkpt lat="46.6538778" lon="12.4406675"><ele>1589.0</ele><time>2026-04-26T05:14:23.123Z</time></trkpt><trkpt lat="46.6538464" lon="12.4405495"><ele>1589.0</ele><time>2026-04-26T05:14:26.123Z</time></trkpt><trkpt lat="46.6537757" lon="12.4404594"><ele>1588.9999999999998</ele><time>2026-04-26T05:14:29.123Z</time></trkpt><trkpt lat="46.6536901" lon="12.4404096"><ele>1589.0</ele><time>2026-04-26T05:14:32.123Z</time></trkpt><trkpt lat="46.6536076" lon="12.4403575"><ele>1587.6666666666665</ele><time>2026-04-26T05:14:35.123Z</time></trkpt><trkpt lat="46.6535441" lon="12.440344"><ele>1586.3333333333333</ele><time>2026-04-26T05:14:37.123Z</time></trkpt><trkpt lat="46.6534533" lon="12.4403298"><ele>1585.0</ele><time>2026-04-26T05:14:40.123Z</time></trkpt><trkpt lat="46.6533665" lon="12.4402928"><ele>1583.6666666666665</ele><time>2026-04-26T05:14:43.123Z</time></trkpt><trkpt lat="46.6532775" lon="12.4402675"><ele>1582.3333333333333</ele><time>2026-04-26T05:14:46.123Z</time></trkpt><trkpt lat="46.6531866" lon="12.4402375"><ele>1581.0</ele><time>2026-04-26T05:14:49.124Z</time></trkpt><trkpt lat="46.6530971" lon="12.440208"><ele>1581.0</ele><time>2026-04-26T05:14:52.123Z</time></trkpt><trkpt lat="46.6530072" lon="12.4401837"><ele>1581.0</ele><time>2026-04-26T05:14:55.123Z</time></trkpt><trkpt lat="46.6529213" lon="12.4401488"><ele>1581.0</ele><time>2026-04-26T05:14:58.123Z</time></trkpt><trkpt lat="46.6528359" lon="12.4401069"><ele>1581.0</ele><time>2026-04-26T05:15:01.123Z</time></trkpt><trkpt lat="46.652752" lon="12.440055"><ele>1581.0</ele><time>2026-04-26T05:15:04.123Z</time></trkpt><trkpt lat="46.6526771" lon="12.4399863"><ele>1580.8</ele><time>2026-04-26T05:15:07.123Z</time></trkpt><trkpt lat="46.6526096" lon="12.4399029"><ele>1580.6</ele><time>2026-04-26T05:15:10.124Z</time></trkpt><trkpt lat="46.6525535" lon="12.4398027"><ele>1580.4</ele><time>2026-04-26T05:15:13.123Z</time></trkpt><trkpt lat="46.6525129" lon="12.4396871"><ele>1580.2</ele><time>2026-04-26T05:15:16.123Z</time></trkpt><trkpt lat="46.6524844" lon="12.4395601"><ele>1580.0</ele><time>2026-04-26T05:15:19.123Z</time></trkpt><trkpt lat="46.6524634" lon="12.43943"><ele>1579.9999999999998</ele><time>2026-04-26T05:15:22.123Z</time></trkpt><trkpt lat="46.6524446" lon="12.4393006"><ele>1580.0</ele><time>2026-04-26T05:15:25.123Z</time></trkpt><trkpt lat="46.6524123" lon="12.4391769"><ele>1580.0</ele><time>2026-04-26T05:15:28.123Z</time></trkpt><trkpt lat="46.6523646" lon="12.439061"><ele>1580.0</ele><time>2026-04-26T05:15:31.123Z</time></trkpt><trkpt lat="46.6523176" lon="12.4389897"><ele>1579.9999999999998</ele><time>2026-04-26T05:15:33.123Z</time></trkpt><trkpt lat="46.6522672" lon="12.4389202"><ele>1580.0</ele><time>2026-04-26T05:15:35.123Z</time></trkpt><trkpt lat="46.6522125" lon="12.4388541"><ele>1578.6666666666665</ele><time>2026-04-26T05:15:37.123Z</time></trkpt><trkpt lat="46.6521579" lon="12.4387828"><ele>1577.3333333333333</ele><time>2026-04-26T05:15:39.124Z</time></trkpt><trkpt lat="46.652101" lon="12.4387161"><ele>1576.0</ele><time>2026-04-26T05:15:41.124Z</time></trkpt><trkpt lat="46.6520355" lon="12.4386488"><ele>1574.6666666666665</ele><time>2026-04-26T05:15:43.123Z</time></trkpt><trkpt lat="46.6519719" lon="12.4385718"><ele>1573.3333333333333</ele><time>2026-04-26T05:15:45.123Z</time></trkpt><trkpt lat="46.6519078" lon="12.4384879"><ele>1572.0</ele><time>2026-04-26T05:15:47.123Z</time></trkpt><trkpt lat="46.6518442" lon="12.4383981"><ele>1572.0</ele><time>2026-04-26T05:15:49.123Z</time></trkpt><trkpt lat="46.6517949" lon="12.4382933"><ele>1572.0</ele><time>2026-04-26T05:15:51.123Z</time></trkpt><trkpt lat="46.6517743" lon="12.4381711"><ele>1572.0</ele><time>2026-04-26T05:15:53.123Z</time></trkpt><trkpt lat="46.6517758" lon="12.4380522"><ele>1572.0</ele><time>2026-04-26T05:15:55.123Z</time></trkpt><trkpt lat="46.6518003" lon="12.4379465"><ele>1572.0</ele><time>2026-04-26T05:15:57.123Z</time></trkpt><trkpt lat="46.6518313" lon="12.4378461"><ele>1572.0</ele><time>2026-04-26T05:15:59.123Z</time></trkpt><trkpt lat="46.6518688" lon="12.4377524"><ele>1571.4285714285716</ele><time>2026-04-26T05:16:01.123Z</time></trkpt><trkpt lat="46.6519021" lon="12.4376625"><ele>1570.857142857143</ele><time>2026-04-26T05:16:03.123Z</time></trkpt><trkpt lat="46.6519341" lon="12.4375708"><ele>1570.2857142857142</ele><time>2026-04-26T05:16:05.123Z</time></trkpt><trkpt lat="46.6519677" lon="12.4374847"><ele>1569.7142857142858</ele><time>2026-04-26T05:16:07.123Z</time></trkpt><trkpt lat="46.6519964" lon="12.4373993"><ele>1569.142857142857</ele><time>2026-04-26T05:16:09.123Z</time></trkpt><trkpt lat="46.6520255" lon="12.4373176"><ele>1568.5714285714287</ele><time>2026-04-26T05:16:11.123Z</time></trkpt><trkpt lat="46.6520506" lon="12.4372285"><ele>1568.0</ele><time>2026-04-26T05:16:13.123Z</time></trkpt><trkpt lat="46.6520769" lon="12.4371394"><ele>1575.2857142857142</ele><time>2026-04-26T05:16:15.123Z</time></trkpt><trkpt lat="46.6520972" lon="12.4370481"><ele>1582.5714285714284</ele><time>2026-04-26T05:16:17.123Z</time></trkpt><trkpt lat="46.6521144" lon="12.4369569"><ele>1589.857142857143</ele><time>2026-04-26T05:16:19.123Z</time></trkpt><trkpt lat="46.6521286" lon="12.4368638"><ele>1597.142857142857</ele><time>2026-04-26T05:16:21.123Z</time></trkpt><trkpt lat="46.6521385" lon="12.4367697"><ele>1604.4285714285713</ele><time>2026-04-26T05:16:23.123Z</time></trkpt><trkpt lat="46.6521406" lon="12.4366732"><ele>1611.7142857142858</ele><time>2026-04-26T05:16:25.123Z</time></trkpt><trkpt lat="46.6521433" lon="12.4365765"><ele>1619.0</ele><time>2026-04-26T05:16:27.124Z</time></trkpt><trkpt lat="46.6521401" lon="12.4364322"><ele>1619.0</ele><time>2026-04-26T05:16:30.123Z</time></trkpt><trkpt lat="46.6521389" lon="12.4363359"><ele>1619.0</ele><time>2026-04-26T05:16:32.123Z</time></trkpt><trkpt lat="46.6521356" lon="12.4362382"><ele>1619.0</ele><time>2026-04-26T05:16:34.124Z</time></trkpt><trkpt lat="46.6521331" lon="12.4361384"><ele>1619.0</ele><time>2026-04-26T05:16:36.123Z</time></trkpt><trkpt lat="46.6521335" lon="12.4360399"><ele>1619.0</ele><time>2026-04-26T05:16:38.123Z</time></trkpt><trkpt lat="46.6521331" lon="12.4359436"><ele>1619.0</ele><time>2026-04-26T05:16:40.123Z</time></trkpt><trkpt lat="46.6521344" lon="12.4358492"><ele>1619.0</ele><time>2026-04-26T05:16:42.123Z</time></trkpt><trkpt lat="46.6521318" lon="12.4357532"><ele>1618.4285714285716</ele><time>2026-04-26T05:16:44.123Z</time></trkpt><trkpt lat="46.6521322" lon="12.4356568"><ele>1617.8571428571427</ele><time>2026-04-26T05:16:46.123Z</time></trkpt><trkpt lat="46.6521312" lon="12.4355578"><ele>1617.2857142857142</ele><time>2026-04-26T05:16:48.124Z</time></trkpt><trkpt lat="46.6521341" lon="12.4354585"><ele>1616.7142857142858</ele><time>2026-04-26T05:16:50.123Z</time></trkpt><trkpt lat="46.6521327" lon="12.4353608"><ele>1616.1428571428573</ele><time>2026-04-26T05:16:52.124Z</time></trkpt><trkpt lat="46.652127" lon="12.4352637"><ele>1615.5714285714284</ele><time>2026-04-26T05:16:54.123Z</time></trkpt><trkpt lat="46.6521199" lon="12.4351674"><ele>1615.0</ele><time>2026-04-26T05:16:56.123Z</time></trkpt><trkpt lat="46.6521193" lon="12.4350694"><ele>1614.7142857142856</ele><time>2026-04-26T05:16:58.123Z</time></trkpt><trkpt lat="46.65212" lon="12.434974"><ele>1614.4285714285716</ele><time>2026-04-26T05:17:00.122Z</time></trkpt><trkpt lat="46.6521174" lon="12.4348783"><ele>1614.142857142857</ele><time>2026-04-26T05:17:02.123Z</time></trkpt><trkpt lat="46.6521083" lon="12.4347834"><ele>1613.8571428571427</ele><time>2026-04-26T05:17:04.123Z</time></trkpt><trkpt lat="46.6520895" lon="12.4346911"><ele>1613.5714285714284</ele><time>2026-04-26T05:17:06.123Z</time></trkpt><trkpt lat="46.6520642" lon="12.4346039"><ele>1613.2857142857142</ele><time>2026-04-26T05:17:08.123Z</time></trkpt><trkpt lat="46.652029" lon="12.4345221"><ele>1613.0</ele><time>2026-04-26T05:17:10.124Z</time></trkpt><trkpt lat="46.6519885" lon="12.434449"><ele>1609.2857142857142</ele><time>2026-04-26T05:17:12.124Z</time></trkpt><trkpt lat="46.6519341" lon="12.4343897"><ele>1605.5714285714284</ele><time>2026-04-26T05:17:14.123Z</time></trkpt><trkpt lat="46.651878" lon="12.4343394"><ele>1601.8571428571427</ele><time>2026-04-26T05:17:16.123Z</time></trkpt><trkpt lat="46.6518153" lon="12.4343011"><ele>1598.142857142857</ele><time>2026-04-26T05:17:18.123Z</time></trkpt><trkpt lat="46.6517595" lon="12.4342476"><ele>1594.4285714285716</ele><time>2026-04-26T05:17:20.123Z</time></trkpt><trkpt lat="46.6517008" lon="12.4341929"><ele>1590.7142857142856</ele><time>2026-04-26T05:17:22.123Z</time></trkpt><trkpt lat="46.651655" lon="12.4341214"><ele>1587.0</ele><time>2026-04-26T05:17:24.124Z</time></trkpt><trkpt lat="46.6516138" lon="12.4340464"><ele>1587.0</ele><time>2026-04-26T05:17:26.123Z</time></trkpt><trkpt lat="46.6515803" lon="12.4339679"><ele>1587.0</ele><time>2026-04-26T05:17:28.123Z</time></trkpt><trkpt lat="46.6515563" lon="12.4338812"><ele>1587.0</ele><time>2026-04-26T05:17:30.123Z</time></trkpt><trkpt lat="46.6515341" lon="12.4337915"><ele>1587.0</ele><time>2026-04-26T05:17:32.123Z</time></trkpt><trkpt lat="46.6515266" lon="12.4336965"><ele>1587.0</ele><time>2026-04-26T05:17:34.122Z</time></trkpt><trkpt lat="46.651532" lon="12.4336001"><ele>1587.0</ele><time>2026-04-26T05:17:36.123Z</time></trkpt><trkpt lat="46.6515429" lon="12.4335047"><ele>1587.0</ele><time>2026-04-26T05:17:38.124Z</time></trkpt><trkpt lat="46.6515531" lon="12.4334088"><ele>1588.2857142857142</ele><time>2026-04-26T05:17:40.123Z</time></trkpt><trkpt lat="46.6515616" lon="12.4333158"><ele>1589.5714285714287</ele><time>2026-04-26T05:17:42.123Z</time></trkpt><trkpt lat="46.6515548" lon="12.4332212"><ele>1590.857142857143</ele><time>2026-04-26T05:17:44.123Z</time></trkpt><trkpt lat="46.6515368" lon="12.4331264"><ele>1592.142857142857</ele><time>2026-04-26T05:17:46.123Z</time></trkpt><trkpt lat="46.6515159" lon="12.4330323"><ele>1593.4285714285716</ele><time>2026-04-26T05:17:48.123Z</time></trkpt><trkpt lat="46.6514947" lon="12.4329373"><ele>1594.7142857142858</ele><time>2026-04-26T05:17:50.123Z</time></trkpt><trkpt lat="46.6514754" lon="12.4328281"><ele>1596.0</ele><time>2026-04-26T05:17:52.123Z</time></trkpt><trkpt lat="46.6514601" lon="12.4327208"><ele>1596.0</ele><time>2026-04-26T05:17:54.123Z</time></trkpt><trkpt lat="46.651455" lon="12.4326115"><ele>1596.0</ele><time>2026-04-26T05:17:56.123Z</time></trkpt><trkpt lat="46.6514586" lon="12.4325036"><ele>1596.0</ele><time>2026-04-26T05:17:58.123Z</time></trkpt><trkpt lat="46.6514662" lon="12.4323972"><ele>1596.0</ele><time>2026-04-26T05:18:00.122Z</time></trkpt><trkpt lat="46.6514787" lon="12.4322909"><ele>1596.0</ele><time>2026-04-26T05:18:02.123Z</time></trkpt><trkpt lat="46.6514876" lon="12.4321851"><ele>1596.0</ele><time>2026-04-26T05:18:04.123Z</time></trkpt><trkpt lat="46.6514887" lon="12.4320792"><ele>1596.0</ele><time>2026-04-26T05:18:06.123Z</time></trkpt><trkpt lat="46.6514844" lon="12.4319739"><ele>1596.0</ele><time>2026-04-26T05:18:08.123Z</time></trkpt><trkpt lat="46.6514798" lon="12.4318682"><ele>1596.0</ele><time>2026-04-26T05:18:10.123Z</time></trkpt><trkpt lat="46.651477" lon="12.4317677"><ele>1596.0</ele><time>2026-04-26T05:18:12.123Z</time></trkpt><trkpt lat="46.6514758" lon="12.4316708"><ele>1596.0</ele><time>2026-04-26T05:18:14.123Z</time></trkpt><trkpt lat="46.6514788" lon="12.4315744"><ele>1596.0</ele><time>2026-04-26T05:18:16.123Z</time></trkpt><trkpt lat="46.6514846" lon="12.4314819"><ele>1596.0</ele><time>2026-04-26T05:18:18.123Z</time></trkpt><trkpt lat="46.6514953" lon="12.43139"><ele>1596.0</ele><time>2026-04-26T05:18:20.123Z</time></trkpt><trkpt lat="46.651506" lon="12.4312966"><ele>1597.1666666666667</ele><time>2026-04-26T05:18:22.123Z</time></trkpt><trkpt lat="46.6515046" lon="12.431204"><ele>1598.3333333333335</ele><time>2026-04-26T05:18:24.124Z</time></trkpt><trkpt lat="46.6514946" lon="12.4311131"><ele>1599.5</ele><time>2026-04-26T05:18:26.122Z</time></trkpt><trkpt lat="46.6514583" lon="12.4309861"><ele>1600.6666666666667</ele><time>2026-04-26T05:18:29.123Z</time></trkpt><trkpt lat="46.6514029" lon="12.4308791"><ele>1601.8333333333335</ele><time>2026-04-26T05:18:32.123Z</time></trkpt><trkpt lat="46.6513353" lon="12.4307832"><ele>1603.0</ele><time>2026-04-26T05:18:35.123Z</time></trkpt><trkpt lat="46.6512892" lon="12.4307138"><ele>1603.0</ele><time>2026-04-26T05:18:37.123Z</time></trkpt><trkpt lat="46.6512417" lon="12.4306486"><ele>1603.0</ele><time>2026-04-26T05:18:39.123Z</time></trkpt><trkpt lat="46.6511939" lon="12.4305875"><ele>1603.0</ele><time>2026-04-26T05:18:41.123Z</time></trkpt><trkpt lat="46.6511462" lon="12.4305244"><ele>1603.0</ele><time>2026-04-26T05:18:43.123Z</time></trkpt><trkpt lat="46.6510993" lon="12.4304577"><ele>1603.0</ele><time>2026-04-26T05:18:45.124Z</time></trkpt><trkpt lat="46.6510322" lon="12.4303662"><ele>1603.0</ele><time>2026-04-26T05:18:48.124Z</time></trkpt><trkpt lat="46.6509831" lon="12.4303019"><ele>1603.0</ele><time>2026-04-26T05:18:50.124Z</time></trkpt><trkpt lat="46.6509327" lon="12.4302407"><ele>1603.142857142857</ele><time>2026-04-26T05:18:52.124Z</time></trkpt><trkpt lat="46.6508816" lon="12.4301853"><ele>1603.2857142857142</ele><time>2026-04-26T05:18:54.124Z</time></trkpt><trkpt lat="46.6508235" lon="12.4301427"><ele>1603.4285714285716</ele><time>2026-04-26T05:18:56.125Z</time></trkpt><trkpt lat="46.6507633" lon="12.4301069"><ele>1603.5714285714284</ele><time>2026-04-26T05:18:58.124Z</time></trkpt><trkpt lat="46.6507005" lon="12.4300784"><ele>1603.7142857142858</ele><time>2026-04-26T05:19:00.125Z</time></trkpt><trkpt lat="46.6506355" lon="12.4300538"><ele>1603.857142857143</ele><time>2026-04-26T05:19:02.124Z</time></trkpt><trkpt lat="46.6505681" lon="12.4300437"><ele>1604.0</ele><time>2026-04-26T05:19:04.124Z</time></trkpt><trkpt lat="46.6505001" lon="12.4300457"><ele>1604.0</ele><time>2026-04-26T05:19:06.124Z</time></trkpt><trkpt lat="46.650434" lon="12.4300572"><ele>1604.0</ele><time>2026-04-26T05:19:08.124Z</time></trkpt><trkpt lat="46.6503692" lon="12.430077"><ele>1604.0</ele><time>2026-04-26T05:19:10.125Z</time></trkpt><trkpt lat="46.6503042" lon="12.4301029"><ele>1604.0</ele><time>2026-04-26T05:19:12.124Z</time></trkpt><trkpt lat="46.6502381" lon="12.4301287"><ele>1604.0</ele><time>2026-04-26T05:19:14.124Z</time></trkpt><trkpt lat="46.6501711" lon="12.4301451"><ele>1604.0</ele><time>2026-04-26T05:19:16.124Z</time></trkpt><trkpt lat="46.6501036" lon="12.4301417"><ele>1604.0</ele><time>2026-04-26T05:19:18.124Z</time></trkpt><trkpt lat="46.650038" lon="12.4301177"><ele>1602.8333333333333</ele><time>2026-04-26T05:19:20.124Z</time></trkpt><trkpt lat="46.6499712" lon="12.4300894"><ele>1601.6666666666665</ele><time>2026-04-26T05:19:22.124Z</time></trkpt><trkpt lat="46.6499066" lon="12.4300447"><ele>1600.5</ele><time>2026-04-26T05:19:24.124Z</time></trkpt><trkpt lat="46.6498463" lon="12.4299763"><ele>1599.3333333333335</ele><time>2026-04-26T05:19:26.124Z</time></trkpt><trkpt lat="46.6497907" lon="12.429898"><ele>1598.1666666666667</ele><time>2026-04-26T05:19:28.124Z</time></trkpt><trkpt lat="46.6497401" lon="12.4298063"><ele>1597.0</ele><time>2026-04-26T05:19:30.124Z</time></trkpt><trkpt lat="46.6497011" lon="12.4297012"><ele>1598.3333333333335</ele><time>2026-04-26T05:19:32.124Z</time></trkpt><trkpt lat="46.6496794" lon="12.4295872"><ele>1599.6666666666667</ele><time>2026-04-26T05:19:34.124Z</time></trkpt><trkpt lat="46.6496671" lon="12.4294724"><ele>1601.0</ele><time>2026-04-26T05:19:36.125Z</time></trkpt><trkpt lat="46.6496658" lon="12.4293636"><ele>1602.3333333333335</ele><time>2026-04-26T05:19:38.124Z</time></trkpt><trkpt lat="46.6496659" lon="12.4292567"><ele>1603.6666666666667</ele><time>2026-04-26T05:19:40.124Z</time></trkpt><trkpt lat="46.6496665" lon="12.4291534"><ele>1605.0</ele><time>2026-04-26T05:19:42.124Z</time></trkpt><trkpt lat="46.6496744" lon="12.4290515"><ele>1605.0</ele><time>2026-04-26T05:19:44.125Z</time></trkpt><trkpt lat="46.6496842" lon="12.4289501"><ele>1605.0</ele><time>2026-04-26T05:19:46.124Z</time></trkpt><trkpt lat="46.6496902" lon="12.4288505"><ele>1605.0</ele><time>2026-04-26T05:19:48.123Z</time></trkpt><trkpt lat="46.6496889" lon="12.4287459"><ele>1605.0</ele><time>2026-04-26T05:19:50.124Z</time></trkpt><trkpt lat="46.6496955" lon="12.428644"><ele>1605.0</ele><time>2026-04-26T05:19:52.124Z</time></trkpt><trkpt lat="46.6497079" lon="12.4285447"><ele>1605.0</ele><time>2026-04-26T05:19:54.124Z</time></trkpt><trkpt lat="46.6497291" lon="12.4284467"><ele>1605.0</ele><time>2026-04-26T05:19:56.124Z</time></trkpt><trkpt lat="46.6497593" lon="12.4283554"><ele>1605.0</ele><time>2026-04-26T05:19:58.125Z</time></trkpt><trkpt lat="46.6497954" lon="12.4282732"><ele>1605.0</ele><time>2026-04-26T05:20:00.124Z</time></trkpt><trkpt lat="46.6498344" lon="12.4281991"><ele>1605.0</ele><time>2026-04-26T05:20:02.124Z</time></trkpt><trkpt lat="46.6498815" lon="12.4281302"><ele>1605.0</ele><time>2026-04-26T05:20:04.124Z</time></trkpt><trkpt lat="46.6499333" lon="12.428061"><ele>1605.0</ele><time>2026-04-26T05:20:06.124Z</time></trkpt><trkpt lat="46.6499856" lon="12.4279956"><ele>1605.0</ele><time>2026-04-26T05:20:08.124Z</time></trkpt><trkpt lat="46.6500378" lon="12.427931"><ele>1605.0</ele><time>2026-04-26T05:20:10.124Z</time></trkpt><trkpt lat="46.6500928" lon="12.4278703"><ele>1604.7142857142858</ele><time>2026-04-26T05:20:12.124Z</time></trkpt><trkpt lat="46.6501488" lon="12.4278104"><ele>1604.4285714285713</ele><time>2026-04-26T05:20:14.124Z</time></trkpt><trkpt lat="46.6502027" lon="12.427748"><ele>1604.142857142857</ele><time>2026-04-26T05:20:16.124Z</time></trkpt><trkpt lat="46.6502563" lon="12.4276873"><ele>1603.857142857143</ele><time>2026-04-26T05:20:18.124Z</time></trkpt><trkpt lat="46.6503115" lon="12.4276276"><ele>1603.5714285714284</ele><time>2026-04-26T05:20:20.124Z</time></trkpt><trkpt lat="46.6503668" lon="12.4275661"><ele>1603.2857142857142</ele><time>2026-04-26T05:20:22.124Z</time></trkpt><trkpt lat="46.6504215" lon="12.4275077"><ele>1603.0</ele><time>2026-04-26T05:20:24.124Z</time></trkpt><trkpt lat="46.6504745" lon="12.4274484"><ele>1603.5714285714287</ele><time>2026-04-26T05:20:26.124Z</time></trkpt><trkpt lat="46.6505289" lon="12.42739"><ele>1604.142857142857</ele><time>2026-04-26T05:20:28.124Z</time></trkpt><trkpt lat="46.6505831" lon="12.4273302"><ele>1604.7142857142858</ele><time>2026-04-26T05:20:30.124Z</time></trkpt><trkpt lat="46.6506368" lon="12.427269"><ele>1605.2857142857142</ele><time>2026-04-26T05:20:32.124Z</time></trkpt><trkpt lat="46.6506906" lon="12.4272072"><ele>1605.857142857143</ele><time>2026-04-26T05:20:34.124Z</time></trkpt><trkpt lat="46.6507464" lon="12.4271483"><ele>1606.4285714285716</ele><time>2026-04-26T05:20:36.123Z</time></trkpt><trkpt lat="46.6508021" lon="12.4270875"><ele>1607.0</ele><time>2026-04-26T05:20:38.124Z</time></trkpt><trkpt lat="46.650858" lon="12.4270288"><ele>1607.0000000000002</ele><time>2026-04-26T05:20:40.124Z</time></trkpt><trkpt lat="46.6509122" lon="12.4269673"><ele>1607.0</ele><time>2026-04-26T05:20:42.124Z</time></trkpt><trkpt lat="46.650968" lon="12.4269108"><ele>1607.0</ele><time>2026-04-26T05:20:44.124Z</time></trkpt><trkpt lat="46.6510191" lon="12.4268492"><ele>1607.0</ele><time>2026-04-26T05:20:46.124Z</time></trkpt><trkpt lat="46.651072" lon="12.426791"><ele>1607.0</ele><time>2026-04-26T05:20:48.124Z</time></trkpt><trkpt lat="46.6511236" lon="12.4267307"><ele>1607.0000000000002</ele><time>2026-04-26T05:20:50.124Z</time></trkpt><trkpt lat="46.6511757" lon="12.4266713"><ele>1607.0</ele><time>2026-04-26T05:20:52.124Z</time></trkpt><trkpt lat="46.6512269" lon="12.4266126"><ele>1607.857142857143</ele><time>2026-04-26T05:20:54.124Z</time></trkpt><trkpt lat="46.6512773" lon="12.4265536"><ele>1608.7142857142858</ele><time>2026-04-26T05:20:56.124Z</time></trkpt><trkpt lat="46.6513288" lon="12.4264935"><ele>1609.5714285714284</ele><time>2026-04-26T05:20:58.124Z</time></trkpt><trkpt lat="46.6513783" lon="12.42643"><ele>1610.4285714285716</ele><time>2026-04-26T05:21:00.124Z</time></trkpt><trkpt lat="46.6514262" lon="12.426364"><ele>1611.2857142857142</ele><time>2026-04-26T05:21:02.124Z</time></trkpt><trkpt lat="46.6514708" lon="12.426294"><ele>1612.142857142857</ele><time>2026-04-26T05:21:04.124Z</time></trkpt><trkpt lat="46.651511" lon="12.4262173"><ele>1613.0</ele><time>2026-04-26T05:21:06.124Z</time></trkpt><trkpt lat="46.6515479" lon="12.4261374"><ele>1613.0</ele><time>2026-04-26T05:21:08.124Z</time></trkpt><trkpt lat="46.6515894" lon="12.426015"><ele>1613.0</ele><time>2026-04-26T05:21:11.124Z</time></trkpt><trkpt lat="46.6516228" lon="12.4258947"><ele>1613.0</ele><time>2026-04-26T05:21:14.124Z</time></trkpt><trkpt lat="46.6516589" lon="12.4257742"><ele>1613.0</ele><time>2026-04-26T05:21:17.124Z</time></trkpt><trkpt lat="46.6516947" lon="12.4256524"><ele>1613.0</ele><time>2026-04-26T05:21:20.124Z</time></trkpt><trkpt lat="46.6517284" lon="12.4255263"><ele>1613.6000000000001</ele><time>2026-04-26T05:21:23.124Z</time></trkpt><trkpt lat="46.6517607" lon="12.4254014"><ele>1614.2</ele><time>2026-04-26T05:21:26.124Z</time></trkpt><trkpt lat="46.6518056" lon="12.4252847"><ele>1614.8</ele><time>2026-04-26T05:21:29.124Z</time></trkpt><trkpt lat="46.6518486" lon="12.4251634"><ele>1615.4</ele><time>2026-04-26T05:21:32.124Z</time></trkpt><trkpt lat="46.6518987" lon="12.4250535"><ele>1616.0</ele><time>2026-04-26T05:21:35.124Z</time></trkpt><trkpt lat="46.6519549" lon="12.4249453"><ele>1616.3333333333333</ele><time>2026-04-26T05:21:38.124Z</time></trkpt><trkpt lat="46.6520148" lon="12.4248436"><ele>1616.6666666666665</ele><time>2026-04-26T05:21:41.124Z</time></trkpt><trkpt lat="46.652078" lon="12.4247476"><ele>1617.0</ele><time>2026-04-26T05:21:44.124Z</time></trkpt><trkpt lat="46.6521442" lon="12.4246559"><ele>1617.3333333333335</ele><time>2026-04-26T05:21:47.124Z</time></trkpt><trkpt lat="46.652216" lon="12.4245668"><ele>1617.6666666666667</ele><time>2026-04-26T05:21:50.124Z</time></trkpt><trkpt lat="46.6522673" lon="12.4245102"><ele>1618.0</ele><time>2026-04-26T05:21:52.124Z</time></trkpt><trkpt lat="46.6523195" lon="12.4244533"><ele>1618.0</ele><time>2026-04-26T05:21:54.124Z</time></trkpt><trkpt lat="46.6523739" lon="12.4244007"><ele>1618.0</ele><time>2026-04-26T05:21:56.124Z</time></trkpt><trkpt lat="46.6524274" lon="12.4243482"><ele>1618.0</ele><time>2026-04-26T05:21:58.124Z</time></trkpt><trkpt lat="46.6525081" lon="12.4242765"><ele>1618.0</ele><time>2026-04-26T05:22:01.124Z</time></trkpt><trkpt lat="46.6525636" lon="12.4242309"><ele>1618.0</ele><time>2026-04-26T05:22:03.123Z</time></trkpt><trkpt lat="46.6526185" lon="12.4241834"><ele>1618.0</ele><time>2026-04-26T05:22:05.124Z</time></trkpt><trkpt lat="46.6526736" lon="12.4241345"><ele>1618.0</ele><time>2026-04-26T05:22:07.124Z</time></trkpt><trkpt lat="46.652728" lon="12.4240834"><ele>1618.0</ele><time>2026-04-26T05:22:09.124Z</time></trkpt><trkpt lat="46.6527847" lon="12.4240372"><ele>1618.0</ele><time>2026-04-26T05:22:11.124Z</time></trkpt><trkpt lat="46.6528422" lon="12.4239942"><ele>1618.0</ele><time>2026-04-26T05:22:13.124Z</time></trkpt><trkpt lat="46.6528987" lon="12.4239489"><ele>1618.0</ele><time>2026-04-26T05:22:15.124Z</time></trkpt><trkpt lat="46.6529539" lon="12.4239046"><ele>1618.0</ele><time>2026-04-26T05:22:17.124Z</time></trkpt><trkpt lat="46.653009" lon="12.4238597"><ele>1618.0</ele><time>2026-04-26T05:22:19.124Z</time></trkpt><trkpt lat="46.6530649" lon="12.4238144"><ele>1618.0</ele><time>2026-04-26T05:22:21.124Z</time></trkpt><trkpt lat="46.6531211" lon="12.4237686"><ele>1618.0</ele><time>2026-04-26T05:22:23.124Z</time></trkpt><trkpt lat="46.6531775" lon="12.4237232"><ele>1619.142857142857</ele><time>2026-04-26T05:22:25.124Z</time></trkpt><trkpt lat="46.6532583" lon="12.4236536"><ele>1620.2857142857142</ele><time>2026-04-26T05:22:28.124Z</time></trkpt><trkpt lat="46.6533115" lon="12.4236041"><ele>1621.4285714285716</ele><time>2026-04-26T05:22:30.124Z</time></trkpt><trkpt lat="46.6533652" lon="12.423552"><ele>1622.5714285714284</ele><time>2026-04-26T05:22:32.124Z</time></trkpt><trkpt lat="46.6534191" lon="12.4234955"><ele>1623.7142857142856</ele><time>2026-04-26T05:22:34.124Z</time></trkpt><trkpt lat="46.6534719" lon="12.423435"><ele>1624.857142857143</ele><time>2026-04-26T05:22:36.125Z</time></trkpt><trkpt lat="46.6535232" lon="12.4233727"><ele>1626.0</ele><time>2026-04-26T05:22:38.124Z</time></trkpt><trkpt lat="46.653574" lon="12.4233083"><ele>1626.2857142857144</ele><time>2026-04-26T05:22:40.124Z</time></trkpt><trkpt lat="46.653624" lon="12.4232366"><ele>1626.5714285714284</ele><time>2026-04-26T05:22:42.124Z</time></trkpt><trkpt lat="46.6536744" lon="12.423166"><ele>1626.857142857143</ele><time>2026-04-26T05:22:44.124Z</time></trkpt><trkpt lat="46.6537246" lon="12.423097"><ele>1627.1428571428573</ele><time>2026-04-26T05:22:46.124Z</time></trkpt><trkpt lat="46.6537723" lon="12.4230256"><ele>1627.4285714285716</ele><time>2026-04-26T05:22:48.124Z</time></trkpt><trkpt lat="46.6538188" lon="12.4229534"><ele>1627.7142857142858</ele><time>2026-04-26T05:22:50.124Z</time></trkpt><trkpt lat="46.6538668" lon="12.4228826"><ele>1628.0</ele><time>2026-04-26T05:22:52.124Z</time></trkpt><trkpt lat="46.6539177" lon="12.4228147"><ele>1628.0000000000002</ele><time>2026-04-26T05:22:54.124Z</time></trkpt><trkpt lat="46.6539686" lon="12.4227433"><ele>1628.0</ele><time>2026-04-26T05:22:56.124Z</time></trkpt><trkpt lat="46.6540218" lon="12.4226749"><ele>1628.0</ele><time>2026-04-26T05:22:58.124Z</time></trkpt><trkpt lat="46.6540769" lon="12.4226056"><ele>1628.0</ele><time>2026-04-26T05:23:00.124Z</time></trkpt><trkpt lat="46.654134" lon="12.4225383"><ele>1628.0</ele><time>2026-04-26T05:23:02.124Z</time></trkpt><trkpt lat="46.6541938" lon="12.4224722"><ele>1628.0000000000002</ele><time>2026-04-26T05:23:04.124Z</time></trkpt><trkpt lat="46.6542527" lon="12.4224039"><ele>1628.0</ele><time>2026-04-26T05:23:06.124Z</time></trkpt><trkpt lat="46.6543104" lon="12.422331"><ele>1627.9999999999998</ele><time>2026-04-26T05:23:08.124Z</time></trkpt><trkpt lat="46.6543718" lon="12.4222636"><ele>1628.0</ele><time>2026-04-26T05:23:10.124Z</time></trkpt><trkpt lat="46.654435" lon="12.4221946"><ele>1628.0</ele><time>2026-04-26T05:23:12.124Z</time></trkpt><trkpt lat="46.6544946" lon="12.4221251"><ele>1628.0</ele><time>2026-04-26T05:23:14.124Z</time></trkpt><trkpt lat="46.6545552" lon="12.4220559"><ele>1627.9999999999998</ele><time>2026-04-26T05:23:16.124Z</time></trkpt><trkpt lat="46.6546122" lon="12.421982"><ele>1628.0</ele><time>2026-04-26T05:23:18.124Z</time></trkpt><trkpt lat="46.6546789" lon="12.4219146"><ele>1629.4999999999998</ele><time>2026-04-26T05:23:20.125Z</time></trkpt><trkpt lat="46.6547364" lon="12.4218374"><ele>1631.0</ele><time>2026-04-26T05:23:22.125Z</time></trkpt><trkpt lat="46.6548021" lon="12.4217754"><ele>1632.5</ele><time>2026-04-26T05:23:24.125Z</time></trkpt><trkpt lat="46.6548631" lon="12.4217067"><ele>1634.0</ele><time>2026-04-26T05:23:26.125Z</time></trkpt><trkpt lat="46.654925" lon="12.4216408"><ele>1635.4999999999998</ele><time>2026-04-26T05:23:28.125Z</time></trkpt><trkpt lat="46.6549836" lon="12.4215674"><ele>1637.0</ele><time>2026-04-26T05:23:30.125Z</time></trkpt><trkpt lat="46.6550428" lon="12.4214927"><ele>1637.0</ele><time>2026-04-26T05:23:32.125Z</time></trkpt><trkpt lat="46.655109" lon="12.4214197"><ele>1637.0</ele><time>2026-04-26T05:23:34.124Z</time></trkpt><trkpt lat="46.6551798" lon="12.4213463"><ele>1637.0</ele><time>2026-04-26T05:23:36.125Z</time></trkpt><trkpt lat="46.655269" lon="12.4212293"><ele>1637.0</ele><time>2026-04-26T05:23:39.125Z</time></trkpt><trkpt lat="46.6553297" lon="12.421147"><ele>1637.0</ele><time>2026-04-26T05:23:41.125Z</time></trkpt><trkpt lat="46.655392" lon="12.4210694"><ele>1637.6666666666665</ele><time>2026-04-26T05:23:43.125Z</time></trkpt><trkpt lat="46.6554547" lon="12.4209955"><ele>1638.3333333333333</ele><time>2026-04-26T05:23:45.125Z</time></trkpt><trkpt lat="46.6555138" lon="12.4209164"><ele>1639.0</ele><time>2026-04-26T05:23:47.125Z</time></trkpt><trkpt lat="46.6555685" lon="12.4208343"><ele>1639.6666666666665</ele><time>2026-04-26T05:23:49.125Z</time></trkpt><trkpt lat="46.6556244" lon="12.4207527"><ele>1640.3333333333333</ele><time>2026-04-26T05:23:51.125Z</time></trkpt><trkpt lat="46.6556826" lon="12.4206688"><ele>1641.0</ele><time>2026-04-26T05:23:53.125Z</time></trkpt><trkpt lat="46.6557407" lon="12.4205812"><ele>1641.0</ele><time>2026-04-26T05:23:55.125Z</time></trkpt><trkpt lat="46.6557936" lon="12.4204888"><ele>1641.0</ele><time>2026-04-26T05:23:57.125Z</time></trkpt><trkpt lat="46.6558445" lon="12.4203909"><ele>1641.0</ele><time>2026-04-26T05:23:59.125Z</time></trkpt><trkpt lat="46.6558902" lon="12.4202881"><ele>1641.0</ele><time>2026-04-26T05:24:01.125Z</time></trkpt><trkpt lat="46.6559612" lon="12.4202094"><ele>1641.0</ele><time>2026-04-26T05:24:03.125Z</time></trkpt><trkpt lat="46.6560034" lon="12.4201171"><ele>1641.0</ele><time>2026-04-26T05:24:05.125Z</time></trkpt><trkpt lat="46.6560426" lon="12.4200282"><ele>1641.0</ele><time>2026-04-26T05:24:07.125Z</time></trkpt><trkpt lat="46.6560872" lon="12.4199396"><ele>1641.0</ele><time>2026-04-26T05:24:09.125Z</time></trkpt><trkpt lat="46.6561346" lon="12.419846"><ele>1641.0</ele><time>2026-04-26T05:24:11.125Z</time></trkpt><trkpt lat="46.6561864" lon="12.4197592"><ele>1641.0</ele><time>2026-04-26T05:24:13.125Z</time></trkpt><trkpt lat="46.6562374" lon="12.41967"><ele>1641.0</ele><time>2026-04-26T05:24:15.125Z</time></trkpt><trkpt lat="46.6562888" lon="12.4195809"><ele>1641.0</ele><time>2026-04-26T05:24:17.125Z</time></trkpt><trkpt lat="46.6563312" lon="12.4194792"><ele>1641.0</ele><time>2026-04-26T05:24:19.125Z</time></trkpt><trkpt lat="46.6563754" lon="12.4193757"><ele>1641.0</ele><time>2026-04-26T05:24:21.125Z</time></trkpt><trkpt lat="46.6564221" lon="12.4192704"><ele>1641.0</ele><time>2026-04-26T05:24:23.125Z</time></trkpt><trkpt lat="46.6564939" lon="12.4191793"><ele>1641.0</ele><time>2026-04-26T05:24:25.125Z</time></trkpt><trkpt lat="46.6565497" lon="12.4190726"><ele>1641.0</ele><time>2026-04-26T05:24:27.125Z</time></trkpt><trkpt lat="46.6566075" lon="12.4189702"><ele>1641.0</ele><time>2026-04-26T05:24:29.125Z</time></trkpt><trkpt lat="46.6566676" lon="12.4188625"><ele>1640.0</ele><time>2026-04-26T05:24:31.125Z</time></trkpt><trkpt lat="46.656724" lon="12.4187574"><ele>1639.0</ele><time>2026-04-26T05:24:33.125Z</time></trkpt><trkpt lat="46.6567788" lon="12.4186618"><ele>1638.0</ele><time>2026-04-26T05:24:35.125Z</time></trkpt><trkpt lat="46.6568309" lon="12.41857"><ele>1637.0</ele><time>2026-04-26T05:24:37.125Z</time></trkpt><trkpt lat="46.6568727" lon="12.4184759"><ele>1636.0</ele><time>2026-04-26T05:24:39.125Z</time></trkpt><trkpt lat="46.6569231" lon="12.4183919"><ele>1635.0</ele><time>2026-04-26T05:24:41.125Z</time></trkpt><trkpt lat="46.6569695" lon="12.418304"><ele>1635.0</ele><time>2026-04-26T05:24:43.125Z</time></trkpt><trkpt lat="46.6570187" lon="12.4182184"><ele>1635.0</ele><time>2026-04-26T05:24:45.125Z</time></trkpt><trkpt lat="46.6570637" lon="12.4181192"><ele>1635.0</ele><time>2026-04-26T05:24:47.125Z</time></trkpt><trkpt lat="46.6571236" lon="12.4180288"><ele>1635.0</ele><time>2026-04-26T05:24:49.125Z</time></trkpt><trkpt lat="46.6571795" lon="12.4179322"><ele>1635.0</ele><time>2026-04-26T05:24:51.125Z</time></trkpt><trkpt lat="46.6572284" lon="12.4178259"><ele>1635.0</ele><time>2026-04-26T05:24:53.125Z</time></trkpt><trkpt lat="46.6572779" lon="12.4177164"><ele>1635.0</ele><time>2026-04-26T05:24:55.126Z</time></trkpt><trkpt lat="46.6573244" lon="12.4175868"><ele>1635.0</ele><time>2026-04-26T05:24:57.125Z</time></trkpt><trkpt lat="46.6573716" lon="12.4174535"><ele>1635.0</ele><time>2026-04-26T05:24:59.125Z</time></trkpt><trkpt lat="46.6574197" lon="12.4173222"><ele>1635.0</ele><time>2026-04-26T05:25:01.125Z</time></trkpt><trkpt lat="46.65746" lon="12.4171894"><ele>1635.0</ele><time>2026-04-26T05:25:03.125Z</time></trkpt><trkpt lat="46.6575003" lon="12.4170595"><ele>1634.8</ele><time>2026-04-26T05:25:05.125Z</time></trkpt><trkpt lat="46.657544" lon="12.4169215"><ele>1634.6</ele><time>2026-04-26T05:25:07.125Z</time></trkpt><trkpt lat="46.6575833" lon="12.4167855"><ele>1634.4</ele><time>2026-04-26T05:25:09.125Z</time></trkpt><trkpt lat="46.6576271" lon="12.4166455"><ele>1634.2</ele><time>2026-04-26T05:25:11.125Z</time></trkpt><trkpt lat="46.6576691" lon="12.4164967"><ele>1634.0</ele><time>2026-04-26T05:25:13.125Z</time></trkpt><trkpt lat="46.6577059" lon="12.4163488"><ele>1633.8000000000002</ele><time>2026-04-26T05:25:15.125Z</time></trkpt><trkpt lat="46.6577423" lon="12.4161986"><ele>1633.6000000000001</ele><time>2026-04-26T05:25:17.125Z</time></trkpt><trkpt lat="46.6577727" lon="12.4160495"><ele>1633.4</ele><time>2026-04-26T05:25:19.126Z</time></trkpt><trkpt lat="46.6577991" lon="12.4159039"><ele>1633.2</ele><time>2026-04-26T05:25:21.125Z</time></trkpt><trkpt lat="46.6578253" lon="12.415757"><ele>1633.0</ele><time>2026-04-26T05:25:23.125Z</time></trkpt><trkpt lat="46.6578478" lon="12.4156061"><ele>1629.25</ele><time>2026-04-26T05:25:25.125Z</time></trkpt><trkpt lat="46.6578688" lon="12.4154508"><ele>1625.5</ele><time>2026-04-26T05:25:27.125Z</time></trkpt><trkpt lat="46.6578922" lon="12.4152946"><ele>1621.75</ele><time>2026-04-26T05:25:29.125Z</time></trkpt><trkpt lat="46.657918" lon="12.4151394"><ele>1618.0</ele><time>2026-04-26T05:25:31.125Z</time></trkpt><trkpt lat="46.6579482" lon="12.4149677"><ele>1618.0</ele><time>2026-04-26T05:25:33.125Z</time></trkpt><trkpt lat="46.6579666" lon="12.4148775"><ele>1618.0</ele><time>2026-04-26T05:25:34.125Z</time></trkpt><trkpt lat="46.6579894" lon="12.4147873"><ele>1618.0</ele><time>2026-04-26T05:25:35.125Z</time></trkpt><trkpt lat="46.6580143" lon="12.414692"><ele>1618.0</ele><time>2026-04-26T05:25:36.127Z</time></trkpt><trkpt lat="46.6580396" lon="12.4145968"><ele>1618.0</ele><time>2026-04-26T05:25:37.125Z</time></trkpt><trkpt lat="46.6580679" lon="12.4145008"><ele>1618.0</ele><time>2026-04-26T05:25:38.125Z</time></trkpt><trkpt lat="46.6580964" lon="12.4144083"><ele>1618.0</ele><time>2026-04-26T05:25:39.125Z</time></trkpt><trkpt lat="46.6581273" lon="12.4143103"><ele>1618.0000000000002</ele><time>2026-04-26T05:25:40.125Z</time></trkpt><trkpt lat="46.6581591" lon="12.4142098"><ele>1618.0</ele><time>2026-04-26T05:25:41.125Z</time></trkpt><trkpt lat="46.658191" lon="12.4141095"><ele>1618.0</ele><time>2026-04-26T05:25:42.125Z</time></trkpt><trkpt lat="46.6582263" lon="12.4140076"><ele>1618.0</ele><time>2026-04-26T05:25:43.125Z</time></trkpt><trkpt lat="46.6582619" lon="12.4139041"><ele>1618.0000000000002</ele><time>2026-04-26T05:25:44.125Z</time></trkpt><trkpt lat="46.6582941" lon="12.4137971"><ele>1618.0</ele><time>2026-04-26T05:25:45.125Z</time></trkpt><trkpt lat="46.6583286" lon="12.4136899"><ele>1618.0000000000002</ele><time>2026-04-26T05:25:46.125Z</time></trkpt><trkpt lat="46.6583635" lon="12.4135827"><ele>1618.0</ele><time>2026-04-26T05:25:47.125Z</time></trkpt><trkpt lat="46.6584008" lon="12.4134746"><ele>1618.0</ele><time>2026-04-26T05:25:48.125Z</time></trkpt><trkpt lat="46.6584401" lon="12.4133637"><ele>1618.0</ele><time>2026-04-26T05:25:49.125Z</time></trkpt><trkpt lat="46.6584758" lon="12.4132523"><ele>1618.0000000000002</ele><time>2026-04-26T05:25:50.125Z</time></trkpt><trkpt lat="46.6585147" lon="12.4131451"><ele>1618.0</ele><time>2026-04-26T05:25:51.125Z</time></trkpt><trkpt lat="46.6585503" lon="12.413038"><ele>1618.8333333333335</ele><time>2026-04-26T05:25:52.125Z</time></trkpt><trkpt lat="46.658585" lon="12.4129286"><ele>1619.6666666666667</ele><time>2026-04-26T05:25:53.125Z</time></trkpt><trkpt lat="46.6586187" lon="12.4128179"><ele>1620.5</ele><time>2026-04-26T05:25:54.125Z</time></trkpt><trkpt lat="46.6586492" lon="12.4127101"><ele>1621.3333333333335</ele><time>2026-04-26T05:25:55.125Z</time></trkpt><trkpt lat="46.65868" lon="12.4125982"><ele>1622.1666666666667</ele><time>2026-04-26T05:25:56.125Z</time></trkpt><trkpt lat="46.6587057" lon="12.4124839"><ele>1623.0</ele><time>2026-04-26T05:25:57.126Z</time></trkpt><trkpt lat="46.6587282" lon="12.4123669"><ele>1620.6666666666667</ele><time>2026-04-26T05:25:58.125Z</time></trkpt><trkpt lat="46.6587459" lon="12.4122482"><ele>1618.3333333333335</ele><time>2026-04-26T05:25:59.125Z</time></trkpt><trkpt lat="46.6587604" lon="12.4121259"><ele>1616.0</ele><time>2026-04-26T05:26:00.125Z</time></trkpt><trkpt lat="46.6587766" lon="12.4120032"><ele>1613.6666666666667</ele><time>2026-04-26T05:26:01.125Z</time></trkpt><trkpt lat="46.6587994" lon="12.4118834"><ele>1611.3333333333335</ele><time>2026-04-26T05:26:02.125Z</time></trkpt><trkpt lat="46.6588306" lon="12.4117668"><ele>1609.0</ele><time>2026-04-26T05:26:03.125Z</time></trkpt><trkpt lat="46.6588702" lon="12.4116565"><ele>1609.0000000000002</ele><time>2026-04-26T05:26:04.125Z</time></trkpt><trkpt lat="46.6589218" lon="12.4115558"><ele>1609.0</ele><time>2026-04-26T05:26:05.125Z</time></trkpt><trkpt lat="46.6589782" lon="12.4114621"><ele>1609.0</ele><time>2026-04-26T05:26:06.125Z</time></trkpt><trkpt lat="46.6590322" lon="12.4113669"><ele>1609.0</ele><time>2026-04-26T05:26:07.125Z</time></trkpt><trkpt lat="46.6590755" lon="12.4112648"><ele>1609.0000000000002</ele><time>2026-04-26T05:26:08.125Z</time></trkpt><trkpt lat="46.6591075" lon="12.4111562"><ele>1609.0</ele><time>2026-04-26T05:26:09.125Z</time></trkpt><trkpt lat="46.6591296" lon="12.4110403"><ele>1609.5000000000002</ele><time>2026-04-26T05:26:10.125Z</time></trkpt><trkpt lat="46.6591525" lon="12.410921"><ele>1610.0</ele><time>2026-04-26T05:26:11.125Z</time></trkpt><trkpt lat="46.6591704" lon="12.4108003"><ele>1610.5</ele><time>2026-04-26T05:26:12.125Z</time></trkpt><trkpt lat="46.6591893" lon="12.4106787"><ele>1611.0</ele><time>2026-04-26T05:26:13.125Z</time></trkpt><trkpt lat="46.6592156" lon="12.4105588"><ele>1611.5000000000002</ele><time>2026-04-26T05:26:14.125Z</time></trkpt><trkpt lat="46.6592481" lon="12.4104455"><ele>1612.0</ele><time>2026-04-26T05:26:15.125Z</time></trkpt><trkpt lat="46.6592876" lon="12.4103354"><ele>1612.1666666666667</ele><time>2026-04-26T05:26:16.125Z</time></trkpt><trkpt lat="46.6593285" lon="12.4102283"><ele>1612.3333333333335</ele><time>2026-04-26T05:26:17.125Z</time></trkpt><trkpt lat="46.6593638" lon="12.4101191"><ele>1612.5</ele><time>2026-04-26T05:26:18.125Z</time></trkpt><trkpt lat="46.6593908" lon="12.4100062"><ele>1612.6666666666665</ele><time>2026-04-26T05:26:19.126Z</time></trkpt><trkpt lat="46.6594097" lon="12.4098902"><ele>1612.8333333333333</ele><time>2026-04-26T05:26:20.125Z</time></trkpt><trkpt lat="46.659423" lon="12.409772"><ele>1613.0</ele><time>2026-04-26T05:26:21.125Z</time></trkpt><trkpt lat="46.6594329" lon="12.409649"><ele>1612.6666666666665</ele><time>2026-04-26T05:26:22.125Z</time></trkpt><trkpt lat="46.6594388" lon="12.409524"><ele>1612.3333333333333</ele><time>2026-04-26T05:26:23.125Z</time></trkpt><trkpt lat="46.6594459" lon="12.4093981"><ele>1612.0</ele><time>2026-04-26T05:26:24.125Z</time></trkpt><trkpt lat="46.6594537" lon="12.4092753"><ele>1611.6666666666665</ele><time>2026-04-26T05:26:25.125Z</time></trkpt><trkpt lat="46.6594622" lon="12.409153"><ele>1611.3333333333333</ele><time>2026-04-26T05:26:26.125Z</time></trkpt><trkpt lat="46.6594708" lon="12.4090299"><ele>1611.0</ele><time>2026-04-26T05:26:27.125Z</time></trkpt><trkpt lat="46.6594802" lon="12.4089093"><ele>1608.8333333333333</ele><time>2026-04-26T05:26:28.125Z</time></trkpt><trkpt lat="46.6594937" lon="12.4087864"><ele>1606.6666666666665</ele><time>2026-04-26T05:26:29.125Z</time></trkpt><trkpt lat="46.6595059" lon="12.4086666"><ele>1604.5</ele><time>2026-04-26T05:26:30.125Z</time></trkpt><trkpt lat="46.6595169" lon="12.4085429"><ele>1602.3333333333333</ele><time>2026-04-26T05:26:31.125Z</time></trkpt><trkpt lat="46.6595256" lon="12.4084174"><ele>1600.1666666666665</ele><time>2026-04-26T05:26:32.125Z</time></trkpt><trkpt lat="46.6595374" lon="12.4082893"><ele>1598.0</ele><time>2026-04-26T05:26:33.125Z</time></trkpt><trkpt lat="46.6595471" lon="12.4081606"><ele>1597.9999999999998</ele><time>2026-04-26T05:26:34.125Z</time></trkpt><trkpt lat="46.6595564" lon="12.4080312"><ele>1598.0</ele><time>2026-04-26T05:26:35.125Z</time></trkpt><trkpt lat="46.6595643" lon="12.4079031"><ele>1598.0</ele><time>2026-04-26T05:26:36.126Z</time></trkpt><trkpt lat="46.6595739" lon="12.4077774"><ele>1598.0</ele><time>2026-04-26T05:26:37.125Z</time></trkpt><trkpt lat="46.6595852" lon="12.4076487"><ele>1597.9999999999998</ele><time>2026-04-26T05:26:38.125Z</time></trkpt><trkpt lat="46.6595971" lon="12.4075219"><ele>1598.0</ele><time>2026-04-26T05:26:39.125Z</time></trkpt><trkpt lat="46.659613" lon="12.4073969"><ele>1597.8333333333333</ele><time>2026-04-26T05:26:40.125Z</time></trkpt><trkpt lat="46.6596317" lon="12.4072708"><ele>1597.6666666666665</ele><time>2026-04-26T05:26:41.125Z</time></trkpt><trkpt lat="46.6596566" lon="12.4071467"><ele>1597.5</ele><time>2026-04-26T05:26:42.125Z</time></trkpt><trkpt lat="46.6596853" lon="12.4070227"><ele>1597.3333333333335</ele><time>2026-04-26T05:26:43.125Z</time></trkpt><trkpt lat="46.6597139" lon="12.4069018"><ele>1597.1666666666667</ele><time>2026-04-26T05:26:44.125Z</time></trkpt><trkpt lat="46.6597516" lon="12.4067845"><ele>1597.0</ele><time>2026-04-26T05:26:45.125Z</time></trkpt><trkpt lat="46.6597898" lon="12.4066703"><ele>1597.0000000000002</ele><time>2026-04-26T05:26:46.126Z</time></trkpt><trkpt lat="46.6598311" lon="12.4065581"><ele>1597.0</ele><time>2026-04-26T05:26:47.125Z</time></trkpt><trkpt lat="46.6598738" lon="12.4064483"><ele>1597.0</ele><time>2026-04-26T05:26:48.125Z</time></trkpt><trkpt lat="46.6599165" lon="12.4063354"><ele>1597.0</ele><time>2026-04-26T05:26:49.125Z</time></trkpt><trkpt lat="46.6599596" lon="12.4062245"><ele>1597.0000000000002</ele><time>2026-04-26T05:26:50.125Z</time></trkpt><trkpt lat="46.660001" lon="12.4061142"><ele>1597.0</ele><time>2026-04-26T05:26:51.125Z</time></trkpt><trkpt lat="46.6600391" lon="12.4060038"><ele>1597.0000000000002</ele><time>2026-04-26T05:26:52.125Z</time></trkpt><trkpt lat="46.6600745" lon="12.4058917"><ele>1597.0</ele><time>2026-04-26T05:26:53.125Z</time></trkpt><trkpt lat="46.6601092" lon="12.4057807"><ele>1597.0</ele><time>2026-04-26T05:26:54.126Z</time></trkpt><trkpt lat="46.660141" lon="12.4056677"><ele>1597.0</ele><time>2026-04-26T05:26:55.125Z</time></trkpt><trkpt lat="46.6601717" lon="12.4055565"><ele>1597.0000000000002</ele><time>2026-04-26T05:26:56.125Z</time></trkpt><trkpt lat="46.6602022" lon="12.4054438"><ele>1597.0</ele><time>2026-04-26T05:26:57.126Z</time></trkpt><trkpt lat="46.6602319" lon="12.4053295"><ele>1597.0000000000002</ele><time>2026-04-26T05:26:58.125Z</time></trkpt><trkpt lat="46.6602652" lon="12.4052166"><ele>1597.0</ele><time>2026-04-26T05:26:59.125Z</time></trkpt><trkpt lat="46.660296" lon="12.4051071"><ele>1597.0</ele><time>2026-04-26T05:27:00.125Z</time></trkpt><trkpt lat="46.660329" lon="12.404998"><ele>1597.0</ele><time>2026-04-26T05:27:01.125Z</time></trkpt><trkpt lat="46.6603657" lon="12.4048866"><ele>1597.0000000000002</ele><time>2026-04-26T05:27:02.125Z</time></trkpt><trkpt lat="46.6604039" lon="12.4047752"><ele>1597.0</ele><time>2026-04-26T05:27:03.125Z</time></trkpt><trkpt lat="46.6604447" lon="12.404666"><ele>1594.8</ele><time>2026-04-26T05:27:04.126Z</time></trkpt><trkpt lat="46.6604878" lon="12.4045637"><ele>1592.6</ele><time>2026-04-26T05:27:05.125Z</time></trkpt><trkpt lat="46.660538" lon="12.4044667"><ele>1590.3999999999999</ele><time>2026-04-26T05:27:06.125Z</time></trkpt><trkpt lat="46.6605977" lon="12.4043748"><ele>1588.1999999999998</ele><time>2026-04-26T05:27:07.125Z</time></trkpt><trkpt lat="46.6607367" lon="12.4042229"><ele>1586.0</ele><time>2026-04-26T05:27:09.125Z</time></trkpt><trkpt lat="46.6608103" lon="12.4041516"><ele>1586.0</ele><time>2026-04-26T05:27:10.126Z</time></trkpt><trkpt lat="46.6608816" lon="12.4040755"><ele>1586.0</ele><time>2026-04-26T05:27:11.125Z</time></trkpt><trkpt lat="46.6609582" lon="12.4040063"><ele>1586.0</ele><time>2026-04-26T05:27:12.125Z</time></trkpt><trkpt lat="46.661036" lon="12.4039409"><ele>1586.0</ele><time>2026-04-26T05:27:13.125Z</time></trkpt><trkpt lat="46.6611124" lon="12.4038684"><ele>1586.0</ele><time>2026-04-26T05:27:14.125Z</time></trkpt><trkpt lat="46.66119" lon="12.4037955"><ele>1585.6666666666665</ele><time>2026-04-26T05:27:15.125Z</time></trkpt><trkpt lat="46.6612716" lon="12.4037347"><ele>1585.3333333333333</ele><time>2026-04-26T05:27:16.125Z</time></trkpt><trkpt lat="46.6613481" lon="12.4036784"><ele>1585.0</ele><time>2026-04-26T05:27:17.125Z</time></trkpt><trkpt lat="46.6614266" lon="12.4036286"><ele>1584.6666666666665</ele><time>2026-04-26T05:27:18.125Z</time></trkpt><trkpt lat="46.6615041" lon="12.4035867"><ele>1584.3333333333333</ele><time>2026-04-26T05:27:19.125Z</time></trkpt><trkpt lat="46.6615788" lon="12.4035442"><ele>1584.0</ele><time>2026-04-26T05:27:20.125Z</time></trkpt><trkpt lat="46.6616542" lon="12.4035039"><ele>1584.0</ele><time>2026-04-26T05:27:21.125Z</time></trkpt><trkpt lat="46.6617305" lon="12.4034649"><ele>1584.0</ele><time>2026-04-26T05:27:22.125Z</time></trkpt><trkpt lat="46.6618062" lon="12.4034244"><ele>1584.0</ele><time>2026-04-26T05:27:23.125Z</time></trkpt><trkpt lat="46.6619418" lon="12.4033177"><ele>1584.0</ele><time>2026-04-26T05:27:25.125Z</time></trkpt><trkpt lat="46.6620026" lon="12.4032466"><ele>1584.0</ele><time>2026-04-26T05:27:26.126Z</time></trkpt><trkpt lat="46.6620614" lon="12.4031659"><ele>1582.5</ele><time>2026-04-26T05:27:27.125Z</time></trkpt><trkpt lat="46.6621228" lon="12.4030798"><ele>1581.0</ele><time>2026-04-26T05:27:28.125Z</time></trkpt><trkpt lat="46.6621848" lon="12.4029924"><ele>1579.5</ele><time>2026-04-26T05:27:29.125Z</time></trkpt><trkpt lat="46.6622471" lon="12.4029047"><ele>1578.0</ele><time>2026-04-26T05:27:30.125Z</time></trkpt><trkpt lat="46.6623126" lon="12.4028131"><ele>1576.5</ele><time>2026-04-26T05:27:31.125Z</time></trkpt><trkpt lat="46.6623783" lon="12.402722"><ele>1575.0</ele><time>2026-04-26T05:27:32.125Z</time></trkpt><trkpt lat="46.6624491" lon="12.4026408"><ele>1575.0</ele><time>2026-04-26T05:27:33.125Z</time></trkpt><trkpt lat="46.6625278" lon="12.4025797"><ele>1575.0</ele><time>2026-04-26T05:27:34.125Z</time></trkpt><trkpt lat="46.6626129" lon="12.4025378"><ele>1575.0</ele><time>2026-04-26T05:27:35.126Z</time></trkpt><trkpt lat="46.6626984" lon="12.4024981"><ele>1575.0</ele><time>2026-04-26T05:27:36.125Z</time></trkpt><trkpt lat="46.6627758" lon="12.4024456"><ele>1575.0</ele><time>2026-04-26T05:27:37.125Z</time></trkpt><trkpt lat="46.6628433" lon="12.4023691"><ele>1575.0</ele><time>2026-04-26T05:27:38.125Z</time></trkpt><trkpt lat="46.6629028" lon="12.4022795"><ele>1573.8</ele><time>2026-04-26T05:27:39.126Z</time></trkpt><trkpt lat="46.6629581" lon="12.4021768"><ele>1572.6</ele><time>2026-04-26T05:27:40.126Z</time></trkpt><trkpt lat="46.6630135" lon="12.4020716"><ele>1571.4</ele><time>2026-04-26T05:27:41.127Z</time></trkpt><trkpt lat="46.6630708" lon="12.4019677"><ele>1570.2</ele><time>2026-04-26T05:27:42.126Z</time></trkpt><trkpt lat="46.6631317" lon="12.4018703"><ele>1569.0</ele><time>2026-04-26T05:27:43.126Z</time></trkpt><trkpt lat="46.6631944" lon="12.4017813"><ele>1569.0</ele><time>2026-04-26T05:27:44.126Z</time></trkpt><trkpt lat="46.6632664" lon="12.4017029"><ele>1569.0</ele><time>2026-04-26T05:27:45.126Z</time></trkpt><trkpt lat="46.6633445" lon="12.401633"><ele>1569.0</ele><time>2026-04-26T05:27:46.127Z</time></trkpt><trkpt lat="46.6634182" lon="12.401562"><ele>1569.0</ele><time>2026-04-26T05:27:47.126Z</time></trkpt><trkpt lat="46.6634924" lon="12.4014906"><ele>1569.0</ele><time>2026-04-26T05:27:48.126Z</time></trkpt><trkpt lat="46.6635663" lon="12.4014174"><ele>1569.0</ele><time>2026-04-26T05:27:49.126Z</time></trkpt><trkpt lat="46.6636376" lon="12.4013462"><ele>1568.0</ele><time>2026-04-26T05:27:50.126Z</time></trkpt><trkpt lat="46.6637073" lon="12.4012684"><ele>1567.0</ele><time>2026-04-26T05:27:51.126Z</time></trkpt><trkpt lat="46.6637721" lon="12.4011849"><ele>1566.0</ele><time>2026-04-26T05:27:52.126Z</time></trkpt><trkpt lat="46.6638324" lon="12.401093"><ele>1565.0</ele><time>2026-04-26T05:27:53.126Z</time></trkpt><trkpt lat="46.6638964" lon="12.4010005"><ele>1564.0</ele><time>2026-04-26T05:27:54.126Z</time></trkpt><trkpt lat="46.6639657" lon="12.4009136"><ele>1563.0</ele><time>2026-04-26T05:27:55.126Z</time></trkpt><trkpt lat="46.6640399" lon="12.4008343"><ele>1563.0</ele><time>2026-04-26T05:27:56.126Z</time></trkpt><trkpt lat="46.6641174" lon="12.4007583"><ele>1563.0</ele><time>2026-04-26T05:27:57.125Z</time></trkpt><trkpt lat="46.6641978" lon="12.4006877"><ele>1563.0</ele><time>2026-04-26T05:27:58.126Z</time></trkpt><trkpt lat="46.6642741" lon="12.4006221"><ele>1563.0</ele><time>2026-04-26T05:27:59.126Z</time></trkpt><trkpt lat="46.6643487" lon="12.4005592"><ele>1563.0</ele><time>2026-04-26T05:28:00.126Z</time></trkpt><trkpt lat="46.6644222" lon="12.4005071"><ele>1563.0</ele><time>2026-04-26T05:28:01.126Z</time></trkpt><trkpt lat="46.6645042" lon="12.400465"><ele>1563.1666666666667</ele><time>2026-04-26T05:28:02.126Z</time></trkpt><trkpt lat="46.6645909" lon="12.4004466"><ele>1563.3333333333335</ele><time>2026-04-26T05:28:03.126Z</time></trkpt><trkpt lat="46.6646796" lon="12.400457"><ele>1563.5</ele><time>2026-04-26T05:28:04.126Z</time></trkpt><trkpt lat="46.6647627" lon="12.4004872"><ele>1563.6666666666667</ele><time>2026-04-26T05:28:05.126Z</time></trkpt><trkpt lat="46.6648454" lon="12.4005233"><ele>1563.8333333333335</ele><time>2026-04-26T05:28:06.126Z</time></trkpt><trkpt lat="46.6649282" lon="12.4005574"><ele>1564.0</ele><time>2026-04-26T05:28:07.126Z</time></trkpt><trkpt lat="46.6650122" lon="12.4005875"><ele>1562.3333333333335</ele><time>2026-04-26T05:28:08.126Z</time></trkpt><trkpt lat="46.6651003" lon="12.4006037"><ele>1560.6666666666667</ele><time>2026-04-26T05:28:09.126Z</time></trkpt><trkpt lat="46.6651857" lon="12.4006048"><ele>1559.0</ele><time>2026-04-26T05:28:10.126Z</time></trkpt><trkpt lat="46.6652708" lon="12.4005932"><ele>1557.3333333333335</ele><time>2026-04-26T05:28:11.126Z</time></trkpt><trkpt lat="46.6653501" lon="12.4005712"><ele>1555.6666666666667</ele><time>2026-04-26T05:28:12.126Z</time></trkpt><trkpt lat="46.6654352" lon="12.4005429"><ele>1554.0</ele><time>2026-04-26T05:28:13.126Z</time></trkpt><trkpt lat="46.6655172" lon="12.4005081"><ele>1554.0</ele><time>2026-04-26T05:28:14.126Z</time></trkpt><trkpt lat="46.6655997" lon="12.4004601"><ele>1554.0</ele><time>2026-04-26T05:28:15.126Z</time></trkpt><trkpt lat="46.665684" lon="12.4004129"><ele>1554.0</ele><time>2026-04-26T05:28:16.126Z</time></trkpt><trkpt lat="46.6657652" lon="12.4003563"><ele>1554.0</ele><time>2026-04-26T05:28:17.126Z</time></trkpt><trkpt lat="46.6658499" lon="12.4003018"><ele>1554.0</ele><time>2026-04-26T05:28:18.126Z</time></trkpt><trkpt lat="46.6659367" lon="12.4002477"><ele>1554.0</ele><time>2026-04-26T05:28:19.126Z</time></trkpt><trkpt lat="46.6660242" lon="12.4001907"><ele>1554.0</ele><time>2026-04-26T05:28:20.126Z</time></trkpt><trkpt lat="46.6661138" lon="12.4001371"><ele>1554.0</ele><time>2026-04-26T05:28:21.126Z</time></trkpt><trkpt lat="46.6662017" lon="12.400075"><ele>1554.0</ele><time>2026-04-26T05:28:22.126Z</time></trkpt><trkpt lat="46.6662932" lon="12.4000198"><ele>1554.0</ele><time>2026-04-26T05:28:23.126Z</time></trkpt><trkpt lat="46.6663813" lon="12.3999628"><ele>1551.8000000000002</ele><time>2026-04-26T05:28:24.126Z</time></trkpt><trkpt lat="46.6664697" lon="12.3999147"><ele>1549.6000000000001</ele><time>2026-04-26T05:28:25.126Z</time></trkpt><trkpt lat="46.6665654" lon="12.3998513"><ele>1547.4</ele><time>2026-04-26T05:28:26.126Z</time></trkpt><trkpt lat="46.6666586" lon="12.3997884"><ele>1545.2</ele><time>2026-04-26T05:28:27.126Z</time></trkpt><trkpt lat="46.6667534" lon="12.3997245"><ele>1543.0</ele><time>2026-04-26T05:28:28.126Z</time></trkpt><trkpt lat="46.6668549" lon="12.3996659"><ele>1541.4</ele><time>2026-04-26T05:28:29.126Z</time></trkpt><trkpt lat="46.6669542" lon="12.3996021"><ele>1539.8000000000002</ele><time>2026-04-26T05:28:30.126Z</time></trkpt><trkpt lat="46.6670561" lon="12.3995346"><ele>1538.2</ele><time>2026-04-26T05:28:31.126Z</time></trkpt><trkpt lat="46.6671491" lon="12.3994703"><ele>1536.6</ele><time>2026-04-26T05:28:32.126Z</time></trkpt><trkpt lat="46.6672356" lon="12.3994109"><ele>1535.0</ele><time>2026-04-26T05:28:33.126Z</time></trkpt><trkpt lat="46.6673997" lon="12.3992911"><ele>1535.0</ele><time>2026-04-26T05:28:35.126Z</time></trkpt><trkpt lat="46.6674741" lon="12.3992286"><ele>1535.0</ele><time>2026-04-26T05:28:36.126Z</time></trkpt><trkpt lat="46.6675354" lon="12.3991702"><ele>1535.0</ele><time>2026-04-26T05:28:37.126Z</time></trkpt><trkpt lat="46.6675903" lon="12.3991219"><ele>1535.0</ele><time>2026-04-26T05:28:38.126Z</time></trkpt><trkpt lat="46.6676766" lon="12.3991057"><ele>1535.0</ele><time>2026-04-26T05:28:40.126Z</time></trkpt><trkpt lat="46.6677319" lon="12.3992125"><ele>1535.0</ele><time>2026-04-26T05:28:42.126Z</time></trkpt><trkpt lat="46.667754" lon="12.3993513"><ele>1535.0</ele><time>2026-04-26T05:28:44.126Z</time></trkpt><trkpt lat="46.6678177" lon="12.3994734"><ele>1526.0</ele><time>2026-04-26T05:28:46.126Z</time></trkpt><trkpt lat="46.6679172" lon="12.3995495"><ele>1526.0</ele><time>2026-04-26T05:28:48.126Z</time></trkpt><trkpt lat="46.6680036" lon="12.3995731"><ele>1526.0</ele><time>2026-04-26T05:28:50.126Z</time></trkpt><trkpt lat="46.6680616" lon="12.3995258"><ele>1526.0</ele><time>2026-04-26T05:28:53.126Z</time></trkpt></trkseg></trk></gpx>